<?xml version="1.0" encoding="UTF-8" standalone="no" ?>
<gpx xmlns="http://www.topografix.com/GPX/1/1" xmlns:xsi="http://www.w3.org/2001/XMLSchema-instance" xsi:schemaLocation="http://www.topografix.com/GPX/1/1 http://www.topografix.com/GPX/1/1/gpx.xsd" version="1.1" creator="VisuGPX - https://www.visugpx.com">
  <metadata>
    <name>Sucy-en-Brie - Forêt de Grosbois et de Notre-Dame</name>
    <desc><![CDATA[Randonnée de 17 km à partir de la gare RER de Sucy-en-Brie]]></desc>
  </metadata>
  <wpt lat="48.75331" lon="2.52134">
    <ele>85.701942</ele>
    <name><![CDATA[Point de pique-nique couvert]]></name>
    <type><![CDATA[user]]></type>
  </wpt>
  <wpt lat="48.75121" lon="2.54612">
    <ele>84.562019</ele>
    <name><![CDATA[Tables]]></name>
    <type><![CDATA[user]]></type>
  </wpt>
  <trk>
    <name><![CDATA[Sucy - Grosbois _R]]></name>
    <trkseg>
      <trkpt lat="48.77113" lon="2.5076">
        <ele>54.23</ele>
        <time>2022-01-09T08:15:56Z</time>
      </trkpt>
      <trkpt lat="48.77114" lon="2.50759">
        <ele>54.23</ele>
        <time>2022-01-09T08:15:57Z</time>
      </trkpt>
      <trkpt lat="48.77117" lon="2.50759">
        <ele>54.13</ele>
        <time>2022-01-09T08:16:55Z</time>
      </trkpt>
      <trkpt lat="48.77119" lon="2.50758">
        <ele>50.82</ele>
        <time>2022-01-09T08:17:15Z</time>
      </trkpt>
      <trkpt lat="48.77104" lon="2.50804">
        <ele>53.43</ele>
        <time>2022-01-09T08:35:39Z</time>
      </trkpt>
      <trkpt lat="48.77108" lon="2.50845">
        <ele>52.51</ele>
        <time>2022-01-09T08:35:46Z</time>
      </trkpt>
      <trkpt lat="48.77108" lon="2.50848">
        <ele>53.13</ele>
        <time>2022-01-09T08:36:21Z</time>
      </trkpt>
      <trkpt lat="48.7711" lon="2.50848">
        <ele>53.33</ele>
        <time>2022-01-09T08:37:42Z</time>
      </trkpt>
      <trkpt lat="48.77101" lon="2.50874">
        <ele>54.34</ele>
        <time>2022-01-09T08:37:59Z</time>
      </trkpt>
      <trkpt lat="48.77102" lon="2.50882">
        <ele>54.21</ele>
        <time>2022-01-09T08:38:03Z</time>
      </trkpt>
      <trkpt lat="48.77108" lon="2.50887">
        <ele>54.11</ele>
        <time>2022-01-09T08:38:13Z</time>
      </trkpt>
      <trkpt lat="48.77111" lon="2.50886">
        <ele>54.27</ele>
        <time>2022-01-09T08:38:27Z</time>
      </trkpt>
      <trkpt lat="48.77126" lon="2.509">
        <ele>54.51</ele>
        <time>2022-01-09T08:38:40Z</time>
      </trkpt>
      <trkpt lat="48.77148" lon="2.50908">
        <ele>54.42</ele>
        <time>2022-01-09T08:38:57Z</time>
      </trkpt>
      <trkpt lat="48.77158" lon="2.50924">
        <ele>54.89</ele>
        <time>2022-01-09T08:39:10Z</time>
      </trkpt>
      <trkpt lat="48.7716" lon="2.50932">
        <ele>54.96</ele>
        <time>2022-01-09T08:39:14Z</time>
      </trkpt>
      <trkpt lat="48.77159" lon="2.50944">
        <ele>54.89</ele>
        <time>2022-01-09T08:39:21Z</time>
      </trkpt>
      <trkpt lat="48.77158" lon="2.50958">
        <ele>55.77</ele>
        <time>2022-01-09T08:39:31Z</time>
      </trkpt>
      <trkpt lat="48.77159" lon="2.50962">
        <ele>55.54</ele>
        <time>2022-01-09T08:39:33Z</time>
      </trkpt>
      <trkpt lat="48.77157" lon="2.50972">
        <ele>55.52</ele>
        <time>2022-01-09T08:39:40Z</time>
      </trkpt>
      <trkpt lat="48.77157" lon="2.50992">
        <ele>55.58</ele>
        <time>2022-01-09T08:39:53Z</time>
      </trkpt>
      <trkpt lat="48.7716" lon="2.51011">
        <ele>55.78</ele>
        <time>2022-01-09T08:40:07Z</time>
      </trkpt>
      <trkpt lat="48.7716" lon="2.5102">
        <ele>56.01</ele>
        <time>2022-01-09T08:40:19Z</time>
      </trkpt>
      <trkpt lat="48.77154" lon="2.51046">
        <ele>57.18</ele>
        <time>2022-01-09T08:40:35Z</time>
      </trkpt>
      <trkpt lat="48.77149" lon="2.51074">
        <ele>57.95</ele>
        <time>2022-01-09T08:40:50Z</time>
      </trkpt>
      <trkpt lat="48.77145" lon="2.51096">
        <ele>58.4</ele>
        <time>2022-01-09T08:41:02Z</time>
      </trkpt>
      <trkpt lat="48.77145" lon="2.511">
        <ele>58.43</ele>
        <time>2022-01-09T08:41:04Z</time>
      </trkpt>
      <trkpt lat="48.77143" lon="2.51106">
        <ele>58.71</ele>
        <time>2022-01-09T08:41:08Z</time>
      </trkpt>
      <trkpt lat="48.77144" lon="2.51125">
        <ele>59.3</ele>
        <time>2022-01-09T08:41:19Z</time>
      </trkpt>
      <trkpt lat="48.77143" lon="2.51133">
        <ele>59.44</ele>
        <time>2022-01-09T08:41:23Z</time>
      </trkpt>
      <trkpt lat="48.77142" lon="2.51148">
        <ele>60.08</ele>
        <time>2022-01-09T08:41:33Z</time>
      </trkpt>
      <trkpt lat="48.77141" lon="2.5115">
        <ele>60.36</ele>
        <time>2022-01-09T08:41:34Z</time>
      </trkpt>
      <trkpt lat="48.77138" lon="2.51164">
        <ele>61.34</ele>
        <time>2022-01-09T08:41:43Z</time>
      </trkpt>
      <trkpt lat="48.77137" lon="2.51187">
        <ele>61.69</ele>
        <time>2022-01-09T08:41:58Z</time>
      </trkpt>
      <trkpt lat="48.77137" lon="2.51191">
        <ele>61.62</ele>
        <time>2022-01-09T08:42:00Z</time>
      </trkpt>
      <trkpt lat="48.77135" lon="2.51206">
        <ele>61.81</ele>
        <time>2022-01-09T08:42:08Z</time>
      </trkpt>
      <trkpt lat="48.77131" lon="2.51221">
        <ele>62.2</ele>
        <time>2022-01-09T08:42:17Z</time>
      </trkpt>
      <trkpt lat="48.77134" lon="2.5123">
        <ele>62.86</ele>
        <time>2022-01-09T08:42:23Z</time>
      </trkpt>
      <trkpt lat="48.77133" lon="2.51247">
        <ele>62.93</ele>
        <time>2022-01-09T08:42:33Z</time>
      </trkpt>
      <trkpt lat="48.77125" lon="2.51288">
        <ele>63.98</ele>
        <time>2022-01-09T08:42:54Z</time>
      </trkpt>
      <trkpt lat="48.77124" lon="2.51295">
        <ele>63.81</ele>
        <time>2022-01-09T08:42:57Z</time>
      </trkpt>
      <trkpt lat="48.77124" lon="2.51303">
        <ele>64.34</ele>
        <time>2022-01-09T08:43:01Z</time>
      </trkpt>
      <trkpt lat="48.77125" lon="2.51311">
        <ele>63.64</ele>
        <time>2022-01-09T08:43:06Z</time>
      </trkpt>
      <trkpt lat="48.77125" lon="2.51328">
        <ele>64.03</ele>
        <time>2022-01-09T08:43:18Z</time>
      </trkpt>
      <trkpt lat="48.77134" lon="2.51344">
        <ele>64.4</ele>
        <time>2022-01-09T08:43:34Z</time>
      </trkpt>
      <trkpt lat="48.77146" lon="2.51354">
        <ele>64.59</ele>
        <time>2022-01-09T08:43:50Z</time>
      </trkpt>
      <trkpt lat="48.77163" lon="2.51361">
        <ele>64.89</ele>
        <time>2022-01-09T08:44:06Z</time>
      </trkpt>
      <trkpt lat="48.77173" lon="2.51369">
        <ele>64.74</ele>
        <time>2022-01-09T08:44:22Z</time>
      </trkpt>
      <trkpt lat="48.77184" lon="2.51378">
        <ele>65.14</ele>
        <time>2022-01-09T08:44:36Z</time>
      </trkpt>
      <trkpt lat="48.77202" lon="2.51385">
        <ele>64.94</ele>
        <time>2022-01-09T08:44:53Z</time>
      </trkpt>
      <trkpt lat="48.77203" lon="2.51385">
        <ele>64.7</ele>
        <time>2022-01-09T08:44:54Z</time>
      </trkpt>
      <trkpt lat="48.77222" lon="2.51383">
        <ele>65.17</ele>
        <time>2022-01-09T08:45:08Z</time>
      </trkpt>
      <trkpt lat="48.77232" lon="2.51381">
        <ele>64.64</ele>
        <time>2022-01-09T08:45:18Z</time>
      </trkpt>
      <trkpt lat="48.7725" lon="2.51381">
        <ele>64.54</ele>
        <time>2022-01-09T08:45:34Z</time>
      </trkpt>
      <trkpt lat="48.77262" lon="2.51377">
        <ele>64.26</ele>
        <time>2022-01-09T08:45:44Z</time>
      </trkpt>
      <trkpt lat="48.77271" lon="2.51376">
        <ele>63.67</ele>
        <time>2022-01-09T08:45:53Z</time>
      </trkpt>
      <trkpt lat="48.7728" lon="2.51383">
        <ele>63.69</ele>
        <time>2022-01-09T08:46:06Z</time>
      </trkpt>
      <trkpt lat="48.77281" lon="2.51388">
        <ele>64.12</ele>
        <time>2022-01-09T08:46:10Z</time>
      </trkpt>
      <trkpt lat="48.77282" lon="2.51395">
        <ele>63.93</ele>
        <time>2022-01-09T08:46:15Z</time>
      </trkpt>
      <trkpt lat="48.77282" lon="2.51399">
        <ele>64.81</ele>
        <time>2022-01-09T08:46:18Z</time>
      </trkpt>
      <trkpt lat="48.77282" lon="2.51402">
        <ele>64.7</ele>
        <time>2022-01-09T08:46:20Z</time>
      </trkpt>
      <trkpt lat="48.77285" lon="2.51411">
        <ele>64.75</ele>
        <time>2022-01-09T08:46:26Z</time>
      </trkpt>
      <trkpt lat="48.77293" lon="2.51409">
        <ele>64.54</ele>
        <time>2022-01-09T08:46:36Z</time>
      </trkpt>
      <trkpt lat="48.77306" lon="2.51405">
        <ele>63.91</ele>
        <time>2022-01-09T08:46:46Z</time>
      </trkpt>
      <trkpt lat="48.77315" lon="2.51399">
        <ele>63.59</ele>
        <time>2022-01-09T08:46:57Z</time>
      </trkpt>
      <trkpt lat="48.77331" lon="2.51394">
        <ele>63.01</ele>
        <time>2022-01-09T08:47:12Z</time>
      </trkpt>
      <trkpt lat="48.77338" lon="2.51397">
        <ele>63.45</ele>
        <time>2022-01-09T08:47:18Z</time>
      </trkpt>
      <trkpt lat="48.77351" lon="2.51393">
        <ele>61.74</ele>
        <time>2022-01-09T08:47:34Z</time>
      </trkpt>
      <trkpt lat="48.77362" lon="2.51389">
        <ele>61.51</ele>
        <time>2022-01-09T08:47:48Z</time>
      </trkpt>
      <trkpt lat="48.77376" lon="2.51394">
        <ele>61.33</ele>
        <time>2022-01-09T08:48:01Z</time>
      </trkpt>
      <trkpt lat="48.77389" lon="2.51408">
        <ele>61.15</ele>
        <time>2022-01-09T08:48:17Z</time>
      </trkpt>
      <trkpt lat="48.774" lon="2.51415">
        <ele>60.96</ele>
        <time>2022-01-09T08:48:30Z</time>
      </trkpt>
      <trkpt lat="48.77402" lon="2.51429">
        <ele>61.42</ele>
        <time>2022-01-09T08:48:43Z</time>
      </trkpt>
      <trkpt lat="48.77408" lon="2.51446">
        <ele>61.89</ele>
        <time>2022-01-09T08:48:58Z</time>
      </trkpt>
      <trkpt lat="48.77414" lon="2.51464">
        <ele>61.61</ele>
        <time>2022-01-09T08:49:12Z</time>
      </trkpt>
      <trkpt lat="48.77431" lon="2.51474">
        <ele>61.79</ele>
        <time>2022-01-09T08:49:26Z</time>
      </trkpt>
      <trkpt lat="48.77433" lon="2.51482">
        <ele>61.21</ele>
        <time>2022-01-09T08:49:34Z</time>
      </trkpt>
      <trkpt lat="48.7744" lon="2.51499">
        <ele>61.04</ele>
        <time>2022-01-09T08:49:47Z</time>
      </trkpt>
      <trkpt lat="48.77448" lon="2.51514">
        <ele>60.65</ele>
        <time>2022-01-09T08:50:00Z</time>
      </trkpt>
      <trkpt lat="48.77448" lon="2.51532">
        <ele>60.86</ele>
        <time>2022-01-09T08:50:12Z</time>
      </trkpt>
      <trkpt lat="48.77442" lon="2.51535">
        <ele>60.49</ele>
        <time>2022-01-09T08:50:18Z</time>
      </trkpt>
      <trkpt lat="48.77433" lon="2.51542">
        <ele>61.52</ele>
        <time>2022-01-09T08:50:28Z</time>
      </trkpt>
      <trkpt lat="48.77431" lon="2.51558">
        <ele>61.9</ele>
        <time>2022-01-09T08:50:41Z</time>
      </trkpt>
      <trkpt lat="48.77432" lon="2.51561">
        <ele>61.54</ele>
        <time>2022-01-09T08:50:44Z</time>
      </trkpt>
      <trkpt lat="48.77434" lon="2.51565">
        <ele>61.41</ele>
        <time>2022-01-09T08:50:47Z</time>
      </trkpt>
      <trkpt lat="48.77439" lon="2.5158">
        <ele>61.05</ele>
        <time>2022-01-09T08:51:03Z</time>
      </trkpt>
      <trkpt lat="48.77445" lon="2.51587">
        <ele>60.52</ele>
        <time>2022-01-09T08:51:11Z</time>
      </trkpt>
      <trkpt lat="48.77452" lon="2.51598">
        <ele>59.7</ele>
        <time>2022-01-09T08:51:20Z</time>
      </trkpt>
      <trkpt lat="48.77451" lon="2.5161">
        <ele>59.65</ele>
        <time>2022-01-09T08:51:33Z</time>
      </trkpt>
      <trkpt lat="48.77445" lon="2.51617">
        <ele>59.96</ele>
        <time>2022-01-09T08:51:40Z</time>
      </trkpt>
      <trkpt lat="48.77442" lon="2.51626">
        <ele>60.69</ele>
        <time>2022-01-09T08:51:54Z</time>
      </trkpt>
      <trkpt lat="48.77441" lon="2.51628">
        <ele>60.07</ele>
        <time>2022-01-09T08:51:55Z</time>
      </trkpt>
      <trkpt lat="48.77435" lon="2.51639">
        <ele>61.2</ele>
        <time>2022-01-09T08:52:06Z</time>
      </trkpt>
      <trkpt lat="48.7742" lon="2.51658">
        <ele>62.26</ele>
        <time>2022-01-09T08:52:25Z</time>
      </trkpt>
      <trkpt lat="48.77415" lon="2.51666">
        <ele>62.9</ele>
        <time>2022-01-09T08:52:31Z</time>
      </trkpt>
      <trkpt lat="48.77413" lon="2.51673">
        <ele>63.1</ele>
        <time>2022-01-09T08:52:44Z</time>
      </trkpt>
      <trkpt lat="48.77412" lon="2.51693">
        <ele>62.6</ele>
        <time>2022-01-09T08:52:56Z</time>
      </trkpt>
      <trkpt lat="48.7742" lon="2.51699">
        <ele>61.29</ele>
        <time>2022-01-09T08:53:13Z</time>
      </trkpt>
      <trkpt lat="48.77425" lon="2.51703">
        <ele>61.33</ele>
        <time>2022-01-09T08:53:19Z</time>
      </trkpt>
      <trkpt lat="48.77437" lon="2.51708">
        <ele>59.78</ele>
        <time>2022-01-09T08:53:30Z</time>
      </trkpt>
      <trkpt lat="48.77455" lon="2.51714">
        <ele>57.43</ele>
        <time>2022-01-09T08:53:45Z</time>
      </trkpt>
      <trkpt lat="48.7746" lon="2.51712">
        <ele>57.13</ele>
        <time>2022-01-09T08:53:51Z</time>
      </trkpt>
      <trkpt lat="48.77463" lon="2.51709">
        <ele>56.6</ele>
        <time>2022-01-09T08:53:55Z</time>
      </trkpt>
      <trkpt lat="48.77473" lon="2.51692">
        <ele>56.42</ele>
        <time>2022-01-09T08:54:08Z</time>
      </trkpt>
      <trkpt lat="48.77478" lon="2.51676">
        <ele>55.94</ele>
        <time>2022-01-09T08:54:20Z</time>
      </trkpt>
      <trkpt lat="48.77479" lon="2.51674">
        <ele>55.58</ele>
        <time>2022-01-09T08:54:22Z</time>
      </trkpt>
      <trkpt lat="48.77482" lon="2.51669">
        <ele>55.94</ele>
        <time>2022-01-09T08:54:26Z</time>
      </trkpt>
      <trkpt lat="48.77487" lon="2.51659">
        <ele>55.49</ele>
        <time>2022-01-09T08:54:35Z</time>
      </trkpt>
      <trkpt lat="48.77492" lon="2.51653">
        <ele>54.46</ele>
        <time>2022-01-09T08:54:43Z</time>
      </trkpt>
      <trkpt lat="48.77495" lon="2.51649">
        <ele>53.76</ele>
        <time>2022-01-09T08:54:47Z</time>
      </trkpt>
      <trkpt lat="48.77509" lon="2.51636">
        <ele>53.33</ele>
        <time>2022-01-09T08:54:59Z</time>
      </trkpt>
      <trkpt lat="48.77512" lon="2.51627">
        <ele>52.6</ele>
        <time>2022-01-09T08:55:09Z</time>
      </trkpt>
      <trkpt lat="48.77524" lon="2.51612">
        <ele>51.27</ele>
        <time>2022-01-09T08:55:22Z</time>
      </trkpt>
      <trkpt lat="48.77533" lon="2.51616">
        <ele>49.95</ele>
        <time>2022-01-09T08:55:33Z</time>
      </trkpt>
      <trkpt lat="48.77535" lon="2.51625">
        <ele>49.64</ele>
        <time>2022-01-09T08:55:45Z</time>
      </trkpt>
      <trkpt lat="48.77535" lon="2.51637">
        <ele>49.04</ele>
        <time>2022-01-09T08:55:56Z</time>
      </trkpt>
      <trkpt lat="48.77538" lon="2.51663">
        <ele>47.53</ele>
        <time>2022-01-09T08:56:11Z</time>
      </trkpt>
      <trkpt lat="48.77542" lon="2.51685">
        <ele>46.61</ele>
        <time>2022-01-09T08:56:26Z</time>
      </trkpt>
      <trkpt lat="48.77545" lon="2.51709">
        <ele>46.08</ele>
        <time>2022-01-09T08:56:39Z</time>
      </trkpt>
      <trkpt lat="48.77548" lon="2.51717">
        <ele>45.44</ele>
        <time>2022-01-09T08:56:43Z</time>
      </trkpt>
      <trkpt lat="48.77552" lon="2.51728">
        <ele>44.97</ele>
        <time>2022-01-09T08:56:52Z</time>
      </trkpt>
      <trkpt lat="48.77558" lon="2.51744">
        <ele>44.05</ele>
        <time>2022-01-09T08:57:05Z</time>
      </trkpt>
      <trkpt lat="48.77568" lon="2.51759">
        <ele>44.53</ele>
        <time>2022-01-09T08:57:18Z</time>
      </trkpt>
      <trkpt lat="48.77581" lon="2.51775">
        <ele>44.05</ele>
        <time>2022-01-09T08:57:31Z</time>
      </trkpt>
      <trkpt lat="48.77588" lon="2.51778">
        <ele>43.78</ele>
        <time>2022-01-09T08:57:37Z</time>
      </trkpt>
      <trkpt lat="48.77592" lon="2.51786">
        <ele>44.16</ele>
        <time>2022-01-09T08:57:43Z</time>
      </trkpt>
      <trkpt lat="48.77596" lon="2.51791">
        <ele>43.61</ele>
        <time>2022-01-09T08:57:48Z</time>
      </trkpt>
      <trkpt lat="48.77598" lon="2.51795">
        <ele>44.28</ele>
        <time>2022-01-09T08:57:51Z</time>
      </trkpt>
      <trkpt lat="48.77607" lon="2.51801">
        <ele>43.9</ele>
        <time>2022-01-09T08:58:02Z</time>
      </trkpt>
      <trkpt lat="48.77614" lon="2.51806">
        <ele>43.43</ele>
        <time>2022-01-09T08:58:10Z</time>
      </trkpt>
      <trkpt lat="48.77618" lon="2.51808">
        <ele>42.73</ele>
        <time>2022-01-09T08:58:14Z</time>
      </trkpt>
      <trkpt lat="48.77629" lon="2.51807">
        <ele>41.81</ele>
        <time>2022-01-09T08:58:25Z</time>
      </trkpt>
      <trkpt lat="48.77645" lon="2.51805">
        <ele>41.46</ele>
        <time>2022-01-09T08:58:41Z</time>
      </trkpt>
      <trkpt lat="48.77659" lon="2.51798">
        <ele>40.56</ele>
        <time>2022-01-09T08:58:56Z</time>
      </trkpt>
      <trkpt lat="48.77671" lon="2.51791">
        <ele>39.85</ele>
        <time>2022-01-09T08:59:10Z</time>
      </trkpt>
      <trkpt lat="48.77685" lon="2.51787">
        <ele>39.63</ele>
        <time>2022-01-09T08:59:24Z</time>
      </trkpt>
      <trkpt lat="48.77687" lon="2.51785">
        <ele>39.86</ele>
        <time>2022-01-09T08:59:26Z</time>
      </trkpt>
      <trkpt lat="48.77689" lon="2.51783">
        <ele>39.52</ele>
        <time>2022-01-09T08:59:28Z</time>
      </trkpt>
      <trkpt lat="48.77694" lon="2.5178">
        <ele>39.67</ele>
        <time>2022-01-09T08:59:35Z</time>
      </trkpt>
      <trkpt lat="48.77688" lon="2.51791">
        <ele>39.2</ele>
        <time>2022-01-09T08:59:48Z</time>
      </trkpt>
      <trkpt lat="48.77686" lon="2.51793">
        <ele>39.28</ele>
        <time>2022-01-09T08:59:50Z</time>
      </trkpt>
      <trkpt lat="48.77677" lon="2.51808">
        <ele>39.73</ele>
        <time>2022-01-09T09:00:06Z</time>
      </trkpt>
      <trkpt lat="48.77671" lon="2.51814">
        <ele>39.25</ele>
        <time>2022-01-09T09:00:21Z</time>
      </trkpt>
      <trkpt lat="48.77666" lon="2.51826">
        <ele>39.37</ele>
        <time>2022-01-09T09:00:30Z</time>
      </trkpt>
      <trkpt lat="48.77664" lon="2.51832">
        <ele>39.35</ele>
        <time>2022-01-09T09:00:45Z</time>
      </trkpt>
      <trkpt lat="48.77659" lon="2.51847">
        <ele>39.27</ele>
        <time>2022-01-09T09:01:00Z</time>
      </trkpt>
      <trkpt lat="48.77653" lon="2.51874">
        <ele>38.48</ele>
        <time>2022-01-09T09:01:18Z</time>
      </trkpt>
      <trkpt lat="48.77649" lon="2.5189">
        <ele>37.93</ele>
        <time>2022-01-09T09:01:34Z</time>
      </trkpt>
      <trkpt lat="48.77642" lon="2.51905">
        <ele>38.06</ele>
        <time>2022-01-09T09:01:49Z</time>
      </trkpt>
      <trkpt lat="48.77639" lon="2.51909">
        <ele>38.24</ele>
        <time>2022-01-09T09:01:52Z</time>
      </trkpt>
      <trkpt lat="48.77634" lon="2.51917">
        <ele>38.7</ele>
        <time>2022-01-09T09:01:58Z</time>
      </trkpt>
      <trkpt lat="48.77635" lon="2.51931">
        <ele>38.13</ele>
        <time>2022-01-09T09:02:06Z</time>
      </trkpt>
      <trkpt lat="48.77638" lon="2.5196">
        <ele>38.68</ele>
        <time>2022-01-09T09:02:21Z</time>
      </trkpt>
      <trkpt lat="48.7764" lon="2.51976">
        <ele>39.73</ele>
        <time>2022-01-09T09:02:34Z</time>
      </trkpt>
      <trkpt lat="48.77639" lon="2.51978">
        <ele>39.72</ele>
        <time>2022-01-09T09:02:36Z</time>
      </trkpt>
      <trkpt lat="48.77633" lon="2.51981">
        <ele>39.89</ele>
        <time>2022-01-09T09:02:42Z</time>
      </trkpt>
      <trkpt lat="48.77619" lon="2.51968">
        <ele>41.05</ele>
        <time>2022-01-09T09:02:56Z</time>
      </trkpt>
      <trkpt lat="48.77609" lon="2.51962">
        <ele>42.07</ele>
        <time>2022-01-09T09:03:08Z</time>
      </trkpt>
      <trkpt lat="48.77612" lon="2.51963">
        <ele>40.96</ele>
        <time>2022-01-09T09:03:21Z</time>
      </trkpt>
      <trkpt lat="48.77613" lon="2.51964">
        <ele>41.23</ele>
        <time>2022-01-09T09:03:40Z</time>
      </trkpt>
      <trkpt lat="48.77607" lon="2.51967">
        <ele>41.52</ele>
        <time>2022-01-09T09:03:59Z</time>
      </trkpt>
      <trkpt lat="48.77604" lon="2.51975">
        <ele>41.76</ele>
        <time>2022-01-09T09:04:07Z</time>
      </trkpt>
      <trkpt lat="48.77601" lon="2.51981">
        <ele>41.32</ele>
        <time>2022-01-09T09:04:11Z</time>
      </trkpt>
      <trkpt lat="48.77596" lon="2.51999">
        <ele>42.32</ele>
        <time>2022-01-09T09:04:22Z</time>
      </trkpt>
      <trkpt lat="48.77595" lon="2.52002">
        <ele>42.32</ele>
        <time>2022-01-09T09:04:24Z</time>
      </trkpt>
      <trkpt lat="48.77592" lon="2.5201">
        <ele>42.3</ele>
        <time>2022-01-09T09:04:30Z</time>
      </trkpt>
      <trkpt lat="48.7759" lon="2.52013">
        <ele>42.3</ele>
        <time>2022-01-09T09:04:33Z</time>
      </trkpt>
      <trkpt lat="48.77588" lon="2.52019">
        <ele>43.84</ele>
        <time>2022-01-09T09:04:37Z</time>
      </trkpt>
      <trkpt lat="48.77583" lon="2.52032">
        <ele>44.79</ele>
        <time>2022-01-09T09:04:49Z</time>
      </trkpt>
      <trkpt lat="48.77585" lon="2.52042">
        <ele>45.3</ele>
        <time>2022-01-09T09:05:01Z</time>
      </trkpt>
      <trkpt lat="48.77586" lon="2.52041">
        <ele>45.27</ele>
        <time>2022-01-09T09:05:03Z</time>
      </trkpt>
      <trkpt lat="48.77591" lon="2.5204">
        <ele>44.38</ele>
        <time>2022-01-09T09:05:08Z</time>
      </trkpt>
      <trkpt lat="48.77602" lon="2.52033">
        <ele>45.05</ele>
        <time>2022-01-09T09:05:22Z</time>
      </trkpt>
      <trkpt lat="48.77614" lon="2.52032">
        <ele>44.39</ele>
        <time>2022-01-09T09:05:37Z</time>
      </trkpt>
      <trkpt lat="48.77621" lon="2.5203">
        <ele>44.73</ele>
        <time>2022-01-09T09:05:49Z</time>
      </trkpt>
      <trkpt lat="48.77634" lon="2.52028">
        <ele>44.53</ele>
        <time>2022-01-09T09:06:05Z</time>
      </trkpt>
      <trkpt lat="48.77645" lon="2.52025">
        <ele>44.37</ele>
        <time>2022-01-09T09:06:19Z</time>
      </trkpt>
      <trkpt lat="48.77657" lon="2.52027">
        <ele>44.32</ele>
        <time>2022-01-09T09:06:29Z</time>
      </trkpt>
      <trkpt lat="48.7767" lon="2.52023">
        <ele>44.14</ele>
        <time>2022-01-09T09:06:41Z</time>
      </trkpt>
      <trkpt lat="48.77679" lon="2.52024">
        <ele>44.11</ele>
        <time>2022-01-09T09:06:57Z</time>
      </trkpt>
      <trkpt lat="48.77688" lon="2.5204">
        <ele>45.99</ele>
        <time>2022-01-09T09:07:15Z</time>
      </trkpt>
      <trkpt lat="48.77703" lon="2.52056">
        <ele>47.85</ele>
        <time>2022-01-09T09:07:31Z</time>
      </trkpt>
      <trkpt lat="48.77707" lon="2.52062">
        <ele>48.73</ele>
        <time>2022-01-09T09:07:42Z</time>
      </trkpt>
      <trkpt lat="48.77705" lon="2.52066">
        <ele>48.96</ele>
        <time>2022-01-09T09:07:53Z</time>
      </trkpt>
      <trkpt lat="48.77705" lon="2.5208">
        <ele>50.19</ele>
        <time>2022-01-09T09:08:06Z</time>
      </trkpt>
      <trkpt lat="48.77704" lon="2.52099">
        <ele>50.94</ele>
        <time>2022-01-09T09:08:19Z</time>
      </trkpt>
      <trkpt lat="48.77705" lon="2.52106">
        <ele>50.68</ele>
        <time>2022-01-09T09:08:23Z</time>
      </trkpt>
      <trkpt lat="48.77706" lon="2.52118">
        <ele>50.78</ele>
        <time>2022-01-09T09:08:31Z</time>
      </trkpt>
      <trkpt lat="48.77709" lon="2.52138">
        <ele>51.09</ele>
        <time>2022-01-09T09:08:48Z</time>
      </trkpt>
      <trkpt lat="48.77713" lon="2.52151">
        <ele>50.79</ele>
        <time>2022-01-09T09:09:04Z</time>
      </trkpt>
      <trkpt lat="48.77714" lon="2.52157">
        <ele>50.65</ele>
        <time>2022-01-09T09:09:18Z</time>
      </trkpt>
      <trkpt lat="48.77711" lon="2.52156">
        <ele>50.71</ele>
        <time>2022-01-09T09:09:40Z</time>
      </trkpt>
      <trkpt lat="48.77708" lon="2.52148">
        <ele>50.4</ele>
        <time>2022-01-09T09:09:55Z</time>
      </trkpt>
      <trkpt lat="48.77707" lon="2.52148">
        <ele>50.18</ele>
        <time>2022-01-09T09:10:15Z</time>
      </trkpt>
      <trkpt lat="48.77707" lon="2.52151">
        <ele>49.97</ele>
        <time>2022-01-09T09:10:33Z</time>
      </trkpt>
      <trkpt lat="48.77709" lon="2.52155">
        <ele>50.39</ele>
        <time>2022-01-09T09:10:53Z</time>
      </trkpt>
      <trkpt lat="48.77709" lon="2.52152">
        <ele>49.59</ele>
        <time>2022-01-09T09:11:13Z</time>
      </trkpt>
      <trkpt lat="48.7771" lon="2.52155">
        <ele>49.25</ele>
        <time>2022-01-09T09:11:31Z</time>
      </trkpt>
      <trkpt lat="48.7771" lon="2.52154">
        <ele>49.68</ele>
        <time>2022-01-09T09:11:45Z</time>
      </trkpt>
      <trkpt lat="48.7771" lon="2.52154">
        <ele>49.87</ele>
        <time>2022-01-09T09:12:03Z</time>
      </trkpt>
      <trkpt lat="48.77715" lon="2.5215">
        <ele>48.82</ele>
        <time>2022-01-09T09:12:21Z</time>
      </trkpt>
      <trkpt lat="48.77717" lon="2.52145">
        <ele>49.05</ele>
        <time>2022-01-09T09:12:43Z</time>
      </trkpt>
      <trkpt lat="48.77713" lon="2.52145">
        <ele>48.6</ele>
        <time>2022-01-09T09:13:04Z</time>
      </trkpt>
      <trkpt lat="48.77708" lon="2.52145">
        <ele>48.63</ele>
        <time>2022-01-09T09:13:21Z</time>
      </trkpt>
      <trkpt lat="48.77709" lon="2.52147">
        <ele>48.41</ele>
        <time>2022-01-09T09:13:38Z</time>
      </trkpt>
      <trkpt lat="48.7771" lon="2.52154">
        <ele>48.28</ele>
        <time>2022-01-09T09:13:58Z</time>
      </trkpt>
      <trkpt lat="48.77708" lon="2.52161">
        <ele>48.39</ele>
        <time>2022-01-09T09:14:19Z</time>
      </trkpt>
      <trkpt lat="48.7771" lon="2.52161">
        <ele>48.72</ele>
        <time>2022-01-09T09:14:41Z</time>
      </trkpt>
      <trkpt lat="48.7771" lon="2.52163">
        <ele>49.66</ele>
        <time>2022-01-09T09:14:59Z</time>
      </trkpt>
      <trkpt lat="48.77709" lon="2.52161">
        <ele>48.98</ele>
        <time>2022-01-09T09:15:18Z</time>
      </trkpt>
      <trkpt lat="48.77707" lon="2.52157">
        <ele>48.9</ele>
        <time>2022-01-09T09:15:37Z</time>
      </trkpt>
      <trkpt lat="48.77707" lon="2.52159">
        <ele>49</ele>
        <time>2022-01-09T09:15:56Z</time>
      </trkpt>
      <trkpt lat="48.77708" lon="2.52158">
        <ele>49.27</ele>
        <time>2022-01-09T09:16:12Z</time>
      </trkpt>
      <trkpt lat="48.77707" lon="2.5216">
        <ele>49.07</ele>
        <time>2022-01-09T09:16:35Z</time>
      </trkpt>
      <trkpt lat="48.77707" lon="2.5216">
        <ele>49.24</ele>
        <time>2022-01-09T09:16:56Z</time>
      </trkpt>
      <trkpt lat="48.7771" lon="2.52157">
        <ele>49.71</ele>
        <time>2022-01-09T09:17:16Z</time>
      </trkpt>
      <trkpt lat="48.77711" lon="2.52151">
        <ele>49.23</ele>
        <time>2022-01-09T09:17:37Z</time>
      </trkpt>
      <trkpt lat="48.77709" lon="2.5215">
        <ele>49.42</ele>
        <time>2022-01-09T09:17:59Z</time>
      </trkpt>
      <trkpt lat="48.77707" lon="2.5215">
        <ele>49.08</ele>
        <time>2022-01-09T09:18:19Z</time>
      </trkpt>
      <trkpt lat="48.77705" lon="2.52151">
        <ele>49.94</ele>
        <time>2022-01-09T09:18:41Z</time>
      </trkpt>
      <trkpt lat="48.77708" lon="2.52162">
        <ele>49.23</ele>
        <time>2022-01-09T09:18:58Z</time>
      </trkpt>
      <trkpt lat="48.77712" lon="2.52179">
        <ele>49.57</ele>
        <time>2022-01-09T09:19:10Z</time>
      </trkpt>
      <trkpt lat="48.77715" lon="2.52198">
        <ele>49.43</ele>
        <time>2022-01-09T09:19:22Z</time>
      </trkpt>
      <trkpt lat="48.77717" lon="2.52219">
        <ele>49.99</ele>
        <time>2022-01-09T09:19:34Z</time>
      </trkpt>
      <trkpt lat="48.77719" lon="2.52243">
        <ele>49</ele>
        <time>2022-01-09T09:19:47Z</time>
      </trkpt>
      <trkpt lat="48.7772" lon="2.52259">
        <ele>49.21</ele>
        <time>2022-01-09T09:19:54Z</time>
      </trkpt>
      <trkpt lat="48.77722" lon="2.52277">
        <ele>47.52</ele>
        <time>2022-01-09T09:20:07Z</time>
      </trkpt>
      <trkpt lat="48.77721" lon="2.52285">
        <ele>47.49</ele>
        <time>2022-01-09T09:20:11Z</time>
      </trkpt>
      <trkpt lat="48.77717" lon="2.52299">
        <ele>46.07</ele>
        <time>2022-01-09T09:20:22Z</time>
      </trkpt>
      <trkpt lat="48.77716" lon="2.52304">
        <ele>44.82</ele>
        <time>2022-01-09T09:20:25Z</time>
      </trkpt>
      <trkpt lat="48.77712" lon="2.52331">
        <ele>43.07</ele>
        <time>2022-01-09T09:20:41Z</time>
      </trkpt>
      <trkpt lat="48.77708" lon="2.52361">
        <ele>42.16</ele>
        <time>2022-01-09T09:20:53Z</time>
      </trkpt>
      <trkpt lat="48.77706" lon="2.52373">
        <ele>41.01</ele>
        <time>2022-01-09T09:21:07Z</time>
      </trkpt>
      <trkpt lat="48.77704" lon="2.52392">
        <ele>41.13</ele>
        <time>2022-01-09T09:21:20Z</time>
      </trkpt>
      <trkpt lat="48.77706" lon="2.52423">
        <ele>40.66</ele>
        <time>2022-01-09T09:21:35Z</time>
      </trkpt>
      <trkpt lat="48.77705" lon="2.5245">
        <ele>40.56</ele>
        <time>2022-01-09T09:21:49Z</time>
      </trkpt>
      <trkpt lat="48.77705" lon="2.52464">
        <ele>39.74</ele>
        <time>2022-01-09T09:22:01Z</time>
      </trkpt>
      <trkpt lat="48.77705" lon="2.52486">
        <ele>40.25</ele>
        <time>2022-01-09T09:22:15Z</time>
      </trkpt>
      <trkpt lat="48.77704" lon="2.52511">
        <ele>39.77</ele>
        <time>2022-01-09T09:22:27Z</time>
      </trkpt>
      <trkpt lat="48.77704" lon="2.52531">
        <ele>40.29</ele>
        <time>2022-01-09T09:22:37Z</time>
      </trkpt>
      <trkpt lat="48.77706" lon="2.52555">
        <ele>39.57</ele>
        <time>2022-01-09T09:22:50Z</time>
      </trkpt>
      <trkpt lat="48.77708" lon="2.52566">
        <ele>39.23</ele>
        <time>2022-01-09T09:22:58Z</time>
      </trkpt>
      <trkpt lat="48.77714" lon="2.52584">
        <ele>38.9</ele>
        <time>2022-01-09T09:23:11Z</time>
      </trkpt>
      <trkpt lat="48.77715" lon="2.52588">
        <ele>38.61</ele>
        <time>2022-01-09T09:23:13Z</time>
      </trkpt>
      <trkpt lat="48.77721" lon="2.52605">
        <ele>39.52</ele>
        <time>2022-01-09T09:23:25Z</time>
      </trkpt>
      <trkpt lat="48.7773" lon="2.5261">
        <ele>40.32</ele>
        <time>2022-01-09T09:23:37Z</time>
      </trkpt>
      <trkpt lat="48.7773" lon="2.52609">
        <ele>40.61</ele>
        <time>2022-01-09T09:23:38Z</time>
      </trkpt>
      <trkpt lat="48.77744" lon="2.52613">
        <ele>41.22</ele>
        <time>2022-01-09T09:23:53Z</time>
      </trkpt>
      <trkpt lat="48.77758" lon="2.52623">
        <ele>42.27</ele>
        <time>2022-01-09T09:24:05Z</time>
      </trkpt>
      <trkpt lat="48.77773" lon="2.52645">
        <ele>42.68</ele>
        <time>2022-01-09T09:24:20Z</time>
      </trkpt>
      <trkpt lat="48.7778" lon="2.52667">
        <ele>41.94</ele>
        <time>2022-01-09T09:24:33Z</time>
      </trkpt>
      <trkpt lat="48.77785" lon="2.52688">
        <ele>41.59</ele>
        <time>2022-01-09T09:24:45Z</time>
      </trkpt>
      <trkpt lat="48.77785" lon="2.52696">
        <ele>41.28</ele>
        <time>2022-01-09T09:24:49Z</time>
      </trkpt>
      <trkpt lat="48.77797" lon="2.52715">
        <ele>40.48</ele>
        <time>2022-01-09T09:25:05Z</time>
      </trkpt>
      <trkpt lat="48.77799" lon="2.52717">
        <ele>40.88</ele>
        <time>2022-01-09T09:25:07Z</time>
      </trkpt>
      <trkpt lat="48.77807" lon="2.52727">
        <ele>40.63</ele>
        <time>2022-01-09T09:25:14Z</time>
      </trkpt>
      <trkpt lat="48.77812" lon="2.5273">
        <ele>40.56</ele>
        <time>2022-01-09T09:25:19Z</time>
      </trkpt>
      <trkpt lat="48.77824" lon="2.52737">
        <ele>40.87</ele>
        <time>2022-01-09T09:25:34Z</time>
      </trkpt>
      <trkpt lat="48.77839" lon="2.52733">
        <ele>42.56</ele>
        <time>2022-01-09T09:25:46Z</time>
      </trkpt>
      <trkpt lat="48.77854" lon="2.52737">
        <ele>43.38</ele>
        <time>2022-01-09T09:26:01Z</time>
      </trkpt>
      <trkpt lat="48.77869" lon="2.52744">
        <ele>44.68</ele>
        <time>2022-01-09T09:26:15Z</time>
      </trkpt>
      <trkpt lat="48.77871" lon="2.52745">
        <ele>45.23</ele>
        <time>2022-01-09T09:26:16Z</time>
      </trkpt>
      <trkpt lat="48.7788" lon="2.52756">
        <ele>45.56</ele>
        <time>2022-01-09T09:26:27Z</time>
      </trkpt>
      <trkpt lat="48.7789" lon="2.52777">
        <ele>45.8</ele>
        <time>2022-01-09T09:26:42Z</time>
      </trkpt>
      <trkpt lat="48.77895" lon="2.52791">
        <ele>46.22</ele>
        <time>2022-01-09T09:26:52Z</time>
      </trkpt>
      <trkpt lat="48.77898" lon="2.52805">
        <ele>46.51</ele>
        <time>2022-01-09T09:27:02Z</time>
      </trkpt>
      <trkpt lat="48.77899" lon="2.52833">
        <ele>46.66</ele>
        <time>2022-01-09T09:27:16Z</time>
      </trkpt>
      <trkpt lat="48.77899" lon="2.52839">
        <ele>46.89</ele>
        <time>2022-01-09T09:27:19Z</time>
      </trkpt>
      <trkpt lat="48.77899" lon="2.52861">
        <ele>46.93</ele>
        <time>2022-01-09T09:27:30Z</time>
      </trkpt>
      <trkpt lat="48.77898" lon="2.5288">
        <ele>47.21</ele>
        <time>2022-01-09T09:27:42Z</time>
      </trkpt>
      <trkpt lat="48.77897" lon="2.52883">
        <ele>47.29</ele>
        <time>2022-01-09T09:27:44Z</time>
      </trkpt>
      <trkpt lat="48.77896" lon="2.52893">
        <ele>47.57</ele>
        <time>2022-01-09T09:27:49Z</time>
      </trkpt>
      <trkpt lat="48.77892" lon="2.5291">
        <ele>47.28</ele>
        <time>2022-01-09T09:27:58Z</time>
      </trkpt>
      <trkpt lat="48.7789" lon="2.52916">
        <ele>47.06</ele>
        <time>2022-01-09T09:28:01Z</time>
      </trkpt>
      <trkpt lat="48.77885" lon="2.52936">
        <ele>46.71</ele>
        <time>2022-01-09T09:28:11Z</time>
      </trkpt>
      <trkpt lat="48.7788" lon="2.52955">
        <ele>46.14</ele>
        <time>2022-01-09T09:28:21Z</time>
      </trkpt>
      <trkpt lat="48.77875" lon="2.52966">
        <ele>46.1</ele>
        <time>2022-01-09T09:28:28Z</time>
      </trkpt>
      <trkpt lat="48.77872" lon="2.52972">
        <ele>45.4</ele>
        <time>2022-01-09T09:28:32Z</time>
      </trkpt>
      <trkpt lat="48.77866" lon="2.52985">
        <ele>45.27</ele>
        <time>2022-01-09T09:28:42Z</time>
      </trkpt>
      <trkpt lat="48.77864" lon="2.52988">
        <ele>44.03</ele>
        <time>2022-01-09T09:28:44Z</time>
      </trkpt>
      <trkpt lat="48.77856" lon="2.53005">
        <ele>43.84</ele>
        <time>2022-01-09T09:28:54Z</time>
      </trkpt>
      <trkpt lat="48.77846" lon="2.53015">
        <ele>42.75</ele>
        <time>2022-01-09T09:29:03Z</time>
      </trkpt>
      <trkpt lat="48.77837" lon="2.5302">
        <ele>42.39</ele>
        <time>2022-01-09T09:29:11Z</time>
      </trkpt>
      <trkpt lat="48.77821" lon="2.53028">
        <ele>41.2</ele>
        <time>2022-01-09T09:29:25Z</time>
      </trkpt>
      <trkpt lat="48.7782" lon="2.53028">
        <ele>41.09</ele>
        <time>2022-01-09T09:29:26Z</time>
      </trkpt>
      <trkpt lat="48.77815" lon="2.53031">
        <ele>40.95</ele>
        <time>2022-01-09T09:29:31Z</time>
      </trkpt>
      <trkpt lat="48.778" lon="2.53041">
        <ele>41</ele>
        <time>2022-01-09T09:29:45Z</time>
      </trkpt>
      <trkpt lat="48.77789" lon="2.53047">
        <ele>40.71</ele>
        <time>2022-01-09T09:29:56Z</time>
      </trkpt>
      <trkpt lat="48.77787" lon="2.53047">
        <ele>40.68</ele>
        <time>2022-01-09T09:29:57Z</time>
      </trkpt>
      <trkpt lat="48.77769" lon="2.53051">
        <ele>40.27</ele>
        <time>2022-01-09T09:30:13Z</time>
      </trkpt>
      <trkpt lat="48.77754" lon="2.5305">
        <ele>40.05</ele>
        <time>2022-01-09T09:30:26Z</time>
      </trkpt>
      <trkpt lat="48.7774" lon="2.53044">
        <ele>39.63</ele>
        <time>2022-01-09T09:30:38Z</time>
      </trkpt>
      <trkpt lat="48.77727" lon="2.53039">
        <ele>40.3</ele>
        <time>2022-01-09T09:30:48Z</time>
      </trkpt>
      <trkpt lat="48.77726" lon="2.53039">
        <ele>39.95</ele>
        <time>2022-01-09T09:30:49Z</time>
      </trkpt>
      <trkpt lat="48.77713" lon="2.53052">
        <ele>40.12</ele>
        <time>2022-01-09T09:31:03Z</time>
      </trkpt>
      <trkpt lat="48.777" lon="2.53063">
        <ele>40.3</ele>
        <time>2022-01-09T09:31:15Z</time>
      </trkpt>
      <trkpt lat="48.77697" lon="2.53067">
        <ele>41.21</ele>
        <time>2022-01-09T09:31:18Z</time>
      </trkpt>
      <trkpt lat="48.77694" lon="2.53071">
        <ele>41.33</ele>
        <time>2022-01-09T09:31:22Z</time>
      </trkpt>
      <trkpt lat="48.7769" lon="2.53084">
        <ele>40.46</ele>
        <time>2022-01-09T09:31:31Z</time>
      </trkpt>
      <trkpt lat="48.77688" lon="2.53107">
        <ele>41.17</ele>
        <time>2022-01-09T09:31:43Z</time>
      </trkpt>
      <trkpt lat="48.77689" lon="2.53111">
        <ele>40.86</ele>
        <time>2022-01-09T09:31:45Z</time>
      </trkpt>
      <trkpt lat="48.77689" lon="2.53122">
        <ele>41.16</ele>
        <time>2022-01-09T09:31:50Z</time>
      </trkpt>
      <trkpt lat="48.77691" lon="2.53138">
        <ele>41.01</ele>
        <time>2022-01-09T09:31:57Z</time>
      </trkpt>
      <trkpt lat="48.77696" lon="2.53152">
        <ele>41.5</ele>
        <time>2022-01-09T09:32:06Z</time>
      </trkpt>
      <trkpt lat="48.77706" lon="2.53165">
        <ele>41.24</ele>
        <time>2022-01-09T09:32:18Z</time>
      </trkpt>
      <trkpt lat="48.77708" lon="2.53167">
        <ele>41.53</ele>
        <time>2022-01-09T09:32:20Z</time>
      </trkpt>
      <trkpt lat="48.77723" lon="2.53186">
        <ele>41.69</ele>
        <time>2022-01-09T09:32:36Z</time>
      </trkpt>
      <trkpt lat="48.77727" lon="2.53189">
        <ele>41.74</ele>
        <time>2022-01-09T09:32:41Z</time>
      </trkpt>
      <trkpt lat="48.77733" lon="2.53199">
        <ele>42.55</ele>
        <time>2022-01-09T09:32:48Z</time>
      </trkpt>
      <trkpt lat="48.7774" lon="2.53211">
        <ele>42.31</ele>
        <time>2022-01-09T09:32:56Z</time>
      </trkpt>
      <trkpt lat="48.77747" lon="2.53217">
        <ele>42.5</ele>
        <time>2022-01-09T09:33:03Z</time>
      </trkpt>
      <trkpt lat="48.77751" lon="2.53221">
        <ele>42.54</ele>
        <time>2022-01-09T09:33:06Z</time>
      </trkpt>
      <trkpt lat="48.77754" lon="2.53226">
        <ele>42.84</ele>
        <time>2022-01-09T09:33:10Z</time>
      </trkpt>
      <trkpt lat="48.77762" lon="2.53242">
        <ele>42.09</ele>
        <time>2022-01-09T09:33:23Z</time>
      </trkpt>
      <trkpt lat="48.77769" lon="2.53258">
        <ele>42.37</ele>
        <time>2022-01-09T09:33:34Z</time>
      </trkpt>
      <trkpt lat="48.77774" lon="2.53263">
        <ele>42.99</ele>
        <time>2022-01-09T09:33:40Z</time>
      </trkpt>
      <trkpt lat="48.77783" lon="2.53263">
        <ele>44.17</ele>
        <time>2022-01-09T09:33:51Z</time>
      </trkpt>
      <trkpt lat="48.77788" lon="2.53265">
        <ele>44.67</ele>
        <time>2022-01-09T09:33:55Z</time>
      </trkpt>
      <trkpt lat="48.778" lon="2.53271">
        <ele>46.46</ele>
        <time>2022-01-09T09:34:05Z</time>
      </trkpt>
      <trkpt lat="48.77809" lon="2.5328">
        <ele>46.05</ele>
        <time>2022-01-09T09:34:13Z</time>
      </trkpt>
      <trkpt lat="48.77815" lon="2.53287">
        <ele>48.27</ele>
        <time>2022-01-09T09:34:19Z</time>
      </trkpt>
      <trkpt lat="48.77817" lon="2.53292">
        <ele>48.39</ele>
        <time>2022-01-09T09:34:23Z</time>
      </trkpt>
      <trkpt lat="48.77817" lon="2.53295">
        <ele>48.25</ele>
        <time>2022-01-09T09:34:25Z</time>
      </trkpt>
      <trkpt lat="48.77824" lon="2.5331">
        <ele>49.28</ele>
        <time>2022-01-09T09:34:38Z</time>
      </trkpt>
      <trkpt lat="48.77834" lon="2.53325">
        <ele>50.55</ele>
        <time>2022-01-09T09:34:51Z</time>
      </trkpt>
      <trkpt lat="48.77838" lon="2.53331">
        <ele>51.91</ele>
        <time>2022-01-09T09:35:03Z</time>
      </trkpt>
      <trkpt lat="48.77843" lon="2.5334">
        <ele>52.53</ele>
        <time>2022-01-09T09:35:13Z</time>
      </trkpt>
      <trkpt lat="48.77843" lon="2.53343">
        <ele>52.13</ele>
        <time>2022-01-09T09:35:28Z</time>
      </trkpt>
      <trkpt lat="48.77843" lon="2.53344">
        <ele>51.3</ele>
        <time>2022-01-09T09:35:44Z</time>
      </trkpt>
      <trkpt lat="48.77845" lon="2.53347">
        <ele>51.45</ele>
        <time>2022-01-09T09:35:58Z</time>
      </trkpt>
      <trkpt lat="48.77848" lon="2.53354">
        <ele>52.03</ele>
        <time>2022-01-09T09:36:04Z</time>
      </trkpt>
      <trkpt lat="48.7785" lon="2.53363">
        <ele>51.81</ele>
        <time>2022-01-09T09:36:09Z</time>
      </trkpt>
      <trkpt lat="48.7786" lon="2.53375">
        <ele>51.78</ele>
        <time>2022-01-09T09:36:21Z</time>
      </trkpt>
      <trkpt lat="48.77864" lon="2.53381">
        <ele>52.21</ele>
        <time>2022-01-09T09:36:28Z</time>
      </trkpt>
      <trkpt lat="48.77866" lon="2.53384">
        <ele>52.06</ele>
        <time>2022-01-09T09:36:30Z</time>
      </trkpt>
      <trkpt lat="48.77876" lon="2.53396">
        <ele>52.28</ele>
        <time>2022-01-09T09:36:41Z</time>
      </trkpt>
      <trkpt lat="48.77889" lon="2.53413">
        <ele>52.11</ele>
        <time>2022-01-09T09:36:54Z</time>
      </trkpt>
      <trkpt lat="48.77893" lon="2.53421">
        <ele>52.11</ele>
        <time>2022-01-09T09:37:01Z</time>
      </trkpt>
      <trkpt lat="48.77888" lon="2.53431">
        <ele>50.83</ele>
        <time>2022-01-09T09:37:10Z</time>
      </trkpt>
      <trkpt lat="48.77881" lon="2.5345">
        <ele>50.27</ele>
        <time>2022-01-09T09:37:24Z</time>
      </trkpt>
      <trkpt lat="48.77877" lon="2.53462">
        <ele>48.61</ele>
        <time>2022-01-09T09:37:31Z</time>
      </trkpt>
      <trkpt lat="48.77873" lon="2.53469">
        <ele>47.92</ele>
        <time>2022-01-09T09:37:43Z</time>
      </trkpt>
      <trkpt lat="48.77873" lon="2.53472">
        <ele>48.68</ele>
        <time>2022-01-09T09:37:45Z</time>
      </trkpt>
      <trkpt lat="48.77872" lon="2.53481">
        <ele>48.6</ele>
        <time>2022-01-09T09:37:50Z</time>
      </trkpt>
      <trkpt lat="48.77871" lon="2.53487">
        <ele>47.55</ele>
        <time>2022-01-09T09:37:55Z</time>
      </trkpt>
      <trkpt lat="48.77874" lon="2.53494">
        <ele>47.82</ele>
        <time>2022-01-09T09:38:07Z</time>
      </trkpt>
      <trkpt lat="48.77871" lon="2.53496">
        <ele>47.62</ele>
        <time>2022-01-09T09:38:11Z</time>
      </trkpt>
      <trkpt lat="48.77864" lon="2.53491">
        <ele>47.55</ele>
        <time>2022-01-09T09:38:19Z</time>
      </trkpt>
      <trkpt lat="48.77856" lon="2.53465">
        <ele>47.4</ele>
        <time>2022-01-09T09:38:32Z</time>
      </trkpt>
      <trkpt lat="48.77853" lon="2.53449">
        <ele>46.38</ele>
        <time>2022-01-09T09:38:42Z</time>
      </trkpt>
      <trkpt lat="48.7784" lon="2.53434">
        <ele>46.35</ele>
        <time>2022-01-09T09:38:56Z</time>
      </trkpt>
      <trkpt lat="48.7783" lon="2.53429">
        <ele>46.45</ele>
        <time>2022-01-09T09:39:05Z</time>
      </trkpt>
      <trkpt lat="48.77821" lon="2.5343">
        <ele>46.12</ele>
        <time>2022-01-09T09:39:13Z</time>
      </trkpt>
      <trkpt lat="48.77808" lon="2.53433">
        <ele>45.53</ele>
        <time>2022-01-09T09:39:25Z</time>
      </trkpt>
      <trkpt lat="48.77792" lon="2.53434">
        <ele>45.39</ele>
        <time>2022-01-09T09:39:38Z</time>
      </trkpt>
      <trkpt lat="48.77776" lon="2.53436">
        <ele>45.13</ele>
        <time>2022-01-09T09:39:49Z</time>
      </trkpt>
      <trkpt lat="48.77773" lon="2.53438">
        <ele>45.6</ele>
        <time>2022-01-09T09:39:52Z</time>
      </trkpt>
      <trkpt lat="48.77766" lon="2.53438">
        <ele>46.25</ele>
        <time>2022-01-09T09:39:57Z</time>
      </trkpt>
      <trkpt lat="48.77761" lon="2.5344">
        <ele>45.42</ele>
        <time>2022-01-09T09:40:01Z</time>
      </trkpt>
      <trkpt lat="48.77757" lon="2.5344">
        <ele>46.08</ele>
        <time>2022-01-09T09:40:05Z</time>
      </trkpt>
      <trkpt lat="48.77752" lon="2.5344">
        <ele>46.02</ele>
        <time>2022-01-09T09:40:09Z</time>
      </trkpt>
      <trkpt lat="48.77737" lon="2.53445">
        <ele>45.77</ele>
        <time>2022-01-09T09:40:21Z</time>
      </trkpt>
      <trkpt lat="48.77722" lon="2.53447">
        <ele>46.09</ele>
        <time>2022-01-09T09:40:33Z</time>
      </trkpt>
      <trkpt lat="48.77712" lon="2.5345">
        <ele>46.94</ele>
        <time>2022-01-09T09:40:44Z</time>
      </trkpt>
      <trkpt lat="48.77703" lon="2.53451">
        <ele>47.44</ele>
        <time>2022-01-09T09:40:51Z</time>
      </trkpt>
      <trkpt lat="48.77696" lon="2.53451">
        <ele>47.94</ele>
        <time>2022-01-09T09:40:57Z</time>
      </trkpt>
      <trkpt lat="48.77689" lon="2.53452">
        <ele>48.08</ele>
        <time>2022-01-09T09:41:03Z</time>
      </trkpt>
      <trkpt lat="48.77677" lon="2.53457">
        <ele>49.06</ele>
        <time>2022-01-09T09:41:14Z</time>
      </trkpt>
      <trkpt lat="48.77671" lon="2.53454">
        <ele>48.88</ele>
        <time>2022-01-09T09:41:25Z</time>
      </trkpt>
      <trkpt lat="48.77671" lon="2.53455">
        <ele>49.28</ele>
        <time>2022-01-09T09:41:44Z</time>
      </trkpt>
      <trkpt lat="48.77668" lon="2.53463">
        <ele>48.28</ele>
        <time>2022-01-09T09:42:01Z</time>
      </trkpt>
      <trkpt lat="48.77668" lon="2.53476">
        <ele>48.35</ele>
        <time>2022-01-09T09:42:10Z</time>
      </trkpt>
      <trkpt lat="48.77674" lon="2.53497">
        <ele>48.17</ele>
        <time>2022-01-09T09:42:23Z</time>
      </trkpt>
      <trkpt lat="48.77674" lon="2.53509">
        <ele>46.91</ele>
        <time>2022-01-09T09:42:35Z</time>
      </trkpt>
      <trkpt lat="48.7767" lon="2.53527">
        <ele>46.92</ele>
        <time>2022-01-09T09:42:47Z</time>
      </trkpt>
      <trkpt lat="48.77662" lon="2.53548">
        <ele>46.54</ele>
        <time>2022-01-09T09:43:01Z</time>
      </trkpt>
      <trkpt lat="48.7765" lon="2.53554">
        <ele>47.29</ele>
        <time>2022-01-09T09:43:14Z</time>
      </trkpt>
      <trkpt lat="48.77636" lon="2.53556">
        <ele>47.51</ele>
        <time>2022-01-09T09:43:29Z</time>
      </trkpt>
      <trkpt lat="48.77622" lon="2.5356">
        <ele>47.64</ele>
        <time>2022-01-09T09:43:44Z</time>
      </trkpt>
      <trkpt lat="48.77607" lon="2.53565">
        <ele>48</ele>
        <time>2022-01-09T09:43:57Z</time>
      </trkpt>
      <trkpt lat="48.77595" lon="2.5357">
        <ele>47.22</ele>
        <time>2022-01-09T09:44:09Z</time>
      </trkpt>
      <trkpt lat="48.77582" lon="2.5357">
        <ele>47.79</ele>
        <time>2022-01-09T09:44:23Z</time>
      </trkpt>
      <trkpt lat="48.77568" lon="2.53576">
        <ele>48.54</ele>
        <time>2022-01-09T09:44:36Z</time>
      </trkpt>
      <trkpt lat="48.77562" lon="2.53581">
        <ele>48.39</ele>
        <time>2022-01-09T09:44:41Z</time>
      </trkpt>
      <trkpt lat="48.77556" lon="2.53579">
        <ele>49.56</ele>
        <time>2022-01-09T09:45:00Z</time>
      </trkpt>
      <trkpt lat="48.77553" lon="2.53576">
        <ele>49.06</ele>
        <time>2022-01-09T09:45:19Z</time>
      </trkpt>
      <trkpt lat="48.77537" lon="2.53585">
        <ele>50.53</ele>
        <time>2022-01-09T09:45:33Z</time>
      </trkpt>
      <trkpt lat="48.77524" lon="2.5359">
        <ele>50.37</ele>
        <time>2022-01-09T09:45:48Z</time>
      </trkpt>
      <trkpt lat="48.77515" lon="2.53592">
        <ele>51.81</ele>
        <time>2022-01-09T09:45:57Z</time>
      </trkpt>
      <trkpt lat="48.77512" lon="2.53593">
        <ele>51.57</ele>
        <time>2022-01-09T09:46:00Z</time>
      </trkpt>
      <trkpt lat="48.77499" lon="2.53598">
        <ele>51.43</ele>
        <time>2022-01-09T09:46:12Z</time>
      </trkpt>
      <trkpt lat="48.77485" lon="2.53601">
        <ele>51.82</ele>
        <time>2022-01-09T09:46:24Z</time>
      </trkpt>
      <trkpt lat="48.77481" lon="2.53602">
        <ele>51.92</ele>
        <time>2022-01-09T09:46:33Z</time>
      </trkpt>
      <trkpt lat="48.77481" lon="2.53602">
        <ele>51.98</ele>
        <time>2022-01-09T09:46:34Z</time>
      </trkpt>
      <trkpt lat="48.77476" lon="2.53605">
        <ele>51.55</ele>
        <time>2022-01-09T09:46:41Z</time>
      </trkpt>
      <trkpt lat="48.7747" lon="2.53607">
        <ele>52.29</ele>
        <time>2022-01-09T09:46:47Z</time>
      </trkpt>
      <trkpt lat="48.77456" lon="2.53612">
        <ele>51.02</ele>
        <time>2022-01-09T09:47:02Z</time>
      </trkpt>
      <trkpt lat="48.77454" lon="2.53611">
        <ele>52.46</ele>
        <time>2022-01-09T09:47:21Z</time>
      </trkpt>
      <trkpt lat="48.77453" lon="2.53611">
        <ele>53.46</ele>
        <time>2022-01-09T09:47:37Z</time>
      </trkpt>
      <trkpt lat="48.77453" lon="2.53611">
        <ele>52.99</ele>
        <time>2022-01-09T09:47:49Z</time>
      </trkpt>
      <trkpt lat="48.7745" lon="2.53616">
        <ele>52.83</ele>
        <time>2022-01-09T09:48:03Z</time>
      </trkpt>
      <trkpt lat="48.77448" lon="2.53618">
        <ele>53.36</ele>
        <time>2022-01-09T09:48:20Z</time>
      </trkpt>
      <trkpt lat="48.77448" lon="2.53624">
        <ele>52.9</ele>
        <time>2022-01-09T09:48:39Z</time>
      </trkpt>
      <trkpt lat="48.77448" lon="2.53624">
        <ele>52.82</ele>
        <time>2022-01-09T09:49:00Z</time>
      </trkpt>
      <trkpt lat="48.77445" lon="2.53623">
        <ele>53.12</ele>
        <time>2022-01-09T09:49:20Z</time>
      </trkpt>
      <trkpt lat="48.7744" lon="2.53622">
        <ele>53.19</ele>
        <time>2022-01-09T09:49:34Z</time>
      </trkpt>
      <trkpt lat="48.77434" lon="2.53629">
        <ele>53.29</ele>
        <time>2022-01-09T09:49:48Z</time>
      </trkpt>
      <trkpt lat="48.77422" lon="2.53632">
        <ele>53.81</ele>
        <time>2022-01-09T09:50:01Z</time>
      </trkpt>
      <trkpt lat="48.7741" lon="2.53635">
        <ele>54.66</ele>
        <time>2022-01-09T09:50:13Z</time>
      </trkpt>
      <trkpt lat="48.774" lon="2.53639">
        <ele>54.31</ele>
        <time>2022-01-09T09:50:26Z</time>
      </trkpt>
      <trkpt lat="48.77392" lon="2.53638">
        <ele>54.29</ele>
        <time>2022-01-09T09:50:37Z</time>
      </trkpt>
      <trkpt lat="48.77385" lon="2.53631">
        <ele>54.61</ele>
        <time>2022-01-09T09:50:47Z</time>
      </trkpt>
      <trkpt lat="48.77375" lon="2.53622">
        <ele>55.61</ele>
        <time>2022-01-09T09:51:01Z</time>
      </trkpt>
      <trkpt lat="48.77358" lon="2.53621">
        <ele>55.99</ele>
        <time>2022-01-09T09:51:17Z</time>
      </trkpt>
      <trkpt lat="48.77349" lon="2.53623">
        <ele>56.26</ele>
        <time>2022-01-09T09:51:27Z</time>
      </trkpt>
      <trkpt lat="48.77336" lon="2.53627">
        <ele>55.64</ele>
        <time>2022-01-09T09:51:40Z</time>
      </trkpt>
      <trkpt lat="48.77324" lon="2.53636">
        <ele>54.74</ele>
        <time>2022-01-09T09:51:54Z</time>
      </trkpt>
      <trkpt lat="48.77314" lon="2.53643">
        <ele>55.65</ele>
        <time>2022-01-09T09:52:08Z</time>
      </trkpt>
      <trkpt lat="48.77305" lon="2.53652">
        <ele>55.58</ele>
        <time>2022-01-09T09:52:21Z</time>
      </trkpt>
      <trkpt lat="48.77297" lon="2.53666">
        <ele>55.45</ele>
        <time>2022-01-09T09:52:36Z</time>
      </trkpt>
      <trkpt lat="48.77285" lon="2.53685">
        <ele>56.43</ele>
        <time>2022-01-09T09:52:52Z</time>
      </trkpt>
      <trkpt lat="48.77277" lon="2.53699">
        <ele>56.82</ele>
        <time>2022-01-09T09:53:05Z</time>
      </trkpt>
      <trkpt lat="48.77266" lon="2.53721">
        <ele>56.64</ele>
        <time>2022-01-09T09:53:21Z</time>
      </trkpt>
      <trkpt lat="48.77259" lon="2.53731">
        <ele>56.99</ele>
        <time>2022-01-09T09:53:33Z</time>
      </trkpt>
      <trkpt lat="48.77245" lon="2.53743">
        <ele>56.41</ele>
        <time>2022-01-09T09:53:49Z</time>
      </trkpt>
      <trkpt lat="48.7724" lon="2.53752">
        <ele>56.34</ele>
        <time>2022-01-09T09:54:06Z</time>
      </trkpt>
      <trkpt lat="48.77239" lon="2.53753">
        <ele>56.64</ele>
        <time>2022-01-09T09:54:07Z</time>
      </trkpt>
      <trkpt lat="48.77234" lon="2.53763">
        <ele>56.26</ele>
        <time>2022-01-09T09:54:16Z</time>
      </trkpt>
      <trkpt lat="48.77228" lon="2.53778">
        <ele>56.35</ele>
        <time>2022-01-09T09:54:30Z</time>
      </trkpt>
      <trkpt lat="48.77222" lon="2.53797">
        <ele>56.61</ele>
        <time>2022-01-09T09:54:46Z</time>
      </trkpt>
      <trkpt lat="48.77214" lon="2.53812">
        <ele>57.22</ele>
        <time>2022-01-09T09:55:02Z</time>
      </trkpt>
      <trkpt lat="48.77216" lon="2.5383">
        <ele>57.1</ele>
        <time>2022-01-09T09:55:15Z</time>
      </trkpt>
      <trkpt lat="48.77222" lon="2.53839">
        <ele>56.16</ele>
        <time>2022-01-09T09:55:30Z</time>
      </trkpt>
      <trkpt lat="48.77229" lon="2.53848">
        <ele>55.87</ele>
        <time>2022-01-09T09:55:55Z</time>
      </trkpt>
      <trkpt lat="48.77216" lon="2.53847">
        <ele>55.62</ele>
        <time>2022-01-09T09:56:08Z</time>
      </trkpt>
      <trkpt lat="48.77208" lon="2.53851">
        <ele>57.14</ele>
        <time>2022-01-09T09:56:19Z</time>
      </trkpt>
      <trkpt lat="48.77195" lon="2.53866">
        <ele>57.92</ele>
        <time>2022-01-09T09:56:35Z</time>
      </trkpt>
      <trkpt lat="48.77181" lon="2.53872">
        <ele>57.61</ele>
        <time>2022-01-09T09:56:51Z</time>
      </trkpt>
      <trkpt lat="48.77164" lon="2.53878">
        <ele>57.51</ele>
        <time>2022-01-09T09:57:08Z</time>
      </trkpt>
      <trkpt lat="48.77154" lon="2.53889">
        <ele>57.32</ele>
        <time>2022-01-09T09:57:23Z</time>
      </trkpt>
      <trkpt lat="48.77141" lon="2.53901">
        <ele>57.25</ele>
        <time>2022-01-09T09:57:42Z</time>
      </trkpt>
      <trkpt lat="48.77124" lon="2.53917">
        <ele>57.75</ele>
        <time>2022-01-09T09:58:00Z</time>
      </trkpt>
      <trkpt lat="48.77122" lon="2.53918">
        <ele>57.67</ele>
        <time>2022-01-09T09:58:02Z</time>
      </trkpt>
      <trkpt lat="48.77108" lon="2.53935">
        <ele>57.77</ele>
        <time>2022-01-09T09:58:21Z</time>
      </trkpt>
      <trkpt lat="48.77097" lon="2.53946">
        <ele>57.79</ele>
        <time>2022-01-09T09:58:35Z</time>
      </trkpt>
      <trkpt lat="48.77085" lon="2.53961">
        <ele>57.45</ele>
        <time>2022-01-09T09:58:48Z</time>
      </trkpt>
      <trkpt lat="48.77076" lon="2.5397">
        <ele>58.11</ele>
        <time>2022-01-09T09:59:00Z</time>
      </trkpt>
      <trkpt lat="48.77063" lon="2.53979">
        <ele>58.34</ele>
        <time>2022-01-09T09:59:12Z</time>
      </trkpt>
      <trkpt lat="48.77051" lon="2.53988">
        <ele>58.93</ele>
        <time>2022-01-09T09:59:27Z</time>
      </trkpt>
      <trkpt lat="48.77035" lon="2.53998">
        <ele>59.42</ele>
        <time>2022-01-09T09:59:42Z</time>
      </trkpt>
      <trkpt lat="48.77024" lon="2.53992">
        <ele>59.55</ele>
        <time>2022-01-09T09:59:54Z</time>
      </trkpt>
      <trkpt lat="48.77021" lon="2.53992">
        <ele>59.78</ele>
        <time>2022-01-09T09:59:57Z</time>
      </trkpt>
      <trkpt lat="48.77015" lon="2.53992">
        <ele>60.26</ele>
        <time>2022-01-09T10:00:08Z</time>
      </trkpt>
      <trkpt lat="48.77001" lon="2.54001">
        <ele>60.64</ele>
        <time>2022-01-09T10:00:20Z</time>
      </trkpt>
      <trkpt lat="48.76988" lon="2.54">
        <ele>61.98</ele>
        <time>2022-01-09T10:00:32Z</time>
      </trkpt>
      <trkpt lat="48.76975" lon="2.54001">
        <ele>61.05</ele>
        <time>2022-01-09T10:00:43Z</time>
      </trkpt>
      <trkpt lat="48.76971" lon="2.54001">
        <ele>61.78</ele>
        <time>2022-01-09T10:00:46Z</time>
      </trkpt>
      <trkpt lat="48.76954" lon="2.53997">
        <ele>62.57</ele>
        <time>2022-01-09T10:01:01Z</time>
      </trkpt>
      <trkpt lat="48.76947" lon="2.53998">
        <ele>62.91</ele>
        <time>2022-01-09T10:01:12Z</time>
      </trkpt>
      <trkpt lat="48.76941" lon="2.54013">
        <ele>62.37</ele>
        <time>2022-01-09T10:01:24Z</time>
      </trkpt>
      <trkpt lat="48.76941" lon="2.54017">
        <ele>62.29</ele>
        <time>2022-01-09T10:01:26Z</time>
      </trkpt>
      <trkpt lat="48.76939" lon="2.54039">
        <ele>60.71</ele>
        <time>2022-01-09T10:01:40Z</time>
      </trkpt>
      <trkpt lat="48.76937" lon="2.54045">
        <ele>61.28</ele>
        <time>2022-01-09T10:01:44Z</time>
      </trkpt>
      <trkpt lat="48.76936" lon="2.54033">
        <ele>61.65</ele>
        <time>2022-01-09T10:01:58Z</time>
      </trkpt>
      <trkpt lat="48.76937" lon="2.54019">
        <ele>62.03</ele>
        <time>2022-01-09T10:02:11Z</time>
      </trkpt>
      <trkpt lat="48.76926" lon="2.54009">
        <ele>61.81</ele>
        <time>2022-01-09T10:02:25Z</time>
      </trkpt>
      <trkpt lat="48.76916" lon="2.53999">
        <ele>63.48</ele>
        <time>2022-01-09T10:02:37Z</time>
      </trkpt>
      <trkpt lat="48.76903" lon="2.53985">
        <ele>63.09</ele>
        <time>2022-01-09T10:02:51Z</time>
      </trkpt>
      <trkpt lat="48.76897" lon="2.53982">
        <ele>63.13</ele>
        <time>2022-01-09T10:03:06Z</time>
      </trkpt>
      <trkpt lat="48.76891" lon="2.53976">
        <ele>62.32</ele>
        <time>2022-01-09T10:03:19Z</time>
      </trkpt>
      <trkpt lat="48.76876" lon="2.53978">
        <ele>62.98</ele>
        <time>2022-01-09T10:03:33Z</time>
      </trkpt>
      <trkpt lat="48.7686" lon="2.53976">
        <ele>63</ele>
        <time>2022-01-09T10:03:48Z</time>
      </trkpt>
      <trkpt lat="48.76847" lon="2.53972">
        <ele>63.65</ele>
        <time>2022-01-09T10:04:03Z</time>
      </trkpt>
      <trkpt lat="48.76832" lon="2.5396">
        <ele>64.3</ele>
        <time>2022-01-09T10:04:19Z</time>
      </trkpt>
      <trkpt lat="48.76814" lon="2.5395">
        <ele>63.87</ele>
        <time>2022-01-09T10:04:34Z</time>
      </trkpt>
      <trkpt lat="48.768" lon="2.5394">
        <ele>64.22</ele>
        <time>2022-01-09T10:04:47Z</time>
      </trkpt>
      <trkpt lat="48.76796" lon="2.53938">
        <ele>63.84</ele>
        <time>2022-01-09T10:05:03Z</time>
      </trkpt>
      <trkpt lat="48.76794" lon="2.53936">
        <ele>63.63</ele>
        <time>2022-01-09T10:05:23Z</time>
      </trkpt>
      <trkpt lat="48.76792" lon="2.53934">
        <ele>64.1</ele>
        <time>2022-01-09T10:05:38Z</time>
      </trkpt>
      <trkpt lat="48.76783" lon="2.53937">
        <ele>62.41</ele>
        <time>2022-01-09T10:05:52Z</time>
      </trkpt>
      <trkpt lat="48.76764" lon="2.53934">
        <ele>62.47</ele>
        <time>2022-01-09T10:06:09Z</time>
      </trkpt>
      <trkpt lat="48.76749" lon="2.53934">
        <ele>63.23</ele>
        <time>2022-01-09T10:06:23Z</time>
      </trkpt>
      <trkpt lat="48.76738" lon="2.53933">
        <ele>62.58</ele>
        <time>2022-01-09T10:06:38Z</time>
      </trkpt>
      <trkpt lat="48.76725" lon="2.5393">
        <ele>63.22</ele>
        <time>2022-01-09T10:06:51Z</time>
      </trkpt>
      <trkpt lat="48.76709" lon="2.53928">
        <ele>62.6</ele>
        <time>2022-01-09T10:07:06Z</time>
      </trkpt>
      <trkpt lat="48.76693" lon="2.53925">
        <ele>63.32</ele>
        <time>2022-01-09T10:07:22Z</time>
      </trkpt>
      <trkpt lat="48.76673" lon="2.53933">
        <ele>64.61</ele>
        <time>2022-01-09T10:07:36Z</time>
      </trkpt>
      <trkpt lat="48.76662" lon="2.53937">
        <ele>64.69</ele>
        <time>2022-01-09T10:07:45Z</time>
      </trkpt>
      <trkpt lat="48.76658" lon="2.53938">
        <ele>65</ele>
        <time>2022-01-09T10:07:48Z</time>
      </trkpt>
      <trkpt lat="48.76643" lon="2.53946">
        <ele>64.44</ele>
        <time>2022-01-09T10:08:02Z</time>
      </trkpt>
      <trkpt lat="48.7664" lon="2.5395">
        <ele>63.91</ele>
        <time>2022-01-09T10:08:15Z</time>
      </trkpt>
      <trkpt lat="48.76638" lon="2.53942">
        <ele>63.94</ele>
        <time>2022-01-09T10:08:38Z</time>
      </trkpt>
      <trkpt lat="48.7664" lon="2.53941">
        <ele>63.21</ele>
        <time>2022-01-09T10:09:00Z</time>
      </trkpt>
      <trkpt lat="48.76639" lon="2.53946">
        <ele>63.72</ele>
        <time>2022-01-09T10:09:23Z</time>
      </trkpt>
      <trkpt lat="48.76638" lon="2.53952">
        <ele>63.81</ele>
        <time>2022-01-09T10:09:43Z</time>
      </trkpt>
      <trkpt lat="48.76639" lon="2.53949">
        <ele>64.54</ele>
        <time>2022-01-09T10:10:04Z</time>
      </trkpt>
      <trkpt lat="48.76631" lon="2.53956">
        <ele>64.42</ele>
        <time>2022-01-09T10:10:21Z</time>
      </trkpt>
      <trkpt lat="48.76622" lon="2.53974">
        <ele>65.39</ele>
        <time>2022-01-09T10:10:37Z</time>
      </trkpt>
      <trkpt lat="48.76608" lon="2.53991">
        <ele>65.76</ele>
        <time>2022-01-09T10:10:52Z</time>
      </trkpt>
      <trkpt lat="48.766" lon="2.54004">
        <ele>66.03</ele>
        <time>2022-01-09T10:11:03Z</time>
      </trkpt>
      <trkpt lat="48.76599" lon="2.54004">
        <ele>65.94</ele>
        <time>2022-01-09T10:11:06Z</time>
      </trkpt>
      <trkpt lat="48.76598" lon="2.54007">
        <ele>66.29</ele>
        <time>2022-01-09T10:11:23Z</time>
      </trkpt>
      <trkpt lat="48.76597" lon="2.54009">
        <ele>66.29</ele>
        <time>2022-01-09T10:11:41Z</time>
      </trkpt>
      <trkpt lat="48.76592" lon="2.54024">
        <ele>66.58</ele>
        <time>2022-01-09T10:11:54Z</time>
      </trkpt>
      <trkpt lat="48.76587" lon="2.54034">
        <ele>66.99</ele>
        <time>2022-01-09T10:12:09Z</time>
      </trkpt>
      <trkpt lat="48.76582" lon="2.54039">
        <ele>67.46</ele>
        <time>2022-01-09T10:12:26Z</time>
      </trkpt>
      <trkpt lat="48.76576" lon="2.54054">
        <ele>66.93</ele>
        <time>2022-01-09T10:12:44Z</time>
      </trkpt>
      <trkpt lat="48.76572" lon="2.54071">
        <ele>66.69</ele>
        <time>2022-01-09T10:12:59Z</time>
      </trkpt>
      <trkpt lat="48.7657" lon="2.54087">
        <ele>67.53</ele>
        <time>2022-01-09T10:13:08Z</time>
      </trkpt>
      <trkpt lat="48.76564" lon="2.54102">
        <ele>67.31</ele>
        <time>2022-01-09T10:13:20Z</time>
      </trkpt>
      <trkpt lat="48.76557" lon="2.54128">
        <ele>67.7</ele>
        <time>2022-01-09T10:13:35Z</time>
      </trkpt>
      <trkpt lat="48.76549" lon="2.54152">
        <ele>67.69</ele>
        <time>2022-01-09T10:13:51Z</time>
      </trkpt>
      <trkpt lat="48.76544" lon="2.54174">
        <ele>67.81</ele>
        <time>2022-01-09T10:14:07Z</time>
      </trkpt>
      <trkpt lat="48.76536" lon="2.54198">
        <ele>68.16</ele>
        <time>2022-01-09T10:14:23Z</time>
      </trkpt>
      <trkpt lat="48.76534" lon="2.54223">
        <ele>68.59</ele>
        <time>2022-01-09T10:14:40Z</time>
      </trkpt>
      <trkpt lat="48.76531" lon="2.54245">
        <ele>67.77</ele>
        <time>2022-01-09T10:14:57Z</time>
      </trkpt>
      <trkpt lat="48.76529" lon="2.54265">
        <ele>67.91</ele>
        <time>2022-01-09T10:15:10Z</time>
      </trkpt>
      <trkpt lat="48.76527" lon="2.54286">
        <ele>68.19</ele>
        <time>2022-01-09T10:15:26Z</time>
      </trkpt>
      <trkpt lat="48.76525" lon="2.54317">
        <ele>68.52</ele>
        <time>2022-01-09T10:15:44Z</time>
      </trkpt>
      <trkpt lat="48.76525" lon="2.54343">
        <ele>68.42</ele>
        <time>2022-01-09T10:15:59Z</time>
      </trkpt>
      <trkpt lat="48.76528" lon="2.54369">
        <ele>67.88</ele>
        <time>2022-01-09T10:16:12Z</time>
      </trkpt>
      <trkpt lat="48.76528" lon="2.54398">
        <ele>67.77</ele>
        <time>2022-01-09T10:16:29Z</time>
      </trkpt>
      <trkpt lat="48.7653" lon="2.54425">
        <ele>67.45</ele>
        <time>2022-01-09T10:16:46Z</time>
      </trkpt>
      <trkpt lat="48.76532" lon="2.54449">
        <ele>67.29</ele>
        <time>2022-01-09T10:17:02Z</time>
      </trkpt>
      <trkpt lat="48.76534" lon="2.54471">
        <ele>67.17</ele>
        <time>2022-01-09T10:17:16Z</time>
      </trkpt>
      <trkpt lat="48.76534" lon="2.54489">
        <ele>66.89</ele>
        <time>2022-01-09T10:17:23Z</time>
      </trkpt>
      <trkpt lat="48.76535" lon="2.54511">
        <ele>66.3</ele>
        <time>2022-01-09T10:17:37Z</time>
      </trkpt>
      <trkpt lat="48.76534" lon="2.54532">
        <ele>66.59</ele>
        <time>2022-01-09T10:17:52Z</time>
      </trkpt>
      <trkpt lat="48.76536" lon="2.54561">
        <ele>66.33</ele>
        <time>2022-01-09T10:18:07Z</time>
      </trkpt>
      <trkpt lat="48.76539" lon="2.54589">
        <ele>66.12</ele>
        <time>2022-01-09T10:18:23Z</time>
      </trkpt>
      <trkpt lat="48.7654" lon="2.54619">
        <ele>66.6</ele>
        <time>2022-01-09T10:18:40Z</time>
      </trkpt>
      <trkpt lat="48.7654" lon="2.54636">
        <ele>65.68</ele>
        <time>2022-01-09T10:18:48Z</time>
      </trkpt>
      <trkpt lat="48.76543" lon="2.54654">
        <ele>65.68</ele>
        <time>2022-01-09T10:19:02Z</time>
      </trkpt>
      <trkpt lat="48.76544" lon="2.54682">
        <ele>65.21</ele>
        <time>2022-01-09T10:19:20Z</time>
      </trkpt>
      <trkpt lat="48.76544" lon="2.54703">
        <ele>64.35</ele>
        <time>2022-01-09T10:19:37Z</time>
      </trkpt>
      <trkpt lat="48.76548" lon="2.54727">
        <ele>64.13</ele>
        <time>2022-01-09T10:19:52Z</time>
      </trkpt>
      <trkpt lat="48.76547" lon="2.5475">
        <ele>63.88</ele>
        <time>2022-01-09T10:20:04Z</time>
      </trkpt>
      <trkpt lat="48.76548" lon="2.54768">
        <ele>62.96</ele>
        <time>2022-01-09T10:20:18Z</time>
      </trkpt>
      <trkpt lat="48.76548" lon="2.54791">
        <ele>61.75</ele>
        <time>2022-01-09T10:20:32Z</time>
      </trkpt>
      <trkpt lat="48.76552" lon="2.54815">
        <ele>61.77</ele>
        <time>2022-01-09T10:20:48Z</time>
      </trkpt>
      <trkpt lat="48.76551" lon="2.5484">
        <ele>61.13</ele>
        <time>2022-01-09T10:21:03Z</time>
      </trkpt>
      <trkpt lat="48.76554" lon="2.54863">
        <ele>60.06</ele>
        <time>2022-01-09T10:21:16Z</time>
      </trkpt>
      <trkpt lat="48.76555" lon="2.54885">
        <ele>59.64</ele>
        <time>2022-01-09T10:21:29Z</time>
      </trkpt>
      <trkpt lat="48.76556" lon="2.54909">
        <ele>58.4</ele>
        <time>2022-01-09T10:21:43Z</time>
      </trkpt>
      <trkpt lat="48.76555" lon="2.54939">
        <ele>58.24</ele>
        <time>2022-01-09T10:21:57Z</time>
      </trkpt>
      <trkpt lat="48.76558" lon="2.54952">
        <ele>57.62</ele>
        <time>2022-01-09T10:22:06Z</time>
      </trkpt>
      <trkpt lat="48.76557" lon="2.5497">
        <ele>57.29</ele>
        <time>2022-01-09T10:22:20Z</time>
      </trkpt>
      <trkpt lat="48.76558" lon="2.54976">
        <ele>57.34</ele>
        <time>2022-01-09T10:22:23Z</time>
      </trkpt>
      <trkpt lat="48.76562" lon="2.54986">
        <ele>57.44</ele>
        <time>2022-01-09T10:22:33Z</time>
      </trkpt>
      <trkpt lat="48.76559" lon="2.54991">
        <ele>57.55</ele>
        <time>2022-01-09T10:22:51Z</time>
      </trkpt>
      <trkpt lat="48.76556" lon="2.5501">
        <ele>56.32</ele>
        <time>2022-01-09T10:23:02Z</time>
      </trkpt>
      <trkpt lat="48.76551" lon="2.55029">
        <ele>56.58</ele>
        <time>2022-01-09T10:23:14Z</time>
      </trkpt>
      <trkpt lat="48.76548" lon="2.55046">
        <ele>55.99</ele>
        <time>2022-01-09T10:23:27Z</time>
      </trkpt>
      <trkpt lat="48.76545" lon="2.55065">
        <ele>56.18</ele>
        <time>2022-01-09T10:23:38Z</time>
      </trkpt>
      <trkpt lat="48.76541" lon="2.55088">
        <ele>56.18</ele>
        <time>2022-01-09T10:23:52Z</time>
      </trkpt>
      <trkpt lat="48.76537" lon="2.55105">
        <ele>55.95</ele>
        <time>2022-01-09T10:24:04Z</time>
      </trkpt>
      <trkpt lat="48.76532" lon="2.55129">
        <ele>56.64</ele>
        <time>2022-01-09T10:24:18Z</time>
      </trkpt>
      <trkpt lat="48.76528" lon="2.55154">
        <ele>56.87</ele>
        <time>2022-01-09T10:24:31Z</time>
      </trkpt>
      <trkpt lat="48.76523" lon="2.5517">
        <ele>56.01</ele>
        <time>2022-01-09T10:24:43Z</time>
      </trkpt>
      <trkpt lat="48.76518" lon="2.55193">
        <ele>56.18</ele>
        <time>2022-01-09T10:24:58Z</time>
      </trkpt>
      <trkpt lat="48.7652" lon="2.55214">
        <ele>56.15</ele>
        <time>2022-01-09T10:25:11Z</time>
      </trkpt>
      <trkpt lat="48.76515" lon="2.55225">
        <ele>56.04</ele>
        <time>2022-01-09T10:25:30Z</time>
      </trkpt>
      <trkpt lat="48.76518" lon="2.55226">
        <ele>56.37</ele>
        <time>2022-01-09T10:25:42Z</time>
      </trkpt>
      <trkpt lat="48.76519" lon="2.55219">
        <ele>55.67</ele>
        <time>2022-01-09T10:25:56Z</time>
      </trkpt>
      <trkpt lat="48.7652" lon="2.55219">
        <ele>56.38</ele>
        <time>2022-01-09T10:26:08Z</time>
      </trkpt>
      <trkpt lat="48.76518" lon="2.55225">
        <ele>56.27</ele>
        <time>2022-01-09T10:26:19Z</time>
      </trkpt>
      <trkpt lat="48.76512" lon="2.55239">
        <ele>57.18</ele>
        <time>2022-01-09T10:26:30Z</time>
      </trkpt>
      <trkpt lat="48.76505" lon="2.55255">
        <ele>56.32</ele>
        <time>2022-01-09T10:26:43Z</time>
      </trkpt>
      <trkpt lat="48.76501" lon="2.55276">
        <ele>56.96</ele>
        <time>2022-01-09T10:26:56Z</time>
      </trkpt>
      <trkpt lat="48.76497" lon="2.55298">
        <ele>57.75</ele>
        <time>2022-01-09T10:27:09Z</time>
      </trkpt>
      <trkpt lat="48.76493" lon="2.55316">
        <ele>57.77</ele>
        <time>2022-01-09T10:27:21Z</time>
      </trkpt>
      <trkpt lat="48.7649" lon="2.55334">
        <ele>57</ele>
        <time>2022-01-09T10:27:33Z</time>
      </trkpt>
      <trkpt lat="48.76488" lon="2.5535">
        <ele>57.06</ele>
        <time>2022-01-09T10:27:45Z</time>
      </trkpt>
      <trkpt lat="48.76486" lon="2.5536">
        <ele>57.02</ele>
        <time>2022-01-09T10:27:51Z</time>
      </trkpt>
      <trkpt lat="48.76482" lon="2.55379">
        <ele>57.72</ele>
        <time>2022-01-09T10:28:04Z</time>
      </trkpt>
      <trkpt lat="48.76483" lon="2.55387">
        <ele>57.59</ele>
        <time>2022-01-09T10:28:16Z</time>
      </trkpt>
      <trkpt lat="48.76482" lon="2.5539">
        <ele>57.92</ele>
        <time>2022-01-09T10:28:33Z</time>
      </trkpt>
      <trkpt lat="48.76477" lon="2.5541">
        <ele>57.83</ele>
        <time>2022-01-09T10:28:48Z</time>
      </trkpt>
      <trkpt lat="48.76476" lon="2.55422">
        <ele>57.48</ele>
        <time>2022-01-09T10:29:03Z</time>
      </trkpt>
      <trkpt lat="48.76472" lon="2.55444">
        <ele>57.94</ele>
        <time>2022-01-09T10:29:17Z</time>
      </trkpt>
      <trkpt lat="48.76468" lon="2.55472">
        <ele>57.94</ele>
        <time>2022-01-09T10:29:33Z</time>
      </trkpt>
      <trkpt lat="48.76463" lon="2.55494">
        <ele>57.89</ele>
        <time>2022-01-09T10:29:49Z</time>
      </trkpt>
      <trkpt lat="48.76459" lon="2.55499">
        <ele>58.04</ele>
        <time>2022-01-09T10:30:02Z</time>
      </trkpt>
      <trkpt lat="48.76453" lon="2.55523">
        <ele>57.7</ele>
        <time>2022-01-09T10:30:16Z</time>
      </trkpt>
      <trkpt lat="48.7645" lon="2.55542">
        <ele>57.9</ele>
        <time>2022-01-09T10:30:29Z</time>
      </trkpt>
      <trkpt lat="48.76447" lon="2.5557">
        <ele>57.78</ele>
        <time>2022-01-09T10:30:44Z</time>
      </trkpt>
      <trkpt lat="48.76445" lon="2.55587">
        <ele>58.07</ele>
        <time>2022-01-09T10:30:54Z</time>
      </trkpt>
      <trkpt lat="48.76439" lon="2.55604">
        <ele>57.9</ele>
        <time>2022-01-09T10:31:05Z</time>
      </trkpt>
      <trkpt lat="48.76435" lon="2.55622">
        <ele>58.04</ele>
        <time>2022-01-09T10:31:17Z</time>
      </trkpt>
      <trkpt lat="48.76433" lon="2.55627">
        <ele>58.21</ele>
        <time>2022-01-09T10:31:22Z</time>
      </trkpt>
      <trkpt lat="48.76431" lon="2.55632">
        <ele>58.56</ele>
        <time>2022-01-09T10:31:28Z</time>
      </trkpt>
      <trkpt lat="48.7643" lon="2.5564">
        <ele>58.23</ele>
        <time>2022-01-09T10:31:33Z</time>
      </trkpt>
      <trkpt lat="48.76426" lon="2.55644">
        <ele>58.48</ele>
        <time>2022-01-09T10:31:44Z</time>
      </trkpt>
      <trkpt lat="48.76428" lon="2.55647">
        <ele>58.53</ele>
        <time>2022-01-09T10:31:47Z</time>
      </trkpt>
      <trkpt lat="48.76429" lon="2.55659">
        <ele>58.11</ele>
        <time>2022-01-09T10:31:57Z</time>
      </trkpt>
      <trkpt lat="48.76425" lon="2.55669">
        <ele>58.61</ele>
        <time>2022-01-09T10:32:14Z</time>
      </trkpt>
      <trkpt lat="48.76425" lon="2.5567">
        <ele>58.81</ele>
        <time>2022-01-09T10:32:21Z</time>
      </trkpt>
      <trkpt lat="48.76425" lon="2.55672">
        <ele>59.29</ele>
        <time>2022-01-09T10:32:26Z</time>
      </trkpt>
      <trkpt lat="48.76426" lon="2.55678">
        <ele>59.11</ele>
        <time>2022-01-09T10:32:49Z</time>
      </trkpt>
      <trkpt lat="48.76424" lon="2.55681">
        <ele>59.24</ele>
        <time>2022-01-09T10:33:08Z</time>
      </trkpt>
      <trkpt lat="48.76424" lon="2.55675">
        <ele>59.39</ele>
        <time>2022-01-09T10:33:25Z</time>
      </trkpt>
      <trkpt lat="48.76428" lon="2.55661">
        <ele>59.85</ele>
        <time>2022-01-09T10:33:36Z</time>
      </trkpt>
      <trkpt lat="48.76422" lon="2.55646">
        <ele>60.75</ele>
        <time>2022-01-09T10:33:52Z</time>
      </trkpt>
      <trkpt lat="48.76414" lon="2.55635">
        <ele>60.39</ele>
        <time>2022-01-09T10:34:05Z</time>
      </trkpt>
      <trkpt lat="48.76407" lon="2.55628">
        <ele>61.01</ele>
        <time>2022-01-09T10:34:16Z</time>
      </trkpt>
      <trkpt lat="48.76412" lon="2.5563">
        <ele>60.73</ele>
        <time>2022-01-09T10:34:27Z</time>
      </trkpt>
      <trkpt lat="48.76415" lon="2.55632">
        <ele>60.93</ele>
        <time>2022-01-09T10:34:45Z</time>
      </trkpt>
      <trkpt lat="48.76415" lon="2.55632">
        <ele>61.82</ele>
        <time>2022-01-09T10:35:02Z</time>
      </trkpt>
      <trkpt lat="48.76406" lon="2.55626">
        <ele>62.14</ele>
        <time>2022-01-09T10:35:15Z</time>
      </trkpt>
      <trkpt lat="48.76406" lon="2.5563">
        <ele>62.84</ele>
        <time>2022-01-09T10:35:28Z</time>
      </trkpt>
      <trkpt lat="48.764" lon="2.5563">
        <ele>62.51</ele>
        <time>2022-01-09T10:35:46Z</time>
      </trkpt>
      <trkpt lat="48.76397" lon="2.55608">
        <ele>63.5</ele>
        <time>2022-01-09T10:36:01Z</time>
      </trkpt>
      <trkpt lat="48.76395" lon="2.55603">
        <ele>63.59</ele>
        <time>2022-01-09T10:36:05Z</time>
      </trkpt>
      <trkpt lat="48.76387" lon="2.55583">
        <ele>63.17</ele>
        <time>2022-01-09T10:36:18Z</time>
      </trkpt>
      <trkpt lat="48.76385" lon="2.55578">
        <ele>63.99</ele>
        <time>2022-01-09T10:36:21Z</time>
      </trkpt>
      <trkpt lat="48.7638" lon="2.55568">
        <ele>63.5</ele>
        <time>2022-01-09T10:36:30Z</time>
      </trkpt>
      <trkpt lat="48.76377" lon="2.55557">
        <ele>64.23</ele>
        <time>2022-01-09T10:36:42Z</time>
      </trkpt>
      <trkpt lat="48.76371" lon="2.5554">
        <ele>64.66</ele>
        <time>2022-01-09T10:36:55Z</time>
      </trkpt>
      <trkpt lat="48.76364" lon="2.5552">
        <ele>64.93</ele>
        <time>2022-01-09T10:37:09Z</time>
      </trkpt>
      <trkpt lat="48.76356" lon="2.55495">
        <ele>64.71</ele>
        <time>2022-01-09T10:37:20Z</time>
      </trkpt>
      <trkpt lat="48.76349" lon="2.55483">
        <ele>64.87</ele>
        <time>2022-01-09T10:37:30Z</time>
      </trkpt>
      <trkpt lat="48.76342" lon="2.55467">
        <ele>65.31</ele>
        <time>2022-01-09T10:37:41Z</time>
      </trkpt>
      <trkpt lat="48.76336" lon="2.55451">
        <ele>65.85</ele>
        <time>2022-01-09T10:37:51Z</time>
      </trkpt>
      <trkpt lat="48.76327" lon="2.55428">
        <ele>66.08</ele>
        <time>2022-01-09T10:38:07Z</time>
      </trkpt>
      <trkpt lat="48.76319" lon="2.55407">
        <ele>65.85</ele>
        <time>2022-01-09T10:38:22Z</time>
      </trkpt>
      <trkpt lat="48.76311" lon="2.55386">
        <ele>66.02</ele>
        <time>2022-01-09T10:38:35Z</time>
      </trkpt>
      <trkpt lat="48.76303" lon="2.55369">
        <ele>65.63</ele>
        <time>2022-01-09T10:38:45Z</time>
      </trkpt>
      <trkpt lat="48.76296" lon="2.55348">
        <ele>66.12</ele>
        <time>2022-01-09T10:38:57Z</time>
      </trkpt>
      <trkpt lat="48.7629" lon="2.55335">
        <ele>66.42</ele>
        <time>2022-01-09T10:39:07Z</time>
      </trkpt>
      <trkpt lat="48.76285" lon="2.55321">
        <ele>66.06</ele>
        <time>2022-01-09T10:39:17Z</time>
      </trkpt>
      <trkpt lat="48.76279" lon="2.553">
        <ele>65.91</ele>
        <time>2022-01-09T10:39:33Z</time>
      </trkpt>
      <trkpt lat="48.76274" lon="2.55294">
        <ele>66.31</ele>
        <time>2022-01-09T10:39:45Z</time>
      </trkpt>
      <trkpt lat="48.76268" lon="2.55275">
        <ele>66.56</ele>
        <time>2022-01-09T10:40:01Z</time>
      </trkpt>
      <trkpt lat="48.76261" lon="2.55257">
        <ele>65.76</ele>
        <time>2022-01-09T10:40:14Z</time>
      </trkpt>
      <trkpt lat="48.76251" lon="2.55233">
        <ele>66.46</ele>
        <time>2022-01-09T10:40:29Z</time>
      </trkpt>
      <trkpt lat="48.76241" lon="2.5521">
        <ele>66.23</ele>
        <time>2022-01-09T10:40:41Z</time>
      </trkpt>
      <trkpt lat="48.76236" lon="2.55195">
        <ele>66.51</ele>
        <time>2022-01-09T10:40:52Z</time>
      </trkpt>
      <trkpt lat="48.76229" lon="2.55183">
        <ele>66.78</ele>
        <time>2022-01-09T10:41:04Z</time>
      </trkpt>
      <trkpt lat="48.76228" lon="2.55182">
        <ele>66.49</ele>
        <time>2022-01-09T10:41:05Z</time>
      </trkpt>
      <trkpt lat="48.76223" lon="2.55164">
        <ele>66.51</ele>
        <time>2022-01-09T10:41:22Z</time>
      </trkpt>
      <trkpt lat="48.76222" lon="2.55161">
        <ele>66.9</ele>
        <time>2022-01-09T10:41:26Z</time>
      </trkpt>
      <trkpt lat="48.76216" lon="2.55148">
        <ele>66.98</ele>
        <time>2022-01-09T10:41:40Z</time>
      </trkpt>
      <trkpt lat="48.76211" lon="2.55135">
        <ele>67.01</ele>
        <time>2022-01-09T10:41:57Z</time>
      </trkpt>
      <trkpt lat="48.76204" lon="2.55116">
        <ele>67.09</ele>
        <time>2022-01-09T10:42:12Z</time>
      </trkpt>
      <trkpt lat="48.76196" lon="2.55099">
        <ele>67.03</ele>
        <time>2022-01-09T10:42:25Z</time>
      </trkpt>
      <trkpt lat="48.76189" lon="2.55081">
        <ele>67.53</ele>
        <time>2022-01-09T10:42:37Z</time>
      </trkpt>
      <trkpt lat="48.76181" lon="2.55062">
        <ele>67.49</ele>
        <time>2022-01-09T10:42:51Z</time>
      </trkpt>
      <trkpt lat="48.76173" lon="2.55041">
        <ele>68.37</ele>
        <time>2022-01-09T10:43:09Z</time>
      </trkpt>
      <trkpt lat="48.76163" lon="2.55018">
        <ele>68.24</ele>
        <time>2022-01-09T10:43:24Z</time>
      </trkpt>
      <trkpt lat="48.76157" lon="2.54999">
        <ele>68.89</ele>
        <time>2022-01-09T10:43:39Z</time>
      </trkpt>
      <trkpt lat="48.76155" lon="2.54989">
        <ele>68.77</ele>
        <time>2022-01-09T10:43:53Z</time>
      </trkpt>
      <trkpt lat="48.76155" lon="2.54991">
        <ele>69.82</ele>
        <time>2022-01-09T10:44:11Z</time>
      </trkpt>
      <trkpt lat="48.76156" lon="2.5499">
        <ele>69.81</ele>
        <time>2022-01-09T10:44:27Z</time>
      </trkpt>
      <trkpt lat="48.76155" lon="2.54985">
        <ele>69.26</ele>
        <time>2022-01-09T10:44:45Z</time>
      </trkpt>
      <trkpt lat="48.76155" lon="2.54987">
        <ele>69.62</ele>
        <time>2022-01-09T10:45:05Z</time>
      </trkpt>
      <trkpt lat="48.76156" lon="2.54991">
        <ele>69.75</ele>
        <time>2022-01-09T10:45:27Z</time>
      </trkpt>
      <trkpt lat="48.76155" lon="2.5499">
        <ele>69.85</ele>
        <time>2022-01-09T10:45:48Z</time>
      </trkpt>
      <trkpt lat="48.76153" lon="2.54991">
        <ele>70.46</ele>
        <time>2022-01-09T10:46:05Z</time>
      </trkpt>
      <trkpt lat="48.76154" lon="2.54992">
        <ele>70.44</ele>
        <time>2022-01-09T10:46:25Z</time>
      </trkpt>
      <trkpt lat="48.76155" lon="2.54996">
        <ele>71.48</ele>
        <time>2022-01-09T10:46:48Z</time>
      </trkpt>
      <trkpt lat="48.76153" lon="2.54997">
        <ele>70.99</ele>
        <time>2022-01-09T10:47:10Z</time>
      </trkpt>
      <trkpt lat="48.76153" lon="2.54999">
        <ele>71.41</ele>
        <time>2022-01-09T10:47:29Z</time>
      </trkpt>
      <trkpt lat="48.76156" lon="2.54998">
        <ele>71.69</ele>
        <time>2022-01-09T10:47:49Z</time>
      </trkpt>
      <trkpt lat="48.76151" lon="2.54996">
        <ele>71.97</ele>
        <time>2022-01-09T10:48:11Z</time>
      </trkpt>
      <trkpt lat="48.76151" lon="2.54998">
        <ele>72.65</ele>
        <time>2022-01-09T10:48:31Z</time>
      </trkpt>
      <trkpt lat="48.76151" lon="2.54992">
        <ele>72.25</ele>
        <time>2022-01-09T10:48:50Z</time>
      </trkpt>
      <trkpt lat="48.76149" lon="2.54983">
        <ele>73.14</ele>
        <time>2022-01-09T10:49:03Z</time>
      </trkpt>
      <trkpt lat="48.76143" lon="2.54971">
        <ele>73.42</ele>
        <time>2022-01-09T10:49:16Z</time>
      </trkpt>
      <trkpt lat="48.76136" lon="2.54956">
        <ele>72.94</ele>
        <time>2022-01-09T10:49:28Z</time>
      </trkpt>
      <trkpt lat="48.7613" lon="2.54937">
        <ele>73.25</ele>
        <time>2022-01-09T10:49:40Z</time>
      </trkpt>
      <trkpt lat="48.7612" lon="2.54922">
        <ele>73.56</ele>
        <time>2022-01-09T10:49:52Z</time>
      </trkpt>
      <trkpt lat="48.76119" lon="2.54919">
        <ele>73.21</ele>
        <time>2022-01-09T10:50:01Z</time>
      </trkpt>
      <trkpt lat="48.76121" lon="2.54921">
        <ele>73.86</ele>
        <time>2022-01-09T10:50:18Z</time>
      </trkpt>
      <trkpt lat="48.76119" lon="2.54921">
        <ele>73.48</ele>
        <time>2022-01-09T10:50:29Z</time>
      </trkpt>
      <trkpt lat="48.76111" lon="2.54913">
        <ele>73.9</ele>
        <time>2022-01-09T10:50:37Z</time>
      </trkpt>
      <trkpt lat="48.76105" lon="2.54913">
        <ele>73.78</ele>
        <time>2022-01-09T10:50:47Z</time>
      </trkpt>
      <trkpt lat="48.76086" lon="2.54919">
        <ele>74.14</ele>
        <time>2022-01-09T10:51:02Z</time>
      </trkpt>
      <trkpt lat="48.76067" lon="2.54925">
        <ele>74.15</ele>
        <time>2022-01-09T10:51:18Z</time>
      </trkpt>
      <trkpt lat="48.76049" lon="2.54931">
        <ele>74.1</ele>
        <time>2022-01-09T10:51:34Z</time>
      </trkpt>
      <trkpt lat="48.76042" lon="2.5493">
        <ele>73.98</ele>
        <time>2022-01-09T10:51:45Z</time>
      </trkpt>
      <trkpt lat="48.76037" lon="2.54931">
        <ele>74.46</ele>
        <time>2022-01-09T10:51:50Z</time>
      </trkpt>
      <trkpt lat="48.76032" lon="2.54932">
        <ele>74.56</ele>
        <time>2022-01-09T10:51:54Z</time>
      </trkpt>
      <trkpt lat="48.76028" lon="2.54933">
        <ele>74.15</ele>
        <time>2022-01-09T10:51:57Z</time>
      </trkpt>
      <trkpt lat="48.76016" lon="2.54941">
        <ele>74.66</ele>
        <time>2022-01-09T10:52:09Z</time>
      </trkpt>
      <trkpt lat="48.76007" lon="2.54945">
        <ele>74.45</ele>
        <time>2022-01-09T10:52:16Z</time>
      </trkpt>
      <trkpt lat="48.75997" lon="2.54949">
        <ele>74.58</ele>
        <time>2022-01-09T10:52:25Z</time>
      </trkpt>
      <trkpt lat="48.75978" lon="2.54957">
        <ele>74.43</ele>
        <time>2022-01-09T10:52:41Z</time>
      </trkpt>
      <trkpt lat="48.75964" lon="2.54966">
        <ele>74.78</ele>
        <time>2022-01-09T10:52:55Z</time>
      </trkpt>
      <trkpt lat="48.75956" lon="2.54966">
        <ele>75.2</ele>
        <time>2022-01-09T10:53:04Z</time>
      </trkpt>
      <trkpt lat="48.75946" lon="2.5497">
        <ele>74.7</ele>
        <time>2022-01-09T10:53:17Z</time>
      </trkpt>
      <trkpt lat="48.75937" lon="2.54974">
        <ele>74.9</ele>
        <time>2022-01-09T10:53:27Z</time>
      </trkpt>
      <trkpt lat="48.75927" lon="2.54983">
        <ele>75.37</ele>
        <time>2022-01-09T10:53:35Z</time>
      </trkpt>
      <trkpt lat="48.75919" lon="2.54988">
        <ele>75.49</ele>
        <time>2022-01-09T10:53:42Z</time>
      </trkpt>
      <trkpt lat="48.75909" lon="2.54988">
        <ele>75.24</ele>
        <time>2022-01-09T10:53:56Z</time>
      </trkpt>
      <trkpt lat="48.759" lon="2.54991">
        <ele>75.84</ele>
        <time>2022-01-09T10:54:15Z</time>
      </trkpt>
      <trkpt lat="48.75888" lon="2.54993">
        <ele>75.57</ele>
        <time>2022-01-09T10:54:28Z</time>
      </trkpt>
      <trkpt lat="48.75881" lon="2.54996">
        <ele>76.83</ele>
        <time>2022-01-09T10:54:35Z</time>
      </trkpt>
      <trkpt lat="48.75875" lon="2.54996">
        <ele>75.42</ele>
        <time>2022-01-09T10:54:43Z</time>
      </trkpt>
      <trkpt lat="48.75868" lon="2.55">
        <ele>75.97</ele>
        <time>2022-01-09T10:54:55Z</time>
      </trkpt>
      <trkpt lat="48.75862" lon="2.54998">
        <ele>75.74</ele>
        <time>2022-01-09T10:55:04Z</time>
      </trkpt>
      <trkpt lat="48.75859" lon="2.54998">
        <ele>75.46</ele>
        <time>2022-01-09T10:55:06Z</time>
      </trkpt>
      <trkpt lat="48.75845" lon="2.55006">
        <ele>75.88</ele>
        <time>2022-01-09T10:55:19Z</time>
      </trkpt>
      <trkpt lat="48.75843" lon="2.55007">
        <ele>75.8</ele>
        <time>2022-01-09T10:55:20Z</time>
      </trkpt>
      <trkpt lat="48.75841" lon="2.55007">
        <ele>75.71</ele>
        <time>2022-01-09T10:55:22Z</time>
      </trkpt>
      <trkpt lat="48.75827" lon="2.55012">
        <ele>75.73</ele>
        <time>2022-01-09T10:55:34Z</time>
      </trkpt>
      <trkpt lat="48.75813" lon="2.55017">
        <ele>75.61</ele>
        <time>2022-01-09T10:55:47Z</time>
      </trkpt>
      <trkpt lat="48.75811" lon="2.55007">
        <ele>76.54</ele>
        <time>2022-01-09T10:55:57Z</time>
      </trkpt>
      <trkpt lat="48.75799" lon="2.54998">
        <ele>76.58</ele>
        <time>2022-01-09T10:56:09Z</time>
      </trkpt>
      <trkpt lat="48.75798" lon="2.54995">
        <ele>76.44</ele>
        <time>2022-01-09T10:56:12Z</time>
      </trkpt>
      <trkpt lat="48.75797" lon="2.5498">
        <ele>76.4</ele>
        <time>2022-01-09T10:56:23Z</time>
      </trkpt>
      <trkpt lat="48.75794" lon="2.54962">
        <ele>76.61</ele>
        <time>2022-01-09T10:56:37Z</time>
      </trkpt>
      <trkpt lat="48.75787" lon="2.54952">
        <ele>76.8</ele>
        <time>2022-01-09T10:56:50Z</time>
      </trkpt>
      <trkpt lat="48.75786" lon="2.54938">
        <ele>76.39</ele>
        <time>2022-01-09T10:57:03Z</time>
      </trkpt>
      <trkpt lat="48.75783" lon="2.54916">
        <ele>76.97</ele>
        <time>2022-01-09T10:57:15Z</time>
      </trkpt>
      <trkpt lat="48.75782" lon="2.54894">
        <ele>76.26</ele>
        <time>2022-01-09T10:57:29Z</time>
      </trkpt>
      <trkpt lat="48.75779" lon="2.54871">
        <ele>76.47</ele>
        <time>2022-01-09T10:57:47Z</time>
      </trkpt>
      <trkpt lat="48.75772" lon="2.54847">
        <ele>76.44</ele>
        <time>2022-01-09T10:58:03Z</time>
      </trkpt>
      <trkpt lat="48.75769" lon="2.54819">
        <ele>77.01</ele>
        <time>2022-01-09T10:58:17Z</time>
      </trkpt>
      <trkpt lat="48.75769" lon="2.54794">
        <ele>77.13</ele>
        <time>2022-01-09T10:58:32Z</time>
      </trkpt>
      <trkpt lat="48.75761" lon="2.54763">
        <ele>76.87</ele>
        <time>2022-01-09T10:58:48Z</time>
      </trkpt>
      <trkpt lat="48.75757" lon="2.54757">
        <ele>76.78</ele>
        <time>2022-01-09T10:59:02Z</time>
      </trkpt>
      <trkpt lat="48.75751" lon="2.54728">
        <ele>77.19</ele>
        <time>2022-01-09T10:59:19Z</time>
      </trkpt>
      <trkpt lat="48.75748" lon="2.54699">
        <ele>77.11</ele>
        <time>2022-01-09T10:59:36Z</time>
      </trkpt>
      <trkpt lat="48.75746" lon="2.54677">
        <ele>76.89</ele>
        <time>2022-01-09T10:59:51Z</time>
      </trkpt>
      <trkpt lat="48.75743" lon="2.5465">
        <ele>76.58</ele>
        <time>2022-01-09T11:00:07Z</time>
      </trkpt>
      <trkpt lat="48.75735" lon="2.54617">
        <ele>76.28</ele>
        <time>2022-01-09T11:00:23Z</time>
      </trkpt>
      <trkpt lat="48.75731" lon="2.5459">
        <ele>77.02</ele>
        <time>2022-01-09T11:00:38Z</time>
      </trkpt>
      <trkpt lat="48.75728" lon="2.54572">
        <ele>76.69</ele>
        <time>2022-01-09T11:00:50Z</time>
      </trkpt>
      <trkpt lat="48.75726" lon="2.54546">
        <ele>76.4</ele>
        <time>2022-01-09T11:01:04Z</time>
      </trkpt>
      <trkpt lat="48.75721" lon="2.54522">
        <ele>76.4</ele>
        <time>2022-01-09T11:01:22Z</time>
      </trkpt>
      <trkpt lat="48.75717" lon="2.54498">
        <ele>76.37</ele>
        <time>2022-01-09T11:01:36Z</time>
      </trkpt>
      <trkpt lat="48.75712" lon="2.5447">
        <ele>76.69</ele>
        <time>2022-01-09T11:01:52Z</time>
      </trkpt>
      <trkpt lat="48.7571" lon="2.54449">
        <ele>77.09</ele>
        <time>2022-01-09T11:02:04Z</time>
      </trkpt>
      <trkpt lat="48.75706" lon="2.54426">
        <ele>76.86</ele>
        <time>2022-01-09T11:02:16Z</time>
      </trkpt>
      <trkpt lat="48.75702" lon="2.54413">
        <ele>76.69</ele>
        <time>2022-01-09T11:02:25Z</time>
      </trkpt>
      <trkpt lat="48.75699" lon="2.54392">
        <ele>77.03</ele>
        <time>2022-01-09T11:02:39Z</time>
      </trkpt>
      <trkpt lat="48.75698" lon="2.54385">
        <ele>77.19</ele>
        <time>2022-01-09T11:02:42Z</time>
      </trkpt>
      <trkpt lat="48.75695" lon="2.54362">
        <ele>77</ele>
        <time>2022-01-09T11:02:55Z</time>
      </trkpt>
      <trkpt lat="48.75695" lon="2.5436">
        <ele>76.66</ele>
        <time>2022-01-09T11:02:57Z</time>
      </trkpt>
      <trkpt lat="48.75688" lon="2.54349">
        <ele>77.05</ele>
        <time>2022-01-09T11:03:09Z</time>
      </trkpt>
      <trkpt lat="48.75684" lon="2.54333">
        <ele>77.34</ele>
        <time>2022-01-09T11:03:23Z</time>
      </trkpt>
      <trkpt lat="48.75682" lon="2.54331">
        <ele>77.1</ele>
        <time>2022-01-09T11:03:37Z</time>
      </trkpt>
      <trkpt lat="48.75677" lon="2.5434">
        <ele>77.95</ele>
        <time>2022-01-09T11:03:48Z</time>
      </trkpt>
      <trkpt lat="48.75673" lon="2.54346">
        <ele>78.21</ele>
        <time>2022-01-09T11:04:00Z</time>
      </trkpt>
      <trkpt lat="48.75667" lon="2.54359">
        <ele>78.41</ele>
        <time>2022-01-09T11:04:18Z</time>
      </trkpt>
      <trkpt lat="48.75658" lon="2.5438">
        <ele>78.9</ele>
        <time>2022-01-09T11:04:36Z</time>
      </trkpt>
      <trkpt lat="48.75644" lon="2.54403">
        <ele>78.99</ele>
        <time>2022-01-09T11:04:57Z</time>
      </trkpt>
      <trkpt lat="48.75635" lon="2.54412">
        <ele>79.56</ele>
        <time>2022-01-09T11:05:09Z</time>
      </trkpt>
      <trkpt lat="48.75625" lon="2.54426">
        <ele>79.82</ele>
        <time>2022-01-09T11:05:23Z</time>
      </trkpt>
      <trkpt lat="48.7562" lon="2.54433">
        <ele>79.93</ele>
        <time>2022-01-09T11:05:36Z</time>
      </trkpt>
      <trkpt lat="48.75612" lon="2.54445">
        <ele>79.53</ele>
        <time>2022-01-09T11:05:52Z</time>
      </trkpt>
      <trkpt lat="48.75606" lon="2.54461">
        <ele>79.81</ele>
        <time>2022-01-09T11:06:08Z</time>
      </trkpt>
      <trkpt lat="48.75596" lon="2.54475">
        <ele>79.31</ele>
        <time>2022-01-09T11:06:22Z</time>
      </trkpt>
      <trkpt lat="48.75592" lon="2.54484">
        <ele>79.96</ele>
        <time>2022-01-09T11:06:35Z</time>
      </trkpt>
      <trkpt lat="48.75586" lon="2.54494">
        <ele>79.52</ele>
        <time>2022-01-09T11:06:46Z</time>
      </trkpt>
      <trkpt lat="48.75574" lon="2.54505">
        <ele>79.69</ele>
        <time>2022-01-09T11:06:58Z</time>
      </trkpt>
      <trkpt lat="48.75563" lon="2.54522">
        <ele>79.88</ele>
        <time>2022-01-09T11:07:13Z</time>
      </trkpt>
      <trkpt lat="48.75548" lon="2.54541">
        <ele>80.29</ele>
        <time>2022-01-09T11:07:28Z</time>
      </trkpt>
      <trkpt lat="48.75535" lon="2.54555">
        <ele>79.7</ele>
        <time>2022-01-09T11:07:42Z</time>
      </trkpt>
      <trkpt lat="48.75523" lon="2.54563">
        <ele>80.31</ele>
        <time>2022-01-09T11:07:55Z</time>
      </trkpt>
      <trkpt lat="48.75514" lon="2.54566">
        <ele>80</ele>
        <time>2022-01-09T11:08:10Z</time>
      </trkpt>
      <trkpt lat="48.75511" lon="2.54575">
        <ele>80.49</ele>
        <time>2022-01-09T11:08:26Z</time>
      </trkpt>
      <trkpt lat="48.75501" lon="2.54583">
        <ele>79.57</ele>
        <time>2022-01-09T11:08:43Z</time>
      </trkpt>
      <trkpt lat="48.75494" lon="2.54591">
        <ele>79.7</ele>
        <time>2022-01-09T11:08:56Z</time>
      </trkpt>
      <trkpt lat="48.75484" lon="2.54603">
        <ele>80.61</ele>
        <time>2022-01-09T11:09:09Z</time>
      </trkpt>
      <trkpt lat="48.75477" lon="2.54616">
        <ele>80.29</ele>
        <time>2022-01-09T11:09:23Z</time>
      </trkpt>
      <trkpt lat="48.75473" lon="2.5462">
        <ele>80.39</ele>
        <time>2022-01-09T11:09:38Z</time>
      </trkpt>
      <trkpt lat="48.75472" lon="2.5462">
        <ele>80.37</ele>
        <time>2022-01-09T11:09:42Z</time>
      </trkpt>
      <trkpt lat="48.75466" lon="2.5462">
        <ele>81.43</ele>
        <time>2022-01-09T11:09:56Z</time>
      </trkpt>
      <trkpt lat="48.75456" lon="2.54627">
        <ele>81.23</ele>
        <time>2022-01-09T11:10:14Z</time>
      </trkpt>
      <trkpt lat="48.75448" lon="2.54636">
        <ele>81.35</ele>
        <time>2022-01-09T11:10:26Z</time>
      </trkpt>
      <trkpt lat="48.7544" lon="2.54644">
        <ele>81.47</ele>
        <time>2022-01-09T11:10:40Z</time>
      </trkpt>
      <trkpt lat="48.75437" lon="2.54651">
        <ele>81.65</ele>
        <time>2022-01-09T11:10:57Z</time>
      </trkpt>
      <trkpt lat="48.75433" lon="2.54652">
        <ele>82.12</ele>
        <time>2022-01-09T11:11:11Z</time>
      </trkpt>
      <trkpt lat="48.75434" lon="2.5465">
        <ele>82.35</ele>
        <time>2022-01-09T11:11:30Z</time>
      </trkpt>
      <trkpt lat="48.75429" lon="2.54658">
        <ele>82.85</ele>
        <time>2022-01-09T11:11:46Z</time>
      </trkpt>
      <trkpt lat="48.75417" lon="2.54671">
        <ele>82.38</ele>
        <time>2022-01-09T11:12:02Z</time>
      </trkpt>
      <trkpt lat="48.75413" lon="2.54678">
        <ele>82.77</ele>
        <time>2022-01-09T11:12:19Z</time>
      </trkpt>
      <trkpt lat="48.75398" lon="2.54693">
        <ele>82.44</ele>
        <time>2022-01-09T11:12:36Z</time>
      </trkpt>
      <trkpt lat="48.75389" lon="2.54701">
        <ele>82.86</ele>
        <time>2022-01-09T11:12:48Z</time>
      </trkpt>
      <trkpt lat="48.75384" lon="2.54707">
        <ele>82.79</ele>
        <time>2022-01-09T11:12:56Z</time>
      </trkpt>
      <trkpt lat="48.75374" lon="2.5472">
        <ele>82.5</ele>
        <time>2022-01-09T11:13:10Z</time>
      </trkpt>
      <trkpt lat="48.75366" lon="2.54726">
        <ele>82.21</ele>
        <time>2022-01-09T11:13:23Z</time>
      </trkpt>
      <trkpt lat="48.7535" lon="2.54729">
        <ele>83.01</ele>
        <time>2022-01-09T11:13:39Z</time>
      </trkpt>
      <trkpt lat="48.75344" lon="2.54736">
        <ele>83.17</ele>
        <time>2022-01-09T11:13:52Z</time>
      </trkpt>
      <trkpt lat="48.75342" lon="2.54745">
        <ele>82.79</ele>
        <time>2022-01-09T11:14:07Z</time>
      </trkpt>
      <trkpt lat="48.75341" lon="2.5474">
        <ele>82.78</ele>
        <time>2022-01-09T11:14:25Z</time>
      </trkpt>
      <trkpt lat="48.75339" lon="2.54738">
        <ele>82.91</ele>
        <time>2022-01-09T11:14:41Z</time>
      </trkpt>
      <trkpt lat="48.75339" lon="2.54745">
        <ele>83.56</ele>
        <time>2022-01-09T11:14:47Z</time>
      </trkpt>
      <trkpt lat="48.75337" lon="2.54754">
        <ele>83.53</ele>
        <time>2022-01-09T11:15:01Z</time>
      </trkpt>
      <trkpt lat="48.75335" lon="2.54765">
        <ele>83.79</ele>
        <time>2022-01-09T11:15:18Z</time>
      </trkpt>
      <trkpt lat="48.75337" lon="2.54763">
        <ele>82.64</ele>
        <time>2022-01-09T11:15:39Z</time>
      </trkpt>
      <trkpt lat="48.75339" lon="2.5476">
        <ele>84.08</ele>
        <time>2022-01-09T11:15:55Z</time>
      </trkpt>
      <trkpt lat="48.75339" lon="2.54775">
        <ele>84.15</ele>
        <time>2022-01-09T11:16:11Z</time>
      </trkpt>
      <trkpt lat="48.75336" lon="2.54774">
        <ele>83.96</ele>
        <time>2022-01-09T11:16:26Z</time>
      </trkpt>
      <trkpt lat="48.75333" lon="2.54774">
        <ele>83.88</ele>
        <time>2022-01-09T11:16:46Z</time>
      </trkpt>
      <trkpt lat="48.75338" lon="2.54773">
        <ele>84.57</ele>
        <time>2022-01-09T11:17:08Z</time>
      </trkpt>
      <trkpt lat="48.75339" lon="2.5477">
        <ele>84.78</ele>
        <time>2022-01-09T11:17:26Z</time>
      </trkpt>
      <trkpt lat="48.75337" lon="2.54766">
        <ele>84.62</ele>
        <time>2022-01-09T11:17:43Z</time>
      </trkpt>
      <trkpt lat="48.75322" lon="2.54764">
        <ele>85.12</ele>
        <time>2022-01-09T11:18:01Z</time>
      </trkpt>
      <trkpt lat="48.75312" lon="2.54759">
        <ele>84.5</ele>
        <time>2022-01-09T11:18:19Z</time>
      </trkpt>
      <trkpt lat="48.75297" lon="2.54745">
        <ele>85.1</ele>
        <time>2022-01-09T11:18:36Z</time>
      </trkpt>
      <trkpt lat="48.75281" lon="2.54732">
        <ele>84.32</ele>
        <time>2022-01-09T11:18:53Z</time>
      </trkpt>
      <trkpt lat="48.75269" lon="2.54721">
        <ele>85.02</ele>
        <time>2022-01-09T11:19:08Z</time>
      </trkpt>
      <trkpt lat="48.75255" lon="2.5471">
        <ele>85.19</ele>
        <time>2022-01-09T11:19:24Z</time>
      </trkpt>
      <trkpt lat="48.75236" lon="2.547">
        <ele>85.74</ele>
        <time>2022-01-09T11:19:41Z</time>
      </trkpt>
      <trkpt lat="48.75222" lon="2.5469">
        <ele>84.76</ele>
        <time>2022-01-09T11:19:57Z</time>
      </trkpt>
      <trkpt lat="48.75206" lon="2.54676">
        <ele>84.86</ele>
        <time>2022-01-09T11:20:13Z</time>
      </trkpt>
      <trkpt lat="48.75201" lon="2.54675">
        <ele>85.31</ele>
        <time>2022-01-09T11:20:19Z</time>
      </trkpt>
      <trkpt lat="48.75198" lon="2.54672">
        <ele>85.28</ele>
        <time>2022-01-09T11:20:22Z</time>
      </trkpt>
      <trkpt lat="48.75184" lon="2.54662">
        <ele>85.65</ele>
        <time>2022-01-09T11:20:35Z</time>
      </trkpt>
      <trkpt lat="48.75168" lon="2.54651">
        <ele>84.99</ele>
        <time>2022-01-09T11:20:48Z</time>
      </trkpt>
      <trkpt lat="48.75154" lon="2.54639">
        <ele>85.29</ele>
        <time>2022-01-09T11:21:02Z</time>
      </trkpt>
      <trkpt lat="48.75144" lon="2.5463">
        <ele>85.46</ele>
        <time>2022-01-09T11:21:11Z</time>
      </trkpt>
      <trkpt lat="48.75132" lon="2.54619">
        <ele>85.15</ele>
        <time>2022-01-09T11:21:23Z</time>
      </trkpt>
      <trkpt lat="48.75119" lon="2.54611">
        <ele>84.56</ele>
        <time>2022-01-09T11:21:40Z</time>
      </trkpt>
      <trkpt lat="48.75113" lon="2.54608">
        <ele>86.07</ele>
        <time>2022-01-09T11:21:47Z</time>
      </trkpt>
      <trkpt lat="48.75103" lon="2.546">
        <ele>86.26</ele>
        <time>2022-01-09T11:22:03Z</time>
      </trkpt>
      <trkpt lat="48.75093" lon="2.54586">
        <ele>85.59</ele>
        <time>2022-01-09T11:22:18Z</time>
      </trkpt>
      <trkpt lat="48.75079" lon="2.54581">
        <ele>85.4</ele>
        <time>2022-01-09T11:22:31Z</time>
      </trkpt>
      <trkpt lat="48.75065" lon="2.54568">
        <ele>85.63</ele>
        <time>2022-01-09T11:22:46Z</time>
      </trkpt>
      <trkpt lat="48.75054" lon="2.54562">
        <ele>85.98</ele>
        <time>2022-01-09T11:23:00Z</time>
      </trkpt>
      <trkpt lat="48.75039" lon="2.54552">
        <ele>85.57</ele>
        <time>2022-01-09T11:23:16Z</time>
      </trkpt>
      <trkpt lat="48.75026" lon="2.54544">
        <ele>85.69</ele>
        <time>2022-01-09T11:23:31Z</time>
      </trkpt>
      <trkpt lat="48.75007" lon="2.54532">
        <ele>85.91</ele>
        <time>2022-01-09T11:23:49Z</time>
      </trkpt>
      <trkpt lat="48.74987" lon="2.54518">
        <ele>85.69</ele>
        <time>2022-01-09T11:24:06Z</time>
      </trkpt>
      <trkpt lat="48.74979" lon="2.5451">
        <ele>85.11</ele>
        <time>2022-01-09T11:24:15Z</time>
      </trkpt>
      <trkpt lat="48.74967" lon="2.545">
        <ele>85.48</ele>
        <time>2022-01-09T11:24:30Z</time>
      </trkpt>
      <trkpt lat="48.74953" lon="2.5449">
        <ele>85.5</ele>
        <time>2022-01-09T11:24:46Z</time>
      </trkpt>
      <trkpt lat="48.74939" lon="2.54475">
        <ele>85.2</ele>
        <time>2022-01-09T11:25:03Z</time>
      </trkpt>
      <trkpt lat="48.74919" lon="2.5446">
        <ele>84.64</ele>
        <time>2022-01-09T11:25:19Z</time>
      </trkpt>
      <trkpt lat="48.74903" lon="2.54453">
        <ele>84.89</ele>
        <time>2022-01-09T11:25:37Z</time>
      </trkpt>
      <trkpt lat="48.74903" lon="2.54447">
        <ele>85.45</ele>
        <time>2022-01-09T11:25:48Z</time>
      </trkpt>
      <trkpt lat="48.74904" lon="2.5444">
        <ele>84.75</ele>
        <time>2022-01-09T11:26:06Z</time>
      </trkpt>
      <trkpt lat="48.74908" lon="2.54424">
        <ele>84.58</ele>
        <time>2022-01-09T11:26:23Z</time>
      </trkpt>
      <trkpt lat="48.74907" lon="2.54408">
        <ele>84.85</ele>
        <time>2022-01-09T11:26:39Z</time>
      </trkpt>
      <trkpt lat="48.74911" lon="2.54385">
        <ele>85.03</ele>
        <time>2022-01-09T11:26:55Z</time>
      </trkpt>
      <trkpt lat="48.74917" lon="2.54358">
        <ele>85.37</ele>
        <time>2022-01-09T11:27:11Z</time>
      </trkpt>
      <trkpt lat="48.74919" lon="2.54325">
        <ele>84.89</ele>
        <time>2022-01-09T11:27:29Z</time>
      </trkpt>
      <trkpt lat="48.74929" lon="2.54302">
        <ele>85.2</ele>
        <time>2022-01-09T11:27:45Z</time>
      </trkpt>
      <trkpt lat="48.74933" lon="2.54283">
        <ele>84.8</ele>
        <time>2022-01-09T11:27:54Z</time>
      </trkpt>
      <trkpt lat="48.74937" lon="2.54265">
        <ele>84.54</ele>
        <time>2022-01-09T11:28:06Z</time>
      </trkpt>
      <trkpt lat="48.74941" lon="2.54239">
        <ele>84.68</ele>
        <time>2022-01-09T11:28:24Z</time>
      </trkpt>
      <trkpt lat="48.74942" lon="2.54229">
        <ele>85</ele>
        <time>2022-01-09T11:28:30Z</time>
      </trkpt>
      <trkpt lat="48.74944" lon="2.54207">
        <ele>84.81</ele>
        <time>2022-01-09T11:28:43Z</time>
      </trkpt>
      <trkpt lat="48.74946" lon="2.54184">
        <ele>84.8</ele>
        <time>2022-01-09T11:28:56Z</time>
      </trkpt>
      <trkpt lat="48.74949" lon="2.54161">
        <ele>84.64</ele>
        <time>2022-01-09T11:29:08Z</time>
      </trkpt>
      <trkpt lat="48.74953" lon="2.54136">
        <ele>85.22</ele>
        <time>2022-01-09T11:29:23Z</time>
      </trkpt>
      <trkpt lat="48.74955" lon="2.54118">
        <ele>85.29</ele>
        <time>2022-01-09T11:29:32Z</time>
      </trkpt>
      <trkpt lat="48.74959" lon="2.54103">
        <ele>85.18</ele>
        <time>2022-01-09T11:29:43Z</time>
      </trkpt>
      <trkpt lat="48.74962" lon="2.54084">
        <ele>85.13</ele>
        <time>2022-01-09T11:29:54Z</time>
      </trkpt>
      <trkpt lat="48.74965" lon="2.54072">
        <ele>85.98</ele>
        <time>2022-01-09T11:30:03Z</time>
      </trkpt>
      <trkpt lat="48.74975" lon="2.54046">
        <ele>85.48</ele>
        <time>2022-01-09T11:30:17Z</time>
      </trkpt>
      <trkpt lat="48.74974" lon="2.54027">
        <ele>86.62</ele>
        <time>2022-01-09T11:30:28Z</time>
      </trkpt>
      <trkpt lat="48.74968" lon="2.54024">
        <ele>86.4</ele>
        <time>2022-01-09T11:30:33Z</time>
      </trkpt>
      <trkpt lat="48.74959" lon="2.5402">
        <ele>86.42</ele>
        <time>2022-01-09T11:30:42Z</time>
      </trkpt>
      <trkpt lat="48.74951" lon="2.54015">
        <ele>86.34</ele>
        <time>2022-01-09T11:30:49Z</time>
      </trkpt>
      <trkpt lat="48.74945" lon="2.54005">
        <ele>86.3</ele>
        <time>2022-01-09T11:30:57Z</time>
      </trkpt>
      <trkpt lat="48.74935" lon="2.53997">
        <ele>86.08</ele>
        <time>2022-01-09T11:31:10Z</time>
      </trkpt>
      <trkpt lat="48.74931" lon="2.53995">
        <ele>86.84</ele>
        <time>2022-01-09T11:31:16Z</time>
      </trkpt>
      <trkpt lat="48.74928" lon="2.53992">
        <ele>85.91</ele>
        <time>2022-01-09T11:31:19Z</time>
      </trkpt>
      <trkpt lat="48.74912" lon="2.53978">
        <ele>86.31</ele>
        <time>2022-01-09T11:31:35Z</time>
      </trkpt>
      <trkpt lat="48.74898" lon="2.53967">
        <ele>86.94</ele>
        <time>2022-01-09T11:31:48Z</time>
      </trkpt>
      <trkpt lat="48.74899" lon="2.53966">
        <ele>86.49</ele>
        <time>2022-01-09T11:31:59Z</time>
      </trkpt>
      <trkpt lat="48.74899" lon="2.53966">
        <ele>86.01</ele>
        <time>2022-01-09T11:32:00Z</time>
      </trkpt>
      <trkpt lat="48.74902" lon="2.5396">
        <ele>86.19</ele>
        <time>2022-01-09T11:32:04Z</time>
      </trkpt>
      <trkpt lat="48.74905" lon="2.53939">
        <ele>86.19</ele>
        <time>2022-01-09T11:32:18Z</time>
      </trkpt>
      <trkpt lat="48.74905" lon="2.53938">
        <ele>86.24</ele>
        <time>2022-01-09T11:32:19Z</time>
      </trkpt>
      <trkpt lat="48.74899" lon="2.5392">
        <ele>85.59</ele>
        <time>2022-01-09T11:32:32Z</time>
      </trkpt>
      <trkpt lat="48.74891" lon="2.53904">
        <ele>85.79</ele>
        <time>2022-01-09T11:32:45Z</time>
      </trkpt>
      <trkpt lat="48.74884" lon="2.53895">
        <ele>85.52</ele>
        <time>2022-01-09T11:32:55Z</time>
      </trkpt>
      <trkpt lat="48.74875" lon="2.53878">
        <ele>85.66</ele>
        <time>2022-01-09T11:33:12Z</time>
      </trkpt>
      <trkpt lat="48.74875" lon="2.53877">
        <ele>85.96</ele>
        <time>2022-01-09T11:33:13Z</time>
      </trkpt>
      <trkpt lat="48.74878" lon="2.5386">
        <ele>85.6</ele>
        <time>2022-01-09T11:33:28Z</time>
      </trkpt>
      <trkpt lat="48.74882" lon="2.53843">
        <ele>85.63</ele>
        <time>2022-01-09T11:33:39Z</time>
      </trkpt>
      <trkpt lat="48.74885" lon="2.53824">
        <ele>85.77</ele>
        <time>2022-01-09T11:33:51Z</time>
      </trkpt>
      <trkpt lat="48.74888" lon="2.53809">
        <ele>85.18</ele>
        <time>2022-01-09T11:33:59Z</time>
      </trkpt>
      <trkpt lat="48.74895" lon="2.53784">
        <ele>85.76</ele>
        <time>2022-01-09T11:34:13Z</time>
      </trkpt>
      <trkpt lat="48.74903" lon="2.53764">
        <ele>85.38</ele>
        <time>2022-01-09T11:34:28Z</time>
      </trkpt>
      <trkpt lat="48.74901" lon="2.53758">
        <ele>85.02</ele>
        <time>2022-01-09T11:34:41Z</time>
      </trkpt>
      <trkpt lat="48.74909" lon="2.53742">
        <ele>86.35</ele>
        <time>2022-01-09T11:34:55Z</time>
      </trkpt>
      <trkpt lat="48.7492" lon="2.53719">
        <ele>86.4</ele>
        <time>2022-01-09T11:35:10Z</time>
      </trkpt>
      <trkpt lat="48.74927" lon="2.53701">
        <ele>86.08</ele>
        <time>2022-01-09T11:35:22Z</time>
      </trkpt>
      <trkpt lat="48.74935" lon="2.53686">
        <ele>86.09</ele>
        <time>2022-01-09T11:35:33Z</time>
      </trkpt>
      <trkpt lat="48.74936" lon="2.53685">
        <ele>86.09</ele>
        <time>2022-01-09T11:35:34Z</time>
      </trkpt>
      <trkpt lat="48.74938" lon="2.53678">
        <ele>86.11</ele>
        <time>2022-01-09T11:35:38Z</time>
      </trkpt>
      <trkpt lat="48.74941" lon="2.53667">
        <ele>85.58</ele>
        <time>2022-01-09T11:35:47Z</time>
      </trkpt>
      <trkpt lat="48.74947" lon="2.53647">
        <ele>86.35</ele>
        <time>2022-01-09T11:36:02Z</time>
      </trkpt>
      <trkpt lat="48.7495" lon="2.53641">
        <ele>85.87</ele>
        <time>2022-01-09T11:36:18Z</time>
      </trkpt>
      <trkpt lat="48.74952" lon="2.53636">
        <ele>86.2</ele>
        <time>2022-01-09T11:36:22Z</time>
      </trkpt>
      <trkpt lat="48.74953" lon="2.53633">
        <ele>85.93</ele>
        <time>2022-01-09T11:36:24Z</time>
      </trkpt>
      <trkpt lat="48.74958" lon="2.53621">
        <ele>86.02</ele>
        <time>2022-01-09T11:36:34Z</time>
      </trkpt>
      <trkpt lat="48.74964" lon="2.53603">
        <ele>85.77</ele>
        <time>2022-01-09T11:36:47Z</time>
      </trkpt>
      <trkpt lat="48.74965" lon="2.5359">
        <ele>85.9</ele>
        <time>2022-01-09T11:36:57Z</time>
      </trkpt>
      <trkpt lat="48.74965" lon="2.53587">
        <ele>86</ele>
        <time>2022-01-09T11:37:13Z</time>
      </trkpt>
      <trkpt lat="48.74965" lon="2.53585">
        <ele>86.02</ele>
        <time>2022-01-09T11:37:25Z</time>
      </trkpt>
      <trkpt lat="48.74967" lon="2.53566">
        <ele>86.14</ele>
        <time>2022-01-09T11:37:39Z</time>
      </trkpt>
      <trkpt lat="48.74966" lon="2.53538">
        <ele>86.22</ele>
        <time>2022-01-09T11:37:56Z</time>
      </trkpt>
      <trkpt lat="48.74962" lon="2.53518">
        <ele>86.84</ele>
        <time>2022-01-09T11:38:11Z</time>
      </trkpt>
      <trkpt lat="48.74959" lon="2.53499">
        <ele>86.53</ele>
        <time>2022-01-09T11:38:24Z</time>
      </trkpt>
      <trkpt lat="48.74958" lon="2.53469">
        <ele>86.49</ele>
        <time>2022-01-09T11:38:39Z</time>
      </trkpt>
      <trkpt lat="48.74957" lon="2.5345">
        <ele>86.14</ele>
        <time>2022-01-09T11:38:47Z</time>
      </trkpt>
      <trkpt lat="48.74953" lon="2.53426">
        <ele>86.13</ele>
        <time>2022-01-09T11:38:59Z</time>
      </trkpt>
      <trkpt lat="48.74949" lon="2.534">
        <ele>85.75</ele>
        <time>2022-01-09T11:39:13Z</time>
      </trkpt>
      <trkpt lat="48.74948" lon="2.53381">
        <ele>85.43</ele>
        <time>2022-01-09T11:39:28Z</time>
      </trkpt>
      <trkpt lat="48.74943" lon="2.53355">
        <ele>85</ele>
        <time>2022-01-09T11:39:45Z</time>
      </trkpt>
      <trkpt lat="48.74944" lon="2.53333">
        <ele>85.34</ele>
        <time>2022-01-09T11:40:04Z</time>
      </trkpt>
      <trkpt lat="48.74943" lon="2.53313">
        <ele>85.19</ele>
        <time>2022-01-09T11:40:13Z</time>
      </trkpt>
      <trkpt lat="48.74939" lon="2.53278">
        <ele>84.76</ele>
        <time>2022-01-09T11:40:28Z</time>
      </trkpt>
      <trkpt lat="48.74937" lon="2.53267">
        <ele>85.02</ele>
        <time>2022-01-09T11:40:35Z</time>
      </trkpt>
      <trkpt lat="48.74936" lon="2.53251">
        <ele>85.04</ele>
        <time>2022-01-09T11:40:44Z</time>
      </trkpt>
      <trkpt lat="48.74935" lon="2.53244">
        <ele>84.47</ele>
        <time>2022-01-09T11:40:47Z</time>
      </trkpt>
      <trkpt lat="48.7493" lon="2.53219">
        <ele>84.82</ele>
        <time>2022-01-09T11:40:58Z</time>
      </trkpt>
      <trkpt lat="48.7493" lon="2.53215">
        <ele>84.85</ele>
        <time>2022-01-09T11:41:00Z</time>
      </trkpt>
      <trkpt lat="48.74925" lon="2.53183">
        <ele>84.29</ele>
        <time>2022-01-09T11:41:16Z</time>
      </trkpt>
      <trkpt lat="48.74924" lon="2.53178">
        <ele>84.34</ele>
        <time>2022-01-09T11:41:18Z</time>
      </trkpt>
      <trkpt lat="48.74922" lon="2.53172">
        <ele>83.99</ele>
        <time>2022-01-09T11:41:21Z</time>
      </trkpt>
      <trkpt lat="48.74924" lon="2.5316">
        <ele>84.25</ele>
        <time>2022-01-09T11:41:28Z</time>
      </trkpt>
      <trkpt lat="48.74922" lon="2.53138">
        <ele>84.35</ele>
        <time>2022-01-09T11:41:39Z</time>
      </trkpt>
      <trkpt lat="48.74921" lon="2.53131">
        <ele>84.43</ele>
        <time>2022-01-09T11:41:41Z</time>
      </trkpt>
      <trkpt lat="48.74917" lon="2.5311">
        <ele>84.11</ele>
        <time>2022-01-09T11:41:53Z</time>
      </trkpt>
      <trkpt lat="48.74912" lon="2.53093">
        <ele>83.99</ele>
        <time>2022-01-09T11:42:02Z</time>
      </trkpt>
      <trkpt lat="48.74911" lon="2.53072">
        <ele>83.9</ele>
        <time>2022-01-09T11:42:17Z</time>
      </trkpt>
      <trkpt lat="48.74904" lon="2.53043">
        <ele>84.09</ele>
        <time>2022-01-09T11:42:32Z</time>
      </trkpt>
      <trkpt lat="48.749" lon="2.53025">
        <ele>84.67</ele>
        <time>2022-01-09T11:42:46Z</time>
      </trkpt>
      <trkpt lat="48.74899" lon="2.53019">
        <ele>84.03</ele>
        <time>2022-01-09T11:43:03Z</time>
      </trkpt>
      <trkpt lat="48.74899" lon="2.53018">
        <ele>84.62</ele>
        <time>2022-01-09T11:43:04Z</time>
      </trkpt>
      <trkpt lat="48.74902" lon="2.53011">
        <ele>84.51</ele>
        <time>2022-01-09T11:43:20Z</time>
      </trkpt>
      <trkpt lat="48.74908" lon="2.53">
        <ele>84.81</ele>
        <time>2022-01-09T11:43:31Z</time>
      </trkpt>
      <trkpt lat="48.74909" lon="2.52997">
        <ele>84.59</ele>
        <time>2022-01-09T11:43:33Z</time>
      </trkpt>
      <trkpt lat="48.74914" lon="2.52988">
        <ele>84.63</ele>
        <time>2022-01-09T11:43:38Z</time>
      </trkpt>
      <trkpt lat="48.74921" lon="2.52977">
        <ele>84.6</ele>
        <time>2022-01-09T11:43:47Z</time>
      </trkpt>
      <trkpt lat="48.74928" lon="2.52964">
        <ele>85</ele>
        <time>2022-01-09T11:43:57Z</time>
      </trkpt>
      <trkpt lat="48.74935" lon="2.52952">
        <ele>85.05</ele>
        <time>2022-01-09T11:44:07Z</time>
      </trkpt>
      <trkpt lat="48.74947" lon="2.52926">
        <ele>85.5</ele>
        <time>2022-01-09T11:44:25Z</time>
      </trkpt>
      <trkpt lat="48.74948" lon="2.52923">
        <ele>85.1</ele>
        <time>2022-01-09T11:44:27Z</time>
      </trkpt>
      <trkpt lat="48.74957" lon="2.52909">
        <ele>85.08</ele>
        <time>2022-01-09T11:44:38Z</time>
      </trkpt>
      <trkpt lat="48.74964" lon="2.52897">
        <ele>85.15</ele>
        <time>2022-01-09T11:44:46Z</time>
      </trkpt>
      <trkpt lat="48.74975" lon="2.52881">
        <ele>85.31</ele>
        <time>2022-01-09T11:44:57Z</time>
      </trkpt>
      <trkpt lat="48.74979" lon="2.52871">
        <ele>85.31</ele>
        <time>2022-01-09T11:45:06Z</time>
      </trkpt>
      <trkpt lat="48.74982" lon="2.52866">
        <ele>85.45</ele>
        <time>2022-01-09T11:45:12Z</time>
      </trkpt>
      <trkpt lat="48.74993" lon="2.5285">
        <ele>85.41</ele>
        <time>2022-01-09T11:45:23Z</time>
      </trkpt>
      <trkpt lat="48.74996" lon="2.52847">
        <ele>85.87</ele>
        <time>2022-01-09T11:45:26Z</time>
      </trkpt>
      <trkpt lat="48.75002" lon="2.52833">
        <ele>85.54</ele>
        <time>2022-01-09T11:45:35Z</time>
      </trkpt>
      <trkpt lat="48.75006" lon="2.52826">
        <ele>85.38</ele>
        <time>2022-01-09T11:45:42Z</time>
      </trkpt>
      <trkpt lat="48.75009" lon="2.52822">
        <ele>85.45</ele>
        <time>2022-01-09T11:45:45Z</time>
      </trkpt>
      <trkpt lat="48.75016" lon="2.52808">
        <ele>85.64</ele>
        <time>2022-01-09T11:45:56Z</time>
      </trkpt>
      <trkpt lat="48.75025" lon="2.5279">
        <ele>85.34</ele>
        <time>2022-01-09T11:46:11Z</time>
      </trkpt>
      <trkpt lat="48.75036" lon="2.52774">
        <ele>85.44</ele>
        <time>2022-01-09T11:46:25Z</time>
      </trkpt>
      <trkpt lat="48.75049" lon="2.52753">
        <ele>85.67</ele>
        <time>2022-01-09T11:46:41Z</time>
      </trkpt>
      <trkpt lat="48.7506" lon="2.52725">
        <ele>85.64</ele>
        <time>2022-01-09T11:46:57Z</time>
      </trkpt>
      <trkpt lat="48.75061" lon="2.52724">
        <ele>85.56</ele>
        <time>2022-01-09T11:46:58Z</time>
      </trkpt>
      <trkpt lat="48.75064" lon="2.52719">
        <ele>85.42</ele>
        <time>2022-01-09T11:47:02Z</time>
      </trkpt>
      <trkpt lat="48.75071" lon="2.52708">
        <ele>85.39</ele>
        <time>2022-01-09T11:47:12Z</time>
      </trkpt>
      <trkpt lat="48.75076" lon="2.52698">
        <ele>85.53</ele>
        <time>2022-01-09T11:47:22Z</time>
      </trkpt>
      <trkpt lat="48.75086" lon="2.52687">
        <ele>85.49</ele>
        <time>2022-01-09T11:47:34Z</time>
      </trkpt>
      <trkpt lat="48.75098" lon="2.52665">
        <ele>85.24</ele>
        <time>2022-01-09T11:47:51Z</time>
      </trkpt>
      <trkpt lat="48.75105" lon="2.52658">
        <ele>85.93</ele>
        <time>2022-01-09T11:48:00Z</time>
      </trkpt>
      <trkpt lat="48.75114" lon="2.52638">
        <ele>86.6</ele>
        <time>2022-01-09T11:48:13Z</time>
      </trkpt>
      <trkpt lat="48.75121" lon="2.52621">
        <ele>86.1</ele>
        <time>2022-01-09T11:48:24Z</time>
      </trkpt>
      <trkpt lat="48.75131" lon="2.52602">
        <ele>85.66</ele>
        <time>2022-01-09T11:48:38Z</time>
      </trkpt>
      <trkpt lat="48.75139" lon="2.52591">
        <ele>85.83</ele>
        <time>2022-01-09T11:48:46Z</time>
      </trkpt>
      <trkpt lat="48.75144" lon="2.52585">
        <ele>86.08</ele>
        <time>2022-01-09T11:48:51Z</time>
      </trkpt>
      <trkpt lat="48.75148" lon="2.52569">
        <ele>86.09</ele>
        <time>2022-01-09T11:49:00Z</time>
      </trkpt>
      <trkpt lat="48.7515" lon="2.52565">
        <ele>86.12</ele>
        <time>2022-01-09T11:49:04Z</time>
      </trkpt>
      <trkpt lat="48.75162" lon="2.52545">
        <ele>85.93</ele>
        <time>2022-01-09T11:49:20Z</time>
      </trkpt>
      <trkpt lat="48.75163" lon="2.5254">
        <ele>86.32</ele>
        <time>2022-01-09T11:49:23Z</time>
      </trkpt>
      <trkpt lat="48.7517" lon="2.52525">
        <ele>86.2</ele>
        <time>2022-01-09T11:49:33Z</time>
      </trkpt>
      <trkpt lat="48.75172" lon="2.52517">
        <ele>86.08</ele>
        <time>2022-01-09T11:49:38Z</time>
      </trkpt>
      <trkpt lat="48.75181" lon="2.525">
        <ele>86.35</ele>
        <time>2022-01-09T11:49:49Z</time>
      </trkpt>
      <trkpt lat="48.75191" lon="2.52484">
        <ele>85.86</ele>
        <time>2022-01-09T11:49:59Z</time>
      </trkpt>
      <trkpt lat="48.752" lon="2.52471">
        <ele>85.91</ele>
        <time>2022-01-09T11:50:10Z</time>
      </trkpt>
      <trkpt lat="48.75209" lon="2.52452">
        <ele>86.36</ele>
        <time>2022-01-09T11:50:23Z</time>
      </trkpt>
      <trkpt lat="48.75215" lon="2.52442">
        <ele>85.54</ele>
        <time>2022-01-09T11:50:30Z</time>
      </trkpt>
      <trkpt lat="48.75223" lon="2.5243">
        <ele>86.95</ele>
        <time>2022-01-09T11:50:40Z</time>
      </trkpt>
      <trkpt lat="48.75231" lon="2.52415">
        <ele>86.31</ele>
        <time>2022-01-09T11:50:51Z</time>
      </trkpt>
      <trkpt lat="48.75239" lon="2.52402">
        <ele>85.99</ele>
        <time>2022-01-09T11:51:00Z</time>
      </trkpt>
      <trkpt lat="48.75243" lon="2.52394">
        <ele>86.52</ele>
        <time>2022-01-09T11:51:11Z</time>
      </trkpt>
      <trkpt lat="48.75245" lon="2.52392">
        <ele>86.35</ele>
        <time>2022-01-09T11:51:29Z</time>
      </trkpt>
      <trkpt lat="48.75247" lon="2.52389">
        <ele>86.5</ele>
        <time>2022-01-09T11:51:41Z</time>
      </trkpt>
      <trkpt lat="48.75255" lon="2.52377">
        <ele>86.41</ele>
        <time>2022-01-09T11:51:54Z</time>
      </trkpt>
      <trkpt lat="48.75257" lon="2.52374">
        <ele>86.52</ele>
        <time>2022-01-09T11:51:56Z</time>
      </trkpt>
      <trkpt lat="48.75267" lon="2.52355">
        <ele>87.32</ele>
        <time>2022-01-09T11:52:09Z</time>
      </trkpt>
      <trkpt lat="48.75275" lon="2.5234">
        <ele>86.59</ele>
        <time>2022-01-09T11:52:21Z</time>
      </trkpt>
      <trkpt lat="48.75284" lon="2.52324">
        <ele>86.56</ele>
        <time>2022-01-09T11:52:34Z</time>
      </trkpt>
      <trkpt lat="48.75296" lon="2.52303">
        <ele>86.42</ele>
        <time>2022-01-09T11:52:49Z</time>
      </trkpt>
      <trkpt lat="48.75299" lon="2.52298">
        <ele>86.66</ele>
        <time>2022-01-09T11:52:53Z</time>
      </trkpt>
      <trkpt lat="48.75304" lon="2.52294">
        <ele>86.87</ele>
        <time>2022-01-09T11:53:04Z</time>
      </trkpt>
      <trkpt lat="48.75312" lon="2.52294">
        <ele>86.7</ele>
        <time>2022-01-09T11:53:15Z</time>
      </trkpt>
      <trkpt lat="48.75312" lon="2.52292">
        <ele>86.23</ele>
        <time>2022-01-09T11:53:18Z</time>
      </trkpt>
      <trkpt lat="48.75314" lon="2.52288">
        <ele>86.09</ele>
        <time>2022-01-09T11:53:20Z</time>
      </trkpt>
      <trkpt lat="48.75314" lon="2.52274">
        <ele>85.96</ele>
        <time>2022-01-09T11:53:29Z</time>
      </trkpt>
      <trkpt lat="48.75312" lon="2.52255">
        <ele>86.17</ele>
        <time>2022-01-09T11:53:39Z</time>
      </trkpt>
      <trkpt lat="48.75311" lon="2.52231">
        <ele>86.12</ele>
        <time>2022-01-09T11:53:53Z</time>
      </trkpt>
      <trkpt lat="48.75312" lon="2.52218">
        <ele>86.01</ele>
        <time>2022-01-09T11:54:01Z</time>
      </trkpt>
      <trkpt lat="48.75311" lon="2.52208">
        <ele>85.59</ele>
        <time>2022-01-09T11:54:12Z</time>
      </trkpt>
      <trkpt lat="48.7531" lon="2.52199">
        <ele>85.65</ele>
        <time>2022-01-09T11:54:21Z</time>
      </trkpt>
      <trkpt lat="48.75307" lon="2.52187">
        <ele>85.83</ele>
        <time>2022-01-09T11:54:31Z</time>
      </trkpt>
      <trkpt lat="48.75297" lon="2.52176">
        <ele>86.07</ele>
        <time>2022-01-09T11:54:46Z</time>
      </trkpt>
      <trkpt lat="48.75296" lon="2.52175">
        <ele>85.98</ele>
        <time>2022-01-09T11:54:47Z</time>
      </trkpt>
      <trkpt lat="48.75298" lon="2.5216">
        <ele>86.2</ele>
        <time>2022-01-09T11:54:58Z</time>
      </trkpt>
      <trkpt lat="48.75301" lon="2.52153">
        <ele>85.9</ele>
        <time>2022-01-09T11:55:13Z</time>
      </trkpt>
      <trkpt lat="48.75313" lon="2.52158">
        <ele>86.25</ele>
        <time>2022-01-09T11:55:25Z</time>
      </trkpt>
      <trkpt lat="48.75319" lon="2.52153">
        <ele>86.1</ele>
        <time>2022-01-09T11:55:37Z</time>
      </trkpt>
      <trkpt lat="48.75323" lon="2.52143">
        <ele>86.08</ele>
        <time>2022-01-09T11:55:51Z</time>
      </trkpt>
      <trkpt lat="48.7533" lon="2.52136">
        <ele>85.8</ele>
        <time>2022-01-09T11:56:09Z</time>
      </trkpt>
      <trkpt lat="48.75333" lon="2.5213">
        <ele>85.64</ele>
        <time>2022-01-09T11:56:24Z</time>
      </trkpt>
      <trkpt lat="48.75333" lon="2.52129">
        <ele>85.94</ele>
        <time>2022-01-09T11:56:40Z</time>
      </trkpt>
      <trkpt lat="48.75331" lon="2.5213">
        <ele>85.44</ele>
        <time>2022-01-09T11:57:01Z</time>
      </trkpt>
      <trkpt lat="48.75329" lon="2.52131">
        <ele>85.43</ele>
        <time>2022-01-09T11:57:23Z</time>
      </trkpt>
      <trkpt lat="48.75328" lon="2.52128">
        <ele>85.51</ele>
        <time>2022-01-09T11:58:01Z</time>
      </trkpt>
      <trkpt lat="48.75332" lon="2.52126">
        <ele>93.58</ele>
        <time>2022-01-09T12:39:28Z</time>
      </trkpt>
      <trkpt lat="48.75332" lon="2.52132">
        <ele>92.8</ele>
        <time>2022-01-09T12:39:42Z</time>
      </trkpt>
      <trkpt lat="48.75331" lon="2.52141">
        <ele>93.4</ele>
        <time>2022-01-09T12:39:53Z</time>
      </trkpt>
      <trkpt lat="48.7533" lon="2.52151">
        <ele>93.79</ele>
        <time>2022-01-09T12:40:00Z</time>
      </trkpt>
      <trkpt lat="48.75331" lon="2.52173">
        <ele>93.86</ele>
        <time>2022-01-09T12:40:12Z</time>
      </trkpt>
      <trkpt lat="48.7533" lon="2.52179">
        <ele>93.72</ele>
        <time>2022-01-09T12:40:15Z</time>
      </trkpt>
      <trkpt lat="48.75331" lon="2.52186">
        <ele>93.62</ele>
        <time>2022-01-09T12:40:19Z</time>
      </trkpt>
      <trkpt lat="48.75332" lon="2.52196">
        <ele>93.7</ele>
        <time>2022-01-09T12:40:30Z</time>
      </trkpt>
      <trkpt lat="48.75335" lon="2.5221">
        <ele>93.46</ele>
        <time>2022-01-09T12:40:44Z</time>
      </trkpt>
      <trkpt lat="48.75335" lon="2.52235">
        <ele>93.67</ele>
        <time>2022-01-09T12:40:57Z</time>
      </trkpt>
      <trkpt lat="48.75334" lon="2.52255">
        <ele>93.69</ele>
        <time>2022-01-09T12:41:09Z</time>
      </trkpt>
      <trkpt lat="48.75335" lon="2.52277">
        <ele>95.18</ele>
        <time>2022-01-09T12:41:22Z</time>
      </trkpt>
      <trkpt lat="48.75338" lon="2.52292">
        <ele>94.58</ele>
        <time>2022-01-09T12:41:32Z</time>
      </trkpt>
      <trkpt lat="48.75345" lon="2.52305">
        <ele>94.74</ele>
        <time>2022-01-09T12:41:42Z</time>
      </trkpt>
      <trkpt lat="48.75353" lon="2.52312">
        <ele>94.82</ele>
        <time>2022-01-09T12:41:50Z</time>
      </trkpt>
      <trkpt lat="48.75363" lon="2.52325">
        <ele>95.2</ele>
        <time>2022-01-09T12:42:02Z</time>
      </trkpt>
      <trkpt lat="48.75366" lon="2.52329">
        <ele>95.56</ele>
        <time>2022-01-09T12:42:05Z</time>
      </trkpt>
      <trkpt lat="48.75385" lon="2.52356">
        <ele>95.1</ele>
        <time>2022-01-09T12:42:24Z</time>
      </trkpt>
      <trkpt lat="48.75392" lon="2.52367">
        <ele>94.51</ele>
        <time>2022-01-09T12:42:33Z</time>
      </trkpt>
      <trkpt lat="48.75394" lon="2.52369">
        <ele>94.66</ele>
        <time>2022-01-09T12:42:35Z</time>
      </trkpt>
      <trkpt lat="48.75402" lon="2.52382">
        <ele>95.23</ele>
        <time>2022-01-09T12:42:46Z</time>
      </trkpt>
      <trkpt lat="48.7541" lon="2.52391">
        <ele>95.11</ele>
        <time>2022-01-09T12:42:54Z</time>
      </trkpt>
      <trkpt lat="48.75418" lon="2.52402">
        <ele>95.23</ele>
        <time>2022-01-09T12:43:04Z</time>
      </trkpt>
      <trkpt lat="48.75427" lon="2.52413">
        <ele>95.2</ele>
        <time>2022-01-09T12:43:15Z</time>
      </trkpt>
      <trkpt lat="48.75437" lon="2.52423">
        <ele>94.97</ele>
        <time>2022-01-09T12:43:25Z</time>
      </trkpt>
      <trkpt lat="48.75443" lon="2.5243">
        <ele>94.34</ele>
        <time>2022-01-09T12:43:32Z</time>
      </trkpt>
      <trkpt lat="48.75452" lon="2.52441">
        <ele>94.26</ele>
        <time>2022-01-09T12:43:42Z</time>
      </trkpt>
      <trkpt lat="48.75461" lon="2.52453">
        <ele>94.08</ele>
        <time>2022-01-09T12:43:52Z</time>
      </trkpt>
      <trkpt lat="48.75472" lon="2.52468">
        <ele>93.22</ele>
        <time>2022-01-09T12:44:04Z</time>
      </trkpt>
      <trkpt lat="48.75473" lon="2.52471">
        <ele>94.45</ele>
        <time>2022-01-09T12:44:06Z</time>
      </trkpt>
      <trkpt lat="48.75476" lon="2.52476">
        <ele>94</ele>
        <time>2022-01-09T12:44:10Z</time>
      </trkpt>
      <trkpt lat="48.75478" lon="2.52477">
        <ele>93.9</ele>
        <time>2022-01-09T12:44:12Z</time>
      </trkpt>
      <trkpt lat="48.75486" lon="2.52486">
        <ele>93.93</ele>
        <time>2022-01-09T12:44:22Z</time>
      </trkpt>
      <trkpt lat="48.75499" lon="2.52501">
        <ele>93.61</ele>
        <time>2022-01-09T12:44:36Z</time>
      </trkpt>
      <trkpt lat="48.75502" lon="2.52508">
        <ele>93.38</ele>
        <time>2022-01-09T12:44:41Z</time>
      </trkpt>
      <trkpt lat="48.75506" lon="2.52513">
        <ele>93.59</ele>
        <time>2022-01-09T12:44:46Z</time>
      </trkpt>
      <trkpt lat="48.75515" lon="2.52529">
        <ele>92.97</ele>
        <time>2022-01-09T12:44:58Z</time>
      </trkpt>
      <trkpt lat="48.75524" lon="2.52545">
        <ele>92.34</ele>
        <time>2022-01-09T12:45:09Z</time>
      </trkpt>
      <trkpt lat="48.7553" lon="2.52555">
        <ele>92.44</ele>
        <time>2022-01-09T12:45:17Z</time>
      </trkpt>
      <trkpt lat="48.7554" lon="2.52567">
        <ele>91.58</ele>
        <time>2022-01-09T12:45:29Z</time>
      </trkpt>
      <trkpt lat="48.7555" lon="2.5258">
        <ele>91.98</ele>
        <time>2022-01-09T12:45:40Z</time>
      </trkpt>
      <trkpt lat="48.75557" lon="2.52593">
        <ele>91.69</ele>
        <time>2022-01-09T12:45:51Z</time>
      </trkpt>
      <trkpt lat="48.75566" lon="2.52606">
        <ele>91.42</ele>
        <time>2022-01-09T12:46:01Z</time>
      </trkpt>
      <trkpt lat="48.75575" lon="2.52614">
        <ele>90.87</ele>
        <time>2022-01-09T12:46:11Z</time>
      </trkpt>
      <trkpt lat="48.75581" lon="2.52616">
        <ele>91.08</ele>
        <time>2022-01-09T12:46:17Z</time>
      </trkpt>
      <trkpt lat="48.75587" lon="2.52624">
        <ele>90.36</ele>
        <time>2022-01-09T12:46:25Z</time>
      </trkpt>
      <trkpt lat="48.75592" lon="2.52628">
        <ele>90.32</ele>
        <time>2022-01-09T12:46:29Z</time>
      </trkpt>
      <trkpt lat="48.75605" lon="2.52633">
        <ele>90.13</ele>
        <time>2022-01-09T12:46:43Z</time>
      </trkpt>
      <trkpt lat="48.75608" lon="2.52636">
        <ele>90.01</ele>
        <time>2022-01-09T12:46:46Z</time>
      </trkpt>
      <trkpt lat="48.75622" lon="2.52642">
        <ele>89.54</ele>
        <time>2022-01-09T12:46:59Z</time>
      </trkpt>
      <trkpt lat="48.75637" lon="2.52649">
        <ele>89.06</ele>
        <time>2022-01-09T12:47:12Z</time>
      </trkpt>
      <trkpt lat="48.75652" lon="2.52655">
        <ele>89.62</ele>
        <time>2022-01-09T12:47:26Z</time>
      </trkpt>
      <trkpt lat="48.75662" lon="2.5266">
        <ele>89.97</ele>
        <time>2022-01-09T12:47:36Z</time>
      </trkpt>
      <trkpt lat="48.75672" lon="2.52668">
        <ele>89.45</ele>
        <time>2022-01-09T12:47:47Z</time>
      </trkpt>
      <trkpt lat="48.75682" lon="2.52671">
        <ele>89.48</ele>
        <time>2022-01-09T12:47:59Z</time>
      </trkpt>
      <trkpt lat="48.75689" lon="2.52673">
        <ele>89.96</ele>
        <time>2022-01-09T12:48:06Z</time>
      </trkpt>
      <trkpt lat="48.75697" lon="2.52677">
        <ele>89.69</ele>
        <time>2022-01-09T12:48:13Z</time>
      </trkpt>
      <trkpt lat="48.75709" lon="2.52685">
        <ele>89.68</ele>
        <time>2022-01-09T12:48:23Z</time>
      </trkpt>
      <trkpt lat="48.75718" lon="2.52689">
        <ele>89.94</ele>
        <time>2022-01-09T12:48:33Z</time>
      </trkpt>
      <trkpt lat="48.75729" lon="2.52696">
        <ele>89.81</ele>
        <time>2022-01-09T12:48:44Z</time>
      </trkpt>
      <trkpt lat="48.75747" lon="2.52702">
        <ele>90.33</ele>
        <time>2022-01-09T12:48:59Z</time>
      </trkpt>
      <trkpt lat="48.75751" lon="2.52706">
        <ele>89.87</ele>
        <time>2022-01-09T12:49:04Z</time>
      </trkpt>
      <trkpt lat="48.75758" lon="2.52706">
        <ele>89.75</ele>
        <time>2022-01-09T12:49:10Z</time>
      </trkpt>
      <trkpt lat="48.75761" lon="2.52706">
        <ele>89.99</ele>
        <time>2022-01-09T12:49:12Z</time>
      </trkpt>
      <trkpt lat="48.75778" lon="2.52706">
        <ele>89.67</ele>
        <time>2022-01-09T12:49:26Z</time>
      </trkpt>
      <trkpt lat="48.7579" lon="2.52704">
        <ele>89.08</ele>
        <time>2022-01-09T12:49:37Z</time>
      </trkpt>
      <trkpt lat="48.75792" lon="2.52703">
        <ele>89.73</ele>
        <time>2022-01-09T12:49:39Z</time>
      </trkpt>
      <trkpt lat="48.75807" lon="2.52701">
        <ele>89.49</ele>
        <time>2022-01-09T12:49:52Z</time>
      </trkpt>
      <trkpt lat="48.75821" lon="2.52701">
        <ele>89.74</ele>
        <time>2022-01-09T12:50:04Z</time>
      </trkpt>
      <trkpt lat="48.75835" lon="2.52699">
        <ele>89.56</ele>
        <time>2022-01-09T12:50:16Z</time>
      </trkpt>
      <trkpt lat="48.75851" lon="2.52698">
        <ele>88.86</ele>
        <time>2022-01-09T12:50:30Z</time>
      </trkpt>
      <trkpt lat="48.75866" lon="2.52695">
        <ele>89.49</ele>
        <time>2022-01-09T12:50:43Z</time>
      </trkpt>
      <trkpt lat="48.7588" lon="2.52692">
        <ele>89.95</ele>
        <time>2022-01-09T12:50:59Z</time>
      </trkpt>
      <trkpt lat="48.75887" lon="2.52692">
        <ele>89.54</ele>
        <time>2022-01-09T12:51:04Z</time>
      </trkpt>
      <trkpt lat="48.75899" lon="2.52691">
        <ele>89.64</ele>
        <time>2022-01-09T12:51:15Z</time>
      </trkpt>
      <trkpt lat="48.75915" lon="2.52691">
        <ele>89.3</ele>
        <time>2022-01-09T12:51:28Z</time>
      </trkpt>
      <trkpt lat="48.7593" lon="2.52688">
        <ele>89</ele>
        <time>2022-01-09T12:51:41Z</time>
      </trkpt>
      <trkpt lat="48.75944" lon="2.52688">
        <ele>89.43</ele>
        <time>2022-01-09T12:51:54Z</time>
      </trkpt>
      <trkpt lat="48.75955" lon="2.52684">
        <ele>89.12</ele>
        <time>2022-01-09T12:52:05Z</time>
      </trkpt>
      <trkpt lat="48.75957" lon="2.52682">
        <ele>88.7</ele>
        <time>2022-01-09T12:52:07Z</time>
      </trkpt>
      <trkpt lat="48.75966" lon="2.52668">
        <ele>88.31</ele>
        <time>2022-01-09T12:52:17Z</time>
      </trkpt>
      <trkpt lat="48.75969" lon="2.52659">
        <ele>88.3</ele>
        <time>2022-01-09T12:52:23Z</time>
      </trkpt>
      <trkpt lat="48.75978" lon="2.52652">
        <ele>88.28</ele>
        <time>2022-01-09T12:52:33Z</time>
      </trkpt>
      <trkpt lat="48.75984" lon="2.52652">
        <ele>88.42</ele>
        <time>2022-01-09T12:52:39Z</time>
      </trkpt>
      <trkpt lat="48.75993" lon="2.52643">
        <ele>88.16</ele>
        <time>2022-01-09T12:52:52Z</time>
      </trkpt>
      <trkpt lat="48.75994" lon="2.52642">
        <ele>88.06</ele>
        <time>2022-01-09T12:52:53Z</time>
      </trkpt>
      <trkpt lat="48.75997" lon="2.52639">
        <ele>87.63</ele>
        <time>2022-01-09T12:52:56Z</time>
      </trkpt>
      <trkpt lat="48.76006" lon="2.52629">
        <ele>87.58</ele>
        <time>2022-01-09T12:53:07Z</time>
      </trkpt>
      <trkpt lat="48.76016" lon="2.52616">
        <ele>86.72</ele>
        <time>2022-01-09T12:53:20Z</time>
      </trkpt>
      <trkpt lat="48.76029" lon="2.52601">
        <ele>85.91</ele>
        <time>2022-01-09T12:53:35Z</time>
      </trkpt>
      <trkpt lat="48.76031" lon="2.52598">
        <ele>85.86</ele>
        <time>2022-01-09T12:53:37Z</time>
      </trkpt>
      <trkpt lat="48.7604" lon="2.52584">
        <ele>85.09</ele>
        <time>2022-01-09T12:53:49Z</time>
      </trkpt>
      <trkpt lat="48.76042" lon="2.52566">
        <ele>83.94</ele>
        <time>2022-01-09T12:54:03Z</time>
      </trkpt>
      <trkpt lat="48.76045" lon="2.52562">
        <ele>83.72</ele>
        <time>2022-01-09T12:54:08Z</time>
      </trkpt>
      <trkpt lat="48.76047" lon="2.52542">
        <ele>82.52</ele>
        <time>2022-01-09T12:54:20Z</time>
      </trkpt>
      <trkpt lat="48.76048" lon="2.52537">
        <ele>82.76</ele>
        <time>2022-01-09T12:54:23Z</time>
      </trkpt>
      <trkpt lat="48.76051" lon="2.52521">
        <ele>82.05</ele>
        <time>2022-01-09T12:54:33Z</time>
      </trkpt>
      <trkpt lat="48.76051" lon="2.52516">
        <ele>81.4</ele>
        <time>2022-01-09T12:54:36Z</time>
      </trkpt>
      <trkpt lat="48.76049" lon="2.52496">
        <ele>81.03</ele>
        <time>2022-01-09T12:54:47Z</time>
      </trkpt>
      <trkpt lat="48.76048" lon="2.52482">
        <ele>80.35</ele>
        <time>2022-01-09T12:54:58Z</time>
      </trkpt>
      <trkpt lat="48.76047" lon="2.52483">
        <ele>80.86</ele>
        <time>2022-01-09T12:55:00Z</time>
      </trkpt>
      <trkpt lat="48.76046" lon="2.5251">
        <ele>81.9</ele>
        <time>2022-01-09T12:55:17Z</time>
      </trkpt>
      <trkpt lat="48.76045" lon="2.5253">
        <ele>82.94</ele>
        <time>2022-01-09T12:55:29Z</time>
      </trkpt>
      <trkpt lat="48.76047" lon="2.52546">
        <ele>83.38</ele>
        <time>2022-01-09T12:55:40Z</time>
      </trkpt>
      <trkpt lat="48.7605" lon="2.52546">
        <ele>83.45</ele>
        <time>2022-01-09T12:55:44Z</time>
      </trkpt>
      <trkpt lat="48.76056" lon="2.52545">
        <ele>82.79</ele>
        <time>2022-01-09T12:55:55Z</time>
      </trkpt>
      <trkpt lat="48.76066" lon="2.52542">
        <ele>83.42</ele>
        <time>2022-01-09T12:56:12Z</time>
      </trkpt>
      <trkpt lat="48.7608" lon="2.52538">
        <ele>83.28</ele>
        <time>2022-01-09T12:56:28Z</time>
      </trkpt>
      <trkpt lat="48.76096" lon="2.52538">
        <ele>83.96</ele>
        <time>2022-01-09T12:56:41Z</time>
      </trkpt>
      <trkpt lat="48.76102" lon="2.52537">
        <ele>85.77</ele>
        <time>2022-01-09T12:56:45Z</time>
      </trkpt>
      <trkpt lat="48.76105" lon="2.52536">
        <ele>84.04</ele>
        <time>2022-01-09T12:56:49Z</time>
      </trkpt>
      <trkpt lat="48.76119" lon="2.52536">
        <ele>84.17</ele>
        <time>2022-01-09T12:57:04Z</time>
      </trkpt>
      <trkpt lat="48.76134" lon="2.52538">
        <ele>84.37</ele>
        <time>2022-01-09T12:57:20Z</time>
      </trkpt>
      <trkpt lat="48.76149" lon="2.52534">
        <ele>84.71</ele>
        <time>2022-01-09T12:57:35Z</time>
      </trkpt>
      <trkpt lat="48.76166" lon="2.52528">
        <ele>85.55</ele>
        <time>2022-01-09T12:57:54Z</time>
      </trkpt>
      <trkpt lat="48.76173" lon="2.52522">
        <ele>84.87</ele>
        <time>2022-01-09T12:58:03Z</time>
      </trkpt>
      <trkpt lat="48.76184" lon="2.52516">
        <ele>84.93</ele>
        <time>2022-01-09T12:58:17Z</time>
      </trkpt>
      <trkpt lat="48.76199" lon="2.52508">
        <ele>84.97</ele>
        <time>2022-01-09T12:58:31Z</time>
      </trkpt>
      <trkpt lat="48.76213" lon="2.52497">
        <ele>84.28</ele>
        <time>2022-01-09T12:58:48Z</time>
      </trkpt>
      <trkpt lat="48.76229" lon="2.52493">
        <ele>84.25</ele>
        <time>2022-01-09T12:59:04Z</time>
      </trkpt>
      <trkpt lat="48.76248" lon="2.52489">
        <ele>84.08</ele>
        <time>2022-01-09T12:59:21Z</time>
      </trkpt>
      <trkpt lat="48.76263" lon="2.52478">
        <ele>84.19</ele>
        <time>2022-01-09T12:59:33Z</time>
      </trkpt>
      <trkpt lat="48.76283" lon="2.52473">
        <ele>82.75</ele>
        <time>2022-01-09T12:59:50Z</time>
      </trkpt>
      <trkpt lat="48.76294" lon="2.52467">
        <ele>83.05</ele>
        <time>2022-01-09T13:00:03Z</time>
      </trkpt>
      <trkpt lat="48.76307" lon="2.52466">
        <ele>82.57</ele>
        <time>2022-01-09T13:00:17Z</time>
      </trkpt>
      <trkpt lat="48.76309" lon="2.52467">
        <ele>82.25</ele>
        <time>2022-01-09T13:00:20Z</time>
      </trkpt>
      <trkpt lat="48.76316" lon="2.52474">
        <ele>82.73</ele>
        <time>2022-01-09T13:00:32Z</time>
      </trkpt>
      <trkpt lat="48.76328" lon="2.52481">
        <ele>83.15</ele>
        <time>2022-01-09T13:00:47Z</time>
      </trkpt>
      <trkpt lat="48.7634" lon="2.52473">
        <ele>83.29</ele>
        <time>2022-01-09T13:01:02Z</time>
      </trkpt>
      <trkpt lat="48.76351" lon="2.52463">
        <ele>82.97</ele>
        <time>2022-01-09T13:01:15Z</time>
      </trkpt>
      <trkpt lat="48.76363" lon="2.52456">
        <ele>82.3</ele>
        <time>2022-01-09T13:01:28Z</time>
      </trkpt>
      <trkpt lat="48.76366" lon="2.52453">
        <ele>81.56</ele>
        <time>2022-01-09T13:01:42Z</time>
      </trkpt>
      <trkpt lat="48.76373" lon="2.52444">
        <ele>79.97</ele>
        <time>2022-01-09T13:01:51Z</time>
      </trkpt>
      <trkpt lat="48.76371" lon="2.52436">
        <ele>80.92</ele>
        <time>2022-01-09T13:02:02Z</time>
      </trkpt>
      <trkpt lat="48.76368" lon="2.5242">
        <ele>80.55</ele>
        <time>2022-01-09T13:02:15Z</time>
      </trkpt>
      <trkpt lat="48.76362" lon="2.52405">
        <ele>79.71</ele>
        <time>2022-01-09T13:02:27Z</time>
      </trkpt>
      <trkpt lat="48.76357" lon="2.52392">
        <ele>78.72</ele>
        <time>2022-01-09T13:02:39Z</time>
      </trkpt>
      <trkpt lat="48.76352" lon="2.52377">
        <ele>78.39</ele>
        <time>2022-01-09T13:02:49Z</time>
      </trkpt>
      <trkpt lat="48.76344" lon="2.52358">
        <ele>76.77</ele>
        <time>2022-01-09T13:03:03Z</time>
      </trkpt>
      <trkpt lat="48.76337" lon="2.52336">
        <ele>75.99</ele>
        <time>2022-01-09T13:03:15Z</time>
      </trkpt>
      <trkpt lat="48.76336" lon="2.52334">
        <ele>76.44</ele>
        <time>2022-01-09T13:03:17Z</time>
      </trkpt>
      <trkpt lat="48.76329" lon="2.52319">
        <ele>75.17</ele>
        <time>2022-01-09T13:03:30Z</time>
      </trkpt>
      <trkpt lat="48.76323" lon="2.52297">
        <ele>72.65</ele>
        <time>2022-01-09T13:03:45Z</time>
      </trkpt>
      <trkpt lat="48.76316" lon="2.52275">
        <ele>72.39</ele>
        <time>2022-01-09T13:03:59Z</time>
      </trkpt>
      <trkpt lat="48.76309" lon="2.52261">
        <ele>70.92</ele>
        <time>2022-01-09T13:04:10Z</time>
      </trkpt>
      <trkpt lat="48.763" lon="2.52239">
        <ele>69.3</ele>
        <time>2022-01-09T13:04:27Z</time>
      </trkpt>
      <trkpt lat="48.76292" lon="2.52226">
        <ele>68.99</ele>
        <time>2022-01-09T13:04:38Z</time>
      </trkpt>
      <trkpt lat="48.76302" lon="2.52212">
        <ele>68.67</ele>
        <time>2022-01-09T13:04:56Z</time>
      </trkpt>
      <trkpt lat="48.76305" lon="2.52206">
        <ele>69.37</ele>
        <time>2022-01-09T13:05:01Z</time>
      </trkpt>
      <trkpt lat="48.76313" lon="2.52203">
        <ele>70.04</ele>
        <time>2022-01-09T13:05:13Z</time>
      </trkpt>
      <trkpt lat="48.7632" lon="2.52219">
        <ele>71.05</ele>
        <time>2022-01-09T13:05:29Z</time>
      </trkpt>
      <trkpt lat="48.76325" lon="2.52232">
        <ele>72.06</ele>
        <time>2022-01-09T13:05:42Z</time>
      </trkpt>
      <trkpt lat="48.76331" lon="2.52241">
        <ele>72.6</ele>
        <time>2022-01-09T13:05:52Z</time>
      </trkpt>
      <trkpt lat="48.76346" lon="2.52235">
        <ele>72.21</ele>
        <time>2022-01-09T13:06:09Z</time>
      </trkpt>
      <trkpt lat="48.7635" lon="2.52226">
        <ele>71.66</ele>
        <time>2022-01-09T13:06:22Z</time>
      </trkpt>
      <trkpt lat="48.76354" lon="2.52218">
        <ele>70.66</ele>
        <time>2022-01-09T13:06:37Z</time>
      </trkpt>
      <trkpt lat="48.76357" lon="2.52205">
        <ele>69.84</ele>
        <time>2022-01-09T13:06:53Z</time>
      </trkpt>
      <trkpt lat="48.76371" lon="2.52194">
        <ele>69.22</ele>
        <time>2022-01-09T13:07:08Z</time>
      </trkpt>
      <trkpt lat="48.76389" lon="2.52187">
        <ele>68.33</ele>
        <time>2022-01-09T13:07:23Z</time>
      </trkpt>
      <trkpt lat="48.76407" lon="2.52177">
        <ele>67.72</ele>
        <time>2022-01-09T13:07:39Z</time>
      </trkpt>
      <trkpt lat="48.76419" lon="2.52166">
        <ele>67.25</ele>
        <time>2022-01-09T13:07:53Z</time>
      </trkpt>
      <trkpt lat="48.76433" lon="2.52154">
        <ele>66.39</ele>
        <time>2022-01-09T13:08:07Z</time>
      </trkpt>
      <trkpt lat="48.7644" lon="2.52144">
        <ele>66.47</ele>
        <time>2022-01-09T13:08:14Z</time>
      </trkpt>
      <trkpt lat="48.76452" lon="2.52132">
        <ele>65.97</ele>
        <time>2022-01-09T13:08:29Z</time>
      </trkpt>
      <trkpt lat="48.76454" lon="2.52131">
        <ele>65.4</ele>
        <time>2022-01-09T13:08:31Z</time>
      </trkpt>
      <trkpt lat="48.76456" lon="2.52129">
        <ele>65.18</ele>
        <time>2022-01-09T13:08:33Z</time>
      </trkpt>
      <trkpt lat="48.76469" lon="2.5212">
        <ele>65.16</ele>
        <time>2022-01-09T13:08:49Z</time>
      </trkpt>
      <trkpt lat="48.76479" lon="2.52105">
        <ele>63.9</ele>
        <time>2022-01-09T13:09:04Z</time>
      </trkpt>
      <trkpt lat="48.76486" lon="2.5209">
        <ele>64.22</ele>
        <time>2022-01-09T13:09:14Z</time>
      </trkpt>
      <trkpt lat="48.76494" lon="2.52081">
        <ele>63.53</ele>
        <time>2022-01-09T13:09:23Z</time>
      </trkpt>
      <trkpt lat="48.76499" lon="2.52071">
        <ele>63.91</ele>
        <time>2022-01-09T13:09:29Z</time>
      </trkpt>
      <trkpt lat="48.765" lon="2.5207">
        <ele>63.84</ele>
        <time>2022-01-09T13:09:31Z</time>
      </trkpt>
      <trkpt lat="48.76501" lon="2.52057">
        <ele>63.21</ele>
        <time>2022-01-09T13:09:43Z</time>
      </trkpt>
      <trkpt lat="48.76498" lon="2.52054">
        <ele>61.98</ele>
        <time>2022-01-09T13:09:52Z</time>
      </trkpt>
      <trkpt lat="48.76495" lon="2.52051">
        <ele>60.85</ele>
        <time>2022-01-09T13:09:56Z</time>
      </trkpt>
      <trkpt lat="48.76488" lon="2.52036">
        <ele>57.8</ele>
        <time>2022-01-09T13:10:10Z</time>
      </trkpt>
      <trkpt lat="48.76485" lon="2.52025">
        <ele>55.17</ele>
        <time>2022-01-09T13:10:20Z</time>
      </trkpt>
      <trkpt lat="48.76483" lon="2.5202">
        <ele>54.68</ele>
        <time>2022-01-09T13:10:23Z</time>
      </trkpt>
      <trkpt lat="48.76466" lon="2.52005">
        <ele>53.23</ele>
        <time>2022-01-09T13:10:36Z</time>
      </trkpt>
      <trkpt lat="48.76461" lon="2.51998">
        <ele>52.06</ele>
        <time>2022-01-09T13:10:48Z</time>
      </trkpt>
      <trkpt lat="48.76463" lon="2.52">
        <ele>52.48</ele>
        <time>2022-01-09T13:10:52Z</time>
      </trkpt>
      <trkpt lat="48.76474" lon="2.52017">
        <ele>54.65</ele>
        <time>2022-01-09T13:11:08Z</time>
      </trkpt>
      <trkpt lat="48.76485" lon="2.52029">
        <ele>56.94</ele>
        <time>2022-01-09T13:11:22Z</time>
      </trkpt>
      <trkpt lat="48.76492" lon="2.52039">
        <ele>58.83</ele>
        <time>2022-01-09T13:11:32Z</time>
      </trkpt>
      <trkpt lat="48.76499" lon="2.52052">
        <ele>61.07</ele>
        <time>2022-01-09T13:11:43Z</time>
      </trkpt>
      <trkpt lat="48.76505" lon="2.52063">
        <ele>62.02</ele>
        <time>2022-01-09T13:11:55Z</time>
      </trkpt>
      <trkpt lat="48.76513" lon="2.52059">
        <ele>61.49</ele>
        <time>2022-01-09T13:12:05Z</time>
      </trkpt>
      <trkpt lat="48.76515" lon="2.52056">
        <ele>62.74</ele>
        <time>2022-01-09T13:12:10Z</time>
      </trkpt>
      <trkpt lat="48.76517" lon="2.52053">
        <ele>62.89</ele>
        <time>2022-01-09T13:12:13Z</time>
      </trkpt>
      <trkpt lat="48.76527" lon="2.52043">
        <ele>61.92</ele>
        <time>2022-01-09T13:12:24Z</time>
      </trkpt>
      <trkpt lat="48.76537" lon="2.52034">
        <ele>62.3</ele>
        <time>2022-01-09T13:12:36Z</time>
      </trkpt>
      <trkpt lat="48.76539" lon="2.52033">
        <ele>62.52</ele>
        <time>2022-01-09T13:12:38Z</time>
      </trkpt>
      <trkpt lat="48.76542" lon="2.52029">
        <ele>62.65</ele>
        <time>2022-01-09T13:12:42Z</time>
      </trkpt>
      <trkpt lat="48.76553" lon="2.52015">
        <ele>61.78</ele>
        <time>2022-01-09T13:12:54Z</time>
      </trkpt>
      <trkpt lat="48.76561" lon="2.52004">
        <ele>60.92</ele>
        <time>2022-01-09T13:13:06Z</time>
      </trkpt>
      <trkpt lat="48.76569" lon="2.51995">
        <ele>60.02</ele>
        <time>2022-01-09T13:13:19Z</time>
      </trkpt>
      <trkpt lat="48.76577" lon="2.51989">
        <ele>60.52</ele>
        <time>2022-01-09T13:13:29Z</time>
      </trkpt>
      <trkpt lat="48.76583" lon="2.51984">
        <ele>59.83</ele>
        <time>2022-01-09T13:13:46Z</time>
      </trkpt>
      <trkpt lat="48.76582" lon="2.51971">
        <ele>58.92</ele>
        <time>2022-01-09T13:13:57Z</time>
      </trkpt>
      <trkpt lat="48.76576" lon="2.51958">
        <ele>57.47</ele>
        <time>2022-01-09T13:14:12Z</time>
      </trkpt>
      <trkpt lat="48.76567" lon="2.51946">
        <ele>55.79</ele>
        <time>2022-01-09T13:14:26Z</time>
      </trkpt>
      <trkpt lat="48.76561" lon="2.51932">
        <ele>54.49</ele>
        <time>2022-01-09T13:14:37Z</time>
      </trkpt>
      <trkpt lat="48.76553" lon="2.51915">
        <ele>53.07</ele>
        <time>2022-01-09T13:14:51Z</time>
      </trkpt>
      <trkpt lat="48.76547" lon="2.51892">
        <ele>52.67</ele>
        <time>2022-01-09T13:15:04Z</time>
      </trkpt>
      <trkpt lat="48.76547" lon="2.51891">
        <ele>52.19</ele>
        <time>2022-01-09T13:15:05Z</time>
      </trkpt>
      <trkpt lat="48.76551" lon="2.51885">
        <ele>51.85</ele>
        <time>2022-01-09T13:15:10Z</time>
      </trkpt>
      <trkpt lat="48.76555" lon="2.51874">
        <ele>51.44</ele>
        <time>2022-01-09T13:15:18Z</time>
      </trkpt>
      <trkpt lat="48.76558" lon="2.51855">
        <ele>51.5</ele>
        <time>2022-01-09T13:15:33Z</time>
      </trkpt>
      <trkpt lat="48.7656" lon="2.51842">
        <ele>49.7</ele>
        <time>2022-01-09T13:15:48Z</time>
      </trkpt>
      <trkpt lat="48.76565" lon="2.51826">
        <ele>47.75</ele>
        <time>2022-01-09T13:16:03Z</time>
      </trkpt>
      <trkpt lat="48.76574" lon="2.51812">
        <ele>47.84</ele>
        <time>2022-01-09T13:16:18Z</time>
      </trkpt>
      <trkpt lat="48.76585" lon="2.51796">
        <ele>47.04</ele>
        <time>2022-01-09T13:16:32Z</time>
      </trkpt>
      <trkpt lat="48.766" lon="2.51793">
        <ele>47.33</ele>
        <time>2022-01-09T13:16:46Z</time>
      </trkpt>
      <trkpt lat="48.76604" lon="2.51797">
        <ele>47.61</ele>
        <time>2022-01-09T13:16:52Z</time>
      </trkpt>
      <trkpt lat="48.76612" lon="2.51802">
        <ele>48.32</ele>
        <time>2022-01-09T13:17:04Z</time>
      </trkpt>
      <trkpt lat="48.76616" lon="2.51803">
        <ele>48.51</ele>
        <time>2022-01-09T13:17:19Z</time>
      </trkpt>
      <trkpt lat="48.76621" lon="2.51813">
        <ele>48.28</ele>
        <time>2022-01-09T13:17:31Z</time>
      </trkpt>
      <trkpt lat="48.76623" lon="2.51818">
        <ele>48.31</ele>
        <time>2022-01-09T13:17:36Z</time>
      </trkpt>
      <trkpt lat="48.76626" lon="2.51823">
        <ele>48.94</ele>
        <time>2022-01-09T13:17:41Z</time>
      </trkpt>
      <trkpt lat="48.7663" lon="2.5183">
        <ele>49.44</ele>
        <time>2022-01-09T13:17:53Z</time>
      </trkpt>
      <trkpt lat="48.7663" lon="2.5183">
        <ele>49.3</ele>
        <time>2022-01-09T13:17:55Z</time>
      </trkpt>
      <trkpt lat="48.76638" lon="2.51821">
        <ele>48.21</ele>
        <time>2022-01-09T13:18:10Z</time>
      </trkpt>
      <trkpt lat="48.76649" lon="2.51807">
        <ele>47.82</ele>
        <time>2022-01-09T13:18:25Z</time>
      </trkpt>
      <trkpt lat="48.76654" lon="2.51803">
        <ele>47.66</ele>
        <time>2022-01-09T13:18:30Z</time>
      </trkpt>
      <trkpt lat="48.76656" lon="2.51801">
        <ele>46.88</ele>
        <time>2022-01-09T13:18:32Z</time>
      </trkpt>
      <trkpt lat="48.76663" lon="2.5179">
        <ele>46.68</ele>
        <time>2022-01-09T13:18:41Z</time>
      </trkpt>
      <trkpt lat="48.7667" lon="2.51784">
        <ele>46.72</ele>
        <time>2022-01-09T13:18:54Z</time>
      </trkpt>
      <trkpt lat="48.76673" lon="2.51783">
        <ele>46.22</ele>
        <time>2022-01-09T13:18:57Z</time>
      </trkpt>
      <trkpt lat="48.76676" lon="2.51784">
        <ele>46.47</ele>
        <time>2022-01-09T13:19:01Z</time>
      </trkpt>
      <trkpt lat="48.76679" lon="2.5179">
        <ele>46.76</ele>
        <time>2022-01-09T13:19:13Z</time>
      </trkpt>
      <trkpt lat="48.76684" lon="2.51801">
        <ele>47.19</ele>
        <time>2022-01-09T13:19:25Z</time>
      </trkpt>
      <trkpt lat="48.76693" lon="2.51813">
        <ele>48.1</ele>
        <time>2022-01-09T13:19:40Z</time>
      </trkpt>
      <trkpt lat="48.76703" lon="2.51821">
        <ele>49.08</ele>
        <time>2022-01-09T13:19:54Z</time>
      </trkpt>
      <trkpt lat="48.76707" lon="2.51826">
        <ele>49.81</ele>
        <time>2022-01-09T13:19:58Z</time>
      </trkpt>
      <trkpt lat="48.76708" lon="2.51828">
        <ele>49.79</ele>
        <time>2022-01-09T13:20:08Z</time>
      </trkpt>
      <trkpt lat="48.76705" lon="2.51835">
        <ele>49.7</ele>
        <time>2022-01-09T13:20:20Z</time>
      </trkpt>
      <trkpt lat="48.76705" lon="2.51837">
        <ele>50.97</ele>
        <time>2022-01-09T13:20:23Z</time>
      </trkpt>
      <trkpt lat="48.767" lon="2.51842">
        <ele>50.02</ele>
        <time>2022-01-09T13:20:31Z</time>
      </trkpt>
      <trkpt lat="48.76692" lon="2.5185">
        <ele>50.36</ele>
        <time>2022-01-09T13:20:38Z</time>
      </trkpt>
      <trkpt lat="48.76691" lon="2.51857">
        <ele>50.26</ele>
        <time>2022-01-09T13:20:42Z</time>
      </trkpt>
      <trkpt lat="48.76692" lon="2.51865">
        <ele>50.27</ele>
        <time>2022-01-09T13:20:47Z</time>
      </trkpt>
      <trkpt lat="48.76696" lon="2.51882">
        <ele>52.33</ele>
        <time>2022-01-09T13:21:01Z</time>
      </trkpt>
      <trkpt lat="48.76698" lon="2.51884">
        <ele>53.08</ele>
        <time>2022-01-09T13:21:04Z</time>
      </trkpt>
      <trkpt lat="48.76712" lon="2.51886">
        <ele>52.7</ele>
        <time>2022-01-09T13:21:16Z</time>
      </trkpt>
      <trkpt lat="48.7673" lon="2.5188">
        <ele>53.23</ele>
        <time>2022-01-09T13:21:32Z</time>
      </trkpt>
      <trkpt lat="48.76736" lon="2.51883">
        <ele>54.01</ele>
        <time>2022-01-09T13:21:43Z</time>
      </trkpt>
      <trkpt lat="48.76744" lon="2.51885">
        <ele>54.06</ele>
        <time>2022-01-09T13:21:53Z</time>
      </trkpt>
      <trkpt lat="48.76749" lon="2.51894">
        <ele>56.48</ele>
        <time>2022-01-09T13:22:06Z</time>
      </trkpt>
      <trkpt lat="48.76752" lon="2.51893">
        <ele>56.54</ele>
        <time>2022-01-09T13:22:20Z</time>
      </trkpt>
      <trkpt lat="48.76757" lon="2.51891">
        <ele>56.59</ele>
        <time>2022-01-09T13:22:33Z</time>
      </trkpt>
      <trkpt lat="48.76764" lon="2.51889">
        <ele>56.88</ele>
        <time>2022-01-09T13:22:47Z</time>
      </trkpt>
      <trkpt lat="48.76775" lon="2.51893">
        <ele>58.14</ele>
        <time>2022-01-09T13:22:59Z</time>
      </trkpt>
      <trkpt lat="48.76778" lon="2.51895">
        <ele>59.12</ele>
        <time>2022-01-09T13:23:02Z</time>
      </trkpt>
      <trkpt lat="48.76781" lon="2.51895">
        <ele>59.1</ele>
        <time>2022-01-09T13:23:05Z</time>
      </trkpt>
      <trkpt lat="48.76782" lon="2.51896">
        <ele>59.39</ele>
        <time>2022-01-09T13:23:06Z</time>
      </trkpt>
      <trkpt lat="48.76796" lon="2.519">
        <ele>60.5</ele>
        <time>2022-01-09T13:23:16Z</time>
      </trkpt>
      <trkpt lat="48.76804" lon="2.51906">
        <ele>60.66</ele>
        <time>2022-01-09T13:23:28Z</time>
      </trkpt>
      <trkpt lat="48.76806" lon="2.51907">
        <ele>62.2</ele>
        <time>2022-01-09T13:23:32Z</time>
      </trkpt>
      <trkpt lat="48.76814" lon="2.5191">
        <ele>63.34</ele>
        <time>2022-01-09T13:23:45Z</time>
      </trkpt>
      <trkpt lat="48.76823" lon="2.51917">
        <ele>64.23</ele>
        <time>2022-01-09T13:23:56Z</time>
      </trkpt>
      <trkpt lat="48.76829" lon="2.51926">
        <ele>64.78</ele>
        <time>2022-01-09T13:24:04Z</time>
      </trkpt>
      <trkpt lat="48.76831" lon="2.51928">
        <ele>64.95</ele>
        <time>2022-01-09T13:24:07Z</time>
      </trkpt>
      <trkpt lat="48.76834" lon="2.51933">
        <ele>65.27</ele>
        <time>2022-01-09T13:24:11Z</time>
      </trkpt>
      <trkpt lat="48.76839" lon="2.51943">
        <ele>65.92</ele>
        <time>2022-01-09T13:24:19Z</time>
      </trkpt>
      <trkpt lat="48.76841" lon="2.51959">
        <ele>66.68</ele>
        <time>2022-01-09T13:24:30Z</time>
      </trkpt>
      <trkpt lat="48.76845" lon="2.51966">
        <ele>67.84</ele>
        <time>2022-01-09T13:24:38Z</time>
      </trkpt>
      <trkpt lat="48.76852" lon="2.51971">
        <ele>67.52</ele>
        <time>2022-01-09T13:24:47Z</time>
      </trkpt>
      <trkpt lat="48.76852" lon="2.51975">
        <ele>67.72</ele>
        <time>2022-01-09T13:24:49Z</time>
      </trkpt>
      <trkpt lat="48.76852" lon="2.51981">
        <ele>67.42</ele>
        <time>2022-01-09T13:24:52Z</time>
      </trkpt>
      <trkpt lat="48.76845" lon="2.51998">
        <ele>67.9</ele>
        <time>2022-01-09T13:25:03Z</time>
      </trkpt>
      <trkpt lat="48.76843" lon="2.52">
        <ele>68.03</ele>
        <time>2022-01-09T13:25:05Z</time>
      </trkpt>
      <trkpt lat="48.76831" lon="2.52012">
        <ele>68.31</ele>
        <time>2022-01-09T13:25:17Z</time>
      </trkpt>
      <trkpt lat="48.76832" lon="2.52023">
        <ele>69.62</ele>
        <time>2022-01-09T13:25:31Z</time>
      </trkpt>
      <trkpt lat="48.76836" lon="2.52035">
        <ele>71.26</ele>
        <time>2022-01-09T13:25:43Z</time>
      </trkpt>
      <trkpt lat="48.76844" lon="2.52049">
        <ele>73.03</ele>
        <time>2022-01-09T13:25:57Z</time>
      </trkpt>
      <trkpt lat="48.76851" lon="2.52065">
        <ele>73.62</ele>
        <time>2022-01-09T13:26:10Z</time>
      </trkpt>
      <trkpt lat="48.7686" lon="2.52073">
        <ele>74.42</ele>
        <time>2022-01-09T13:26:22Z</time>
      </trkpt>
      <trkpt lat="48.76863" lon="2.52083">
        <ele>74.72</ele>
        <time>2022-01-09T13:26:37Z</time>
      </trkpt>
      <trkpt lat="48.76876" lon="2.5209">
        <ele>74.04</ele>
        <time>2022-01-09T13:26:49Z</time>
      </trkpt>
      <trkpt lat="48.76886" lon="2.52098">
        <ele>74.52</ele>
        <time>2022-01-09T13:27:02Z</time>
      </trkpt>
      <trkpt lat="48.76894" lon="2.52101">
        <ele>74.82</ele>
        <time>2022-01-09T13:27:23Z</time>
      </trkpt>
      <trkpt lat="48.76881" lon="2.52107">
        <ele>75.25</ele>
        <time>2022-01-09T13:28:24Z</time>
      </trkpt>
      <trkpt lat="48.76879" lon="2.52099">
        <ele>75.06</ele>
        <time>2022-01-09T13:28:31Z</time>
      </trkpt>
      <trkpt lat="48.76879" lon="2.52092">
        <ele>75.17</ele>
        <time>2022-01-09T13:28:51Z</time>
      </trkpt>
      <trkpt lat="48.76878" lon="2.52092">
        <ele>75.37</ele>
        <time>2022-01-09T13:28:58Z</time>
      </trkpt>
      <trkpt lat="48.7688" lon="2.52094">
        <ele>74.75</ele>
        <time>2022-01-09T13:29:07Z</time>
      </trkpt>
      <trkpt lat="48.76878" lon="2.52099">
        <ele>74.69</ele>
        <time>2022-01-09T13:29:19Z</time>
      </trkpt>
      <trkpt lat="48.7688" lon="2.52095">
        <ele>75.59</ele>
        <time>2022-01-09T13:29:34Z</time>
      </trkpt>
      <trkpt lat="48.76881" lon="2.52095">
        <ele>75.35</ele>
        <time>2022-01-09T13:29:52Z</time>
      </trkpt>
      <trkpt lat="48.76884" lon="2.52097">
        <ele>75.47</ele>
        <time>2022-01-09T13:30:15Z</time>
      </trkpt>
      <trkpt lat="48.76883" lon="2.52095">
        <ele>75.7</ele>
        <time>2022-01-09T13:30:38Z</time>
      </trkpt>
      <trkpt lat="48.76887" lon="2.52092">
        <ele>75.2</ele>
        <time>2022-01-09T13:30:57Z</time>
      </trkpt>
      <trkpt lat="48.76887" lon="2.52092">
        <ele>75.45</ele>
        <time>2022-01-09T13:31:17Z</time>
      </trkpt>
      <trkpt lat="48.76887" lon="2.52091">
        <ele>75.75</ele>
        <time>2022-01-09T13:31:36Z</time>
      </trkpt>
      <trkpt lat="48.76887" lon="2.5209">
        <ele>75.97</ele>
        <time>2022-01-09T13:31:54Z</time>
      </trkpt>
      <trkpt lat="48.76886" lon="2.52093">
        <ele>76.39</ele>
        <time>2022-01-09T13:32:16Z</time>
      </trkpt>
      <trkpt lat="48.76885" lon="2.52093">
        <ele>76.01</ele>
        <time>2022-01-09T13:32:36Z</time>
      </trkpt>
      <trkpt lat="48.76887" lon="2.5209">
        <ele>76.66</ele>
        <time>2022-01-09T13:32:59Z</time>
      </trkpt>
      <trkpt lat="48.76887" lon="2.52092">
        <ele>76.88</ele>
        <time>2022-01-09T13:33:20Z</time>
      </trkpt>
      <trkpt lat="48.76884" lon="2.52092">
        <ele>77.21</ele>
        <time>2022-01-09T13:33:34Z</time>
      </trkpt>
      <trkpt lat="48.7688" lon="2.52091">
        <ele>76.58</ele>
        <time>2022-01-09T13:33:49Z</time>
      </trkpt>
      <trkpt lat="48.76883" lon="2.52088">
        <ele>76.89</ele>
        <time>2022-01-09T13:34:04Z</time>
      </trkpt>
      <trkpt lat="48.76884" lon="2.52084">
        <ele>76.85</ele>
        <time>2022-01-09T13:34:21Z</time>
      </trkpt>
      <trkpt lat="48.76885" lon="2.52084">
        <ele>77.1</ele>
        <time>2022-01-09T13:34:38Z</time>
      </trkpt>
      <trkpt lat="48.76889" lon="2.52084">
        <ele>76.72</ele>
        <time>2022-01-09T13:34:59Z</time>
      </trkpt>
      <trkpt lat="48.76898" lon="2.52085">
        <ele>76.97</ele>
        <time>2022-01-09T13:35:13Z</time>
      </trkpt>
      <trkpt lat="48.76904" lon="2.52083">
        <ele>77.65</ele>
        <time>2022-01-09T13:35:26Z</time>
      </trkpt>
      <trkpt lat="48.76911" lon="2.52079">
        <ele>76.35</ele>
        <time>2022-01-09T13:35:39Z</time>
      </trkpt>
      <trkpt lat="48.76914" lon="2.52079">
        <ele>76.49</ele>
        <time>2022-01-09T13:35:42Z</time>
      </trkpt>
      <trkpt lat="48.76926" lon="2.5208">
        <ele>76.7</ele>
        <time>2022-01-09T13:35:56Z</time>
      </trkpt>
      <trkpt lat="48.76941" lon="2.52075">
        <ele>75.92</ele>
        <time>2022-01-09T13:36:09Z</time>
      </trkpt>
      <trkpt lat="48.76944" lon="2.52067">
        <ele>75.46</ele>
        <time>2022-01-09T13:36:16Z</time>
      </trkpt>
      <trkpt lat="48.76951" lon="2.52068">
        <ele>75.39</ele>
        <time>2022-01-09T13:36:34Z</time>
      </trkpt>
      <trkpt lat="48.7696" lon="2.52062">
        <ele>75.17</ele>
        <time>2022-01-09T13:36:48Z</time>
      </trkpt>
      <trkpt lat="48.76967" lon="2.52054">
        <ele>74.71</ele>
        <time>2022-01-09T13:37:00Z</time>
      </trkpt>
      <trkpt lat="48.76975" lon="2.52043">
        <ele>74.56</ele>
        <time>2022-01-09T13:37:13Z</time>
      </trkpt>
      <trkpt lat="48.76988" lon="2.5203">
        <ele>73.62</ele>
        <time>2022-01-09T13:37:31Z</time>
      </trkpt>
      <trkpt lat="48.77006" lon="2.52016">
        <ele>73.42</ele>
        <time>2022-01-09T13:37:49Z</time>
      </trkpt>
      <trkpt lat="48.77016" lon="2.52007">
        <ele>72.69</ele>
        <time>2022-01-09T13:37:56Z</time>
      </trkpt>
      <trkpt lat="48.77037" lon="2.51994">
        <ele>72.77</ele>
        <time>2022-01-09T13:38:10Z</time>
      </trkpt>
      <trkpt lat="48.77042" lon="2.51985">
        <ele>73.04</ele>
        <time>2022-01-09T13:38:24Z</time>
      </trkpt>
      <trkpt lat="48.77041" lon="2.51981">
        <ele>72.2</ele>
        <time>2022-01-09T13:38:27Z</time>
      </trkpt>
      <trkpt lat="48.77039" lon="2.51969">
        <ele>72.53</ele>
        <time>2022-01-09T13:38:36Z</time>
      </trkpt>
      <trkpt lat="48.77043" lon="2.51965">
        <ele>72.31</ele>
        <time>2022-01-09T13:38:42Z</time>
      </trkpt>
      <trkpt lat="48.77058" lon="2.51961">
        <ele>72.89</ele>
        <time>2022-01-09T13:38:56Z</time>
      </trkpt>
      <trkpt lat="48.77067" lon="2.51959">
        <ele>72.74</ele>
        <time>2022-01-09T13:39:04Z</time>
      </trkpt>
      <trkpt lat="48.77072" lon="2.51937">
        <ele>71.09</ele>
        <time>2022-01-09T13:39:18Z</time>
      </trkpt>
      <trkpt lat="48.77077" lon="2.51921">
        <ele>69.54</ele>
        <time>2022-01-09T13:39:30Z</time>
      </trkpt>
      <trkpt lat="48.77083" lon="2.519">
        <ele>69.32</ele>
        <time>2022-01-09T13:39:43Z</time>
      </trkpt>
      <trkpt lat="48.77084" lon="2.51893">
        <ele>69.32</ele>
        <time>2022-01-09T13:39:48Z</time>
      </trkpt>
      <trkpt lat="48.77085" lon="2.51889">
        <ele>68.02</ele>
        <time>2022-01-09T13:39:50Z</time>
      </trkpt>
      <trkpt lat="48.77086" lon="2.51875">
        <ele>67.72</ele>
        <time>2022-01-09T13:39:58Z</time>
      </trkpt>
      <trkpt lat="48.77081" lon="2.5186">
        <ele>66.65</ele>
        <time>2022-01-09T13:40:09Z</time>
      </trkpt>
      <trkpt lat="48.77078" lon="2.51827">
        <ele>65.44</ele>
        <time>2022-01-09T13:40:28Z</time>
      </trkpt>
      <trkpt lat="48.77078" lon="2.51797">
        <ele>66.24</ele>
        <time>2022-01-09T13:40:44Z</time>
      </trkpt>
      <trkpt lat="48.77085" lon="2.51787">
        <ele>65.05</ele>
        <time>2022-01-09T13:40:52Z</time>
      </trkpt>
      <trkpt lat="48.77108" lon="2.51786">
        <ele>63.66</ele>
        <time>2022-01-09T13:41:12Z</time>
      </trkpt>
      <trkpt lat="48.77117" lon="2.51776">
        <ele>62.3</ele>
        <time>2022-01-09T13:41:26Z</time>
      </trkpt>
      <trkpt lat="48.77115" lon="2.51769">
        <ele>62.2</ele>
        <time>2022-01-09T13:41:33Z</time>
      </trkpt>
      <trkpt lat="48.77112" lon="2.51757">
        <ele>61</ele>
        <time>2022-01-09T13:41:44Z</time>
      </trkpt>
      <trkpt lat="48.77111" lon="2.51747">
        <ele>61.11</ele>
        <time>2022-01-09T13:41:54Z</time>
      </trkpt>
      <trkpt lat="48.77111" lon="2.51748">
        <ele>61.31</ele>
        <time>2022-01-09T13:41:55Z</time>
      </trkpt>
      <trkpt lat="48.77112" lon="2.51748">
        <ele>61.43</ele>
        <time>2022-01-09T13:41:58Z</time>
      </trkpt>
      <trkpt lat="48.77131" lon="2.51749">
        <ele>61.68</ele>
        <time>2022-01-09T13:42:16Z</time>
      </trkpt>
      <trkpt lat="48.77149" lon="2.5175">
        <ele>60.83</ele>
        <time>2022-01-09T13:42:31Z</time>
      </trkpt>
      <trkpt lat="48.77152" lon="2.51749">
        <ele>61.21</ele>
        <time>2022-01-09T13:42:39Z</time>
      </trkpt>
      <trkpt lat="48.77158" lon="2.5175">
        <ele>61.1</ele>
        <time>2022-01-09T13:42:50Z</time>
      </trkpt>
      <trkpt lat="48.77177" lon="2.51752">
        <ele>60.45</ele>
        <time>2022-01-09T13:43:04Z</time>
      </trkpt>
      <trkpt lat="48.77189" lon="2.51749">
        <ele>59.63</ele>
        <time>2022-01-09T13:43:18Z</time>
      </trkpt>
      <trkpt lat="48.77185" lon="2.51739">
        <ele>58.69</ele>
        <time>2022-01-09T13:43:29Z</time>
      </trkpt>
      <trkpt lat="48.77176" lon="2.5173">
        <ele>57.71</ele>
        <time>2022-01-09T13:43:41Z</time>
      </trkpt>
      <trkpt lat="48.77164" lon="2.51715">
        <ele>56.72</ele>
        <time>2022-01-09T13:43:55Z</time>
      </trkpt>
      <trkpt lat="48.77155" lon="2.51706">
        <ele>55.9</ele>
        <time>2022-01-09T13:44:07Z</time>
      </trkpt>
      <trkpt lat="48.7714" lon="2.51693">
        <ele>54.52</ele>
        <time>2022-01-09T13:44:23Z</time>
      </trkpt>
      <trkpt lat="48.77137" lon="2.5169">
        <ele>54.98</ele>
        <time>2022-01-09T13:44:27Z</time>
      </trkpt>
      <trkpt lat="48.77127" lon="2.51669">
        <ele>54.42</ele>
        <time>2022-01-09T13:44:42Z</time>
      </trkpt>
      <trkpt lat="48.77114" lon="2.51656">
        <ele>53.48</ele>
        <time>2022-01-09T13:44:56Z</time>
      </trkpt>
      <trkpt lat="48.77111" lon="2.51649">
        <ele>53.44</ele>
        <time>2022-01-09T13:45:00Z</time>
      </trkpt>
      <trkpt lat="48.77104" lon="2.51625">
        <ele>50.93</ele>
        <time>2022-01-09T13:45:16Z</time>
      </trkpt>
      <trkpt lat="48.77103" lon="2.51622">
        <ele>52.08</ele>
        <time>2022-01-09T13:45:18Z</time>
      </trkpt>
      <trkpt lat="48.771" lon="2.51604">
        <ele>50.53</ele>
        <time>2022-01-09T13:45:31Z</time>
      </trkpt>
      <trkpt lat="48.771" lon="2.51603">
        <ele>50.1</ele>
        <time>2022-01-09T13:45:32Z</time>
      </trkpt>
      <trkpt lat="48.77096" lon="2.51573">
        <ele>50.01</ele>
        <time>2022-01-09T13:45:46Z</time>
      </trkpt>
      <trkpt lat="48.77097" lon="2.51567">
        <ele>48.34</ele>
        <time>2022-01-09T13:45:50Z</time>
      </trkpt>
      <trkpt lat="48.77097" lon="2.51566">
        <ele>48.55</ele>
        <time>2022-01-09T13:45:51Z</time>
      </trkpt>
      <trkpt lat="48.77101" lon="2.51536">
        <ele>47.09</ele>
        <time>2022-01-09T13:46:07Z</time>
      </trkpt>
      <trkpt lat="48.77102" lon="2.51512">
        <ele>45.5</ele>
        <time>2022-01-09T13:46:20Z</time>
      </trkpt>
      <trkpt lat="48.77103" lon="2.51502">
        <ele>45.13</ele>
        <time>2022-01-09T13:46:31Z</time>
      </trkpt>
      <trkpt lat="48.77105" lon="2.51485">
        <ele>44.04</ele>
        <time>2022-01-09T13:46:43Z</time>
      </trkpt>
      <trkpt lat="48.77107" lon="2.51477">
        <ele>43.72</ele>
        <time>2022-01-09T13:46:49Z</time>
      </trkpt>
      <trkpt lat="48.77111" lon="2.51466">
        <ele>43.3</ele>
        <time>2022-01-09T13:46:56Z</time>
      </trkpt>
      <trkpt lat="48.77113" lon="2.51458">
        <ele>43.73</ele>
        <time>2022-01-09T13:47:00Z</time>
      </trkpt>
      <trkpt lat="48.77116" lon="2.51436">
        <ele>41.72</ele>
        <time>2022-01-09T13:47:14Z</time>
      </trkpt>
      <trkpt lat="48.77117" lon="2.51413">
        <ele>40.79</ele>
        <time>2022-01-09T13:47:27Z</time>
      </trkpt>
      <trkpt lat="48.77117" lon="2.51393">
        <ele>40.14</ele>
        <time>2022-01-09T13:47:40Z</time>
      </trkpt>
      <trkpt lat="48.77119" lon="2.51378">
        <ele>39.58</ele>
        <time>2022-01-09T13:47:51Z</time>
      </trkpt>
      <trkpt lat="48.77123" lon="2.51355">
        <ele>39</ele>
        <time>2022-01-09T13:48:06Z</time>
      </trkpt>
      <trkpt lat="48.77123" lon="2.51352">
        <ele>39</ele>
        <time>2022-01-09T13:48:08Z</time>
      </trkpt>
      <trkpt lat="48.77127" lon="2.51338">
        <ele>38.45</ele>
        <time>2022-01-09T13:48:17Z</time>
      </trkpt>
      <trkpt lat="48.77132" lon="2.51313">
        <ele>37.34</ele>
        <time>2022-01-09T13:48:33Z</time>
      </trkpt>
      <trkpt lat="48.77135" lon="2.5129">
        <ele>35.74</ele>
        <time>2022-01-09T13:48:48Z</time>
      </trkpt>
      <trkpt lat="48.77136" lon="2.51269">
        <ele>35.65</ele>
        <time>2022-01-09T13:49:01Z</time>
      </trkpt>
      <trkpt lat="48.77138" lon="2.51249">
        <ele>35.26</ele>
        <time>2022-01-09T13:49:12Z</time>
      </trkpt>
      <trkpt lat="48.77141" lon="2.51228">
        <ele>34.46</ele>
        <time>2022-01-09T13:49:26Z</time>
      </trkpt>
      <trkpt lat="48.77145" lon="2.51208">
        <ele>34.57</ele>
        <time>2022-01-09T13:49:40Z</time>
      </trkpt>
      <trkpt lat="48.77144" lon="2.51179">
        <ele>32.87</ele>
        <time>2022-01-09T13:49:53Z</time>
      </trkpt>
      <trkpt lat="48.77148" lon="2.51159">
        <ele>31.99</ele>
        <time>2022-01-09T13:50:07Z</time>
      </trkpt>
      <trkpt lat="48.77149" lon="2.51141">
        <ele>31</ele>
        <time>2022-01-09T13:50:20Z</time>
      </trkpt>
      <trkpt lat="48.77149" lon="2.51119">
        <ele>29.71</ele>
        <time>2022-01-09T13:50:34Z</time>
      </trkpt>
      <trkpt lat="48.77152" lon="2.51098">
        <ele>27.89</ele>
        <time>2022-01-09T13:50:50Z</time>
      </trkpt>
      <trkpt lat="48.77158" lon="2.51076">
        <ele>27.21</ele>
        <time>2022-01-09T13:51:04Z</time>
      </trkpt>
      <trkpt lat="48.77158" lon="2.5105">
        <ele>26.25</ele>
        <time>2022-01-09T13:51:18Z</time>
      </trkpt>
      <trkpt lat="48.7716" lon="2.51028">
        <ele>26.22</ele>
        <time>2022-01-09T13:51:35Z</time>
      </trkpt>
      <trkpt lat="48.77155" lon="2.50989">
        <ele>24.89</ele>
        <time>2022-01-09T13:51:52Z</time>
      </trkpt>
      <trkpt lat="48.77162" lon="2.50972">
        <ele>25.29</ele>
        <time>2022-01-09T13:52:05Z</time>
      </trkpt>
      <trkpt lat="48.77164" lon="2.50948">
        <ele>24.09</ele>
        <time>2022-01-09T13:52:20Z</time>
      </trkpt>
      <trkpt lat="48.77159" lon="2.50939">
        <ele>23.81</ele>
        <time>2022-01-09T13:52:34Z</time>
      </trkpt>
      <trkpt lat="48.77151" lon="2.50929">
        <ele>23.59</ele>
        <time>2022-01-09T13:52:47Z</time>
      </trkpt>
      <trkpt lat="48.77139" lon="2.50922">
        <ele>23.22</ele>
        <time>2022-01-09T13:53:01Z</time>
      </trkpt>
      <trkpt lat="48.77124" lon="2.50914">
        <ele>23.31</ele>
        <time>2022-01-09T13:53:18Z</time>
      </trkpt>
      <trkpt lat="48.77111" lon="2.50906">
        <ele>23.59</ele>
        <time>2022-01-09T13:53:34Z</time>
      </trkpt>
      <trkpt lat="48.77102" lon="2.50888">
        <ele>23.45</ele>
        <time>2022-01-09T13:53:49Z</time>
      </trkpt>
      <trkpt lat="48.771" lon="2.50881">
        <ele>23.67</ele>
        <time>2022-01-09T13:54:09Z</time>
      </trkpt>
      <trkpt lat="48.77103" lon="2.50872">
        <ele>24.14</ele>
        <time>2022-01-09T13:54:29Z</time>
      </trkpt>
      <trkpt lat="48.77104" lon="2.50864">
        <ele>23.32</ele>
        <time>2022-01-09T13:54:39Z</time>
      </trkpt>
      <trkpt lat="48.77108" lon="2.50851">
        <ele>23.45</ele>
        <time>2022-01-09T13:54:54Z</time>
      </trkpt>
    </trkseg>
  </trk>
</gpx>